<?xml version="1.0" encoding="UTF-8" standalone="no" ?>
<gpx xmlns="http://www.topografix.com/GPX/1/1" xmlns:xsi="http://www.w3.org/2001/XMLSchema-instance" xsi:schemaLocation="http://www.topografix.com/GPX/1/1 http://www.topografix.com/GPX/1/1/gpx.xsd" version="1.1" creator="VisuGPX - https://www.visugpx.com">
  <metadata>
    <name>Autour du lac vert de Catus</name>
    <desc><![CDATA[Circuit facile, passant par de magnifiques gariottes.
]]></desc>
  </metadata>
  <trk>
    <name><![CDATA[Autour du lac vert de Catus_1]]></name>
    <trkseg>
      <trkpt lat="44.55209" lon="1.32708">
        <ele>160.9</ele>
        <time>2022-07-10T07:02:59Z</time>
      </trkpt>
      <trkpt lat="44.55207" lon="1.32713">
        <ele>158</ele>
        <time>2022-07-10T07:03:04Z</time>
      </trkpt>
      <trkpt lat="44.55204" lon="1.3272">
        <ele>156.7</ele>
        <time>2022-07-10T07:03:08Z</time>
      </trkpt>
      <trkpt lat="44.55202" lon="1.32727">
        <ele>156.3</ele>
        <time>2022-07-10T07:03:12Z</time>
      </trkpt>
      <trkpt lat="44.552" lon="1.32733">
        <ele>155.7</ele>
        <time>2022-07-10T07:03:15Z</time>
      </trkpt>
      <trkpt lat="44.55197" lon="1.32739">
        <ele>155.1</ele>
        <time>2022-07-10T07:03:18Z</time>
      </trkpt>
      <trkpt lat="44.55194" lon="1.32745">
        <ele>153.4</ele>
        <time>2022-07-10T07:03:24Z</time>
      </trkpt>
      <trkpt lat="44.55191" lon="1.32751">
        <ele>153.8</ele>
        <time>2022-07-10T07:03:29Z</time>
      </trkpt>
      <trkpt lat="44.55187" lon="1.32756">
        <ele>154.2</ele>
        <time>2022-07-10T07:03:34Z</time>
      </trkpt>
      <trkpt lat="44.55185" lon="1.32761">
        <ele>154.3</ele>
        <time>2022-07-10T07:03:39Z</time>
      </trkpt>
      <trkpt lat="44.55183" lon="1.32768">
        <ele>155.2</ele>
        <time>2022-07-10T07:03:48Z</time>
      </trkpt>
      <trkpt lat="44.5518" lon="1.32774">
        <ele>155.3</ele>
        <time>2022-07-10T07:03:54Z</time>
      </trkpt>
      <trkpt lat="44.55176" lon="1.32777">
        <ele>156.4</ele>
        <time>2022-07-10T07:04:00Z</time>
      </trkpt>
      <trkpt lat="44.55171" lon="1.32776">
        <ele>157.4</ele>
        <time>2022-07-10T07:04:06Z</time>
      </trkpt>
      <trkpt lat="44.55166" lon="1.32773">
        <ele>157</ele>
        <time>2022-07-10T07:04:11Z</time>
      </trkpt>
      <trkpt lat="44.55161" lon="1.32772">
        <ele>155.1</ele>
        <time>2022-07-10T07:04:17Z</time>
      </trkpt>
      <trkpt lat="44.55156" lon="1.32773">
        <ele>154.4</ele>
        <time>2022-07-10T07:04:23Z</time>
      </trkpt>
      <trkpt lat="44.55152" lon="1.32771">
        <ele>154.2</ele>
        <time>2022-07-10T07:04:28Z</time>
      </trkpt>
      <trkpt lat="44.55147" lon="1.32769">
        <ele>154.1</ele>
        <time>2022-07-10T07:04:32Z</time>
      </trkpt>
      <trkpt lat="44.55143" lon="1.32768">
        <ele>153.3</ele>
        <time>2022-07-10T07:04:36Z</time>
      </trkpt>
      <trkpt lat="44.55137" lon="1.32766">
        <ele>152.7</ele>
        <time>2022-07-10T07:04:42Z</time>
      </trkpt>
      <trkpt lat="44.55132" lon="1.32763">
        <ele>152.8</ele>
        <time>2022-07-10T07:04:47Z</time>
      </trkpt>
      <trkpt lat="44.55128" lon="1.3276">
        <ele>153.5</ele>
        <time>2022-07-10T07:04:52Z</time>
      </trkpt>
      <trkpt lat="44.55124" lon="1.32757">
        <ele>153.8</ele>
        <time>2022-07-10T07:04:57Z</time>
      </trkpt>
      <trkpt lat="44.5512" lon="1.32754">
        <ele>153.2</ele>
        <time>2022-07-10T07:05:03Z</time>
      </trkpt>
      <trkpt lat="44.55116" lon="1.3275">
        <ele>152.5</ele>
        <time>2022-07-10T07:05:10Z</time>
      </trkpt>
      <trkpt lat="44.55112" lon="1.32747">
        <ele>152</ele>
        <time>2022-07-10T07:05:15Z</time>
      </trkpt>
      <trkpt lat="44.55108" lon="1.32743">
        <ele>152.6</ele>
        <time>2022-07-10T07:05:21Z</time>
      </trkpt>
      <trkpt lat="44.55104" lon="1.32739">
        <ele>152.9</ele>
        <time>2022-07-10T07:05:26Z</time>
      </trkpt>
      <trkpt lat="44.55099" lon="1.32737">
        <ele>152.9</ele>
        <time>2022-07-10T07:05:30Z</time>
      </trkpt>
      <trkpt lat="44.55094" lon="1.32738">
        <ele>152.5</ele>
        <time>2022-07-10T07:05:34Z</time>
      </trkpt>
      <trkpt lat="44.55089" lon="1.3274">
        <ele>152.3</ele>
        <time>2022-07-10T07:05:39Z</time>
      </trkpt>
      <trkpt lat="44.55084" lon="1.3274">
        <ele>153.2</ele>
        <time>2022-07-10T07:05:44Z</time>
      </trkpt>
      <trkpt lat="44.55079" lon="1.32739">
        <ele>154.1</ele>
        <time>2022-07-10T07:05:49Z</time>
      </trkpt>
      <trkpt lat="44.55073" lon="1.32738">
        <ele>154.5</ele>
        <time>2022-07-10T07:05:53Z</time>
      </trkpt>
      <trkpt lat="44.55068" lon="1.32738">
        <ele>154.7</ele>
        <time>2022-07-10T07:05:57Z</time>
      </trkpt>
      <trkpt lat="44.55063" lon="1.32737">
        <ele>154.9</ele>
        <time>2022-07-10T07:06:02Z</time>
      </trkpt>
      <trkpt lat="44.55058" lon="1.32737">
        <ele>155.9</ele>
        <time>2022-07-10T07:06:07Z</time>
      </trkpt>
      <trkpt lat="44.55053" lon="1.32735">
        <ele>156.7</ele>
        <time>2022-07-10T07:06:14Z</time>
      </trkpt>
      <trkpt lat="44.55048" lon="1.32735">
        <ele>157.4</ele>
        <time>2022-07-10T07:06:29Z</time>
      </trkpt>
      <trkpt lat="44.55044" lon="1.32739">
        <ele>157</ele>
        <time>2022-07-10T07:06:35Z</time>
      </trkpt>
      <trkpt lat="44.55042" lon="1.32746">
        <ele>157</ele>
        <time>2022-07-10T07:06:40Z</time>
      </trkpt>
      <trkpt lat="44.5504" lon="1.32752">
        <ele>156.7</ele>
        <time>2022-07-10T07:06:45Z</time>
      </trkpt>
      <trkpt lat="44.55037" lon="1.32757">
        <ele>156.9</ele>
        <time>2022-07-10T07:06:50Z</time>
      </trkpt>
      <trkpt lat="44.55032" lon="1.32758">
        <ele>157.1</ele>
        <time>2022-07-10T07:06:56Z</time>
      </trkpt>
      <trkpt lat="44.55027" lon="1.32758">
        <ele>157.4</ele>
        <time>2022-07-10T07:07:02Z</time>
      </trkpt>
      <trkpt lat="44.55022" lon="1.32756">
        <ele>157.3</ele>
        <time>2022-07-10T07:07:09Z</time>
      </trkpt>
      <trkpt lat="44.55018" lon="1.32752">
        <ele>157.9</ele>
        <time>2022-07-10T07:07:15Z</time>
      </trkpt>
      <trkpt lat="44.55013" lon="1.32749">
        <ele>157.8</ele>
        <time>2022-07-10T07:07:20Z</time>
      </trkpt>
      <trkpt lat="44.55009" lon="1.32746">
        <ele>157.5</ele>
        <time>2022-07-10T07:07:25Z</time>
      </trkpt>
      <trkpt lat="44.55004" lon="1.32743">
        <ele>157.5</ele>
        <time>2022-07-10T07:07:30Z</time>
      </trkpt>
      <trkpt lat="44.54999" lon="1.32742">
        <ele>157</ele>
        <time>2022-07-10T07:07:35Z</time>
      </trkpt>
      <trkpt lat="44.54994" lon="1.32741">
        <ele>156.9</ele>
        <time>2022-07-10T07:07:40Z</time>
      </trkpt>
      <trkpt lat="44.54989" lon="1.3274">
        <ele>156.6</ele>
        <time>2022-07-10T07:07:45Z</time>
      </trkpt>
      <trkpt lat="44.54984" lon="1.3274">
        <ele>155.7</ele>
        <time>2022-07-10T07:07:50Z</time>
      </trkpt>
      <trkpt lat="44.5498" lon="1.32738">
        <ele>155.6</ele>
        <time>2022-07-10T07:07:54Z</time>
      </trkpt>
      <trkpt lat="44.54975" lon="1.32737">
        <ele>155.3</ele>
        <time>2022-07-10T07:07:59Z</time>
      </trkpt>
      <trkpt lat="44.54969" lon="1.32737">
        <ele>155.2</ele>
        <time>2022-07-10T07:08:04Z</time>
      </trkpt>
      <trkpt lat="44.54964" lon="1.32736">
        <ele>155.6</ele>
        <time>2022-07-10T07:08:09Z</time>
      </trkpt>
      <trkpt lat="44.54959" lon="1.32736">
        <ele>155.6</ele>
        <time>2022-07-10T07:08:14Z</time>
      </trkpt>
      <trkpt lat="44.54953" lon="1.32737">
        <ele>155.7</ele>
        <time>2022-07-10T07:08:19Z</time>
      </trkpt>
      <trkpt lat="44.54948" lon="1.32737">
        <ele>155.8</ele>
        <time>2022-07-10T07:08:23Z</time>
      </trkpt>
      <trkpt lat="44.54943" lon="1.32737">
        <ele>156</ele>
        <time>2022-07-10T07:08:28Z</time>
      </trkpt>
      <trkpt lat="44.54937" lon="1.32738">
        <ele>155.9</ele>
        <time>2022-07-10T07:08:33Z</time>
      </trkpt>
      <trkpt lat="44.54933" lon="1.32738">
        <ele>155</ele>
        <time>2022-07-10T07:08:37Z</time>
      </trkpt>
      <trkpt lat="44.54927" lon="1.32739">
        <ele>154.9</ele>
        <time>2022-07-10T07:08:42Z</time>
      </trkpt>
      <trkpt lat="44.54922" lon="1.3274">
        <ele>155</ele>
        <time>2022-07-10T07:08:47Z</time>
      </trkpt>
      <trkpt lat="44.54916" lon="1.32741">
        <ele>154.9</ele>
        <time>2022-07-10T07:08:52Z</time>
      </trkpt>
      <trkpt lat="44.54912" lon="1.32741">
        <ele>154.9</ele>
        <time>2022-07-10T07:08:56Z</time>
      </trkpt>
      <trkpt lat="44.54907" lon="1.32741">
        <ele>155</ele>
        <time>2022-07-10T07:09:00Z</time>
      </trkpt>
      <trkpt lat="44.54902" lon="1.32741">
        <ele>154.5</ele>
        <time>2022-07-10T07:09:04Z</time>
      </trkpt>
      <trkpt lat="44.54897" lon="1.32741">
        <ele>154.9</ele>
        <time>2022-07-10T07:09:09Z</time>
      </trkpt>
      <trkpt lat="44.54893" lon="1.32741">
        <ele>155</ele>
        <time>2022-07-10T07:09:13Z</time>
      </trkpt>
      <trkpt lat="44.54888" lon="1.32742">
        <ele>154.9</ele>
        <time>2022-07-10T07:09:17Z</time>
      </trkpt>
      <trkpt lat="44.54883" lon="1.32743">
        <ele>155</ele>
        <time>2022-07-10T07:09:21Z</time>
      </trkpt>
      <trkpt lat="44.54878" lon="1.32743">
        <ele>155.5</ele>
        <time>2022-07-10T07:09:25Z</time>
      </trkpt>
      <trkpt lat="44.54873" lon="1.32743">
        <ele>156.2</ele>
        <time>2022-07-10T07:09:29Z</time>
      </trkpt>
      <trkpt lat="44.54869" lon="1.32741">
        <ele>156.8</ele>
        <time>2022-07-10T07:09:33Z</time>
      </trkpt>
      <trkpt lat="44.54864" lon="1.32743">
        <ele>156.1</ele>
        <time>2022-07-10T07:09:38Z</time>
      </trkpt>
      <trkpt lat="44.5486" lon="1.32743">
        <ele>155.4</ele>
        <time>2022-07-10T07:09:42Z</time>
      </trkpt>
      <trkpt lat="44.54855" lon="1.32743">
        <ele>155</ele>
        <time>2022-07-10T07:09:46Z</time>
      </trkpt>
      <trkpt lat="44.54849" lon="1.32742">
        <ele>154.3</ele>
        <time>2022-07-10T07:09:51Z</time>
      </trkpt>
      <trkpt lat="44.54844" lon="1.3274">
        <ele>154.5</ele>
        <time>2022-07-10T07:09:56Z</time>
      </trkpt>
      <trkpt lat="44.5484" lon="1.32737">
        <ele>155.2</ele>
        <time>2022-07-10T07:10:00Z</time>
      </trkpt>
      <trkpt lat="44.54835" lon="1.32735">
        <ele>155.8</ele>
        <time>2022-07-10T07:10:04Z</time>
      </trkpt>
      <trkpt lat="44.54831" lon="1.32733">
        <ele>155.9</ele>
        <time>2022-07-10T07:10:08Z</time>
      </trkpt>
      <trkpt lat="44.54826" lon="1.32733">
        <ele>155.8</ele>
        <time>2022-07-10T07:10:12Z</time>
      </trkpt>
      <trkpt lat="44.54821" lon="1.32732">
        <ele>155.6</ele>
        <time>2022-07-10T07:10:16Z</time>
      </trkpt>
      <trkpt lat="44.54817" lon="1.3273">
        <ele>156.1</ele>
        <time>2022-07-10T07:10:20Z</time>
      </trkpt>
      <trkpt lat="44.54812" lon="1.32727">
        <ele>157.2</ele>
        <time>2022-07-10T07:10:24Z</time>
      </trkpt>
      <trkpt lat="44.54807" lon="1.32725">
        <ele>157.5</ele>
        <time>2022-07-10T07:10:28Z</time>
      </trkpt>
      <trkpt lat="44.54803" lon="1.32723">
        <ele>157.7</ele>
        <time>2022-07-10T07:10:32Z</time>
      </trkpt>
      <trkpt lat="44.54798" lon="1.32721">
        <ele>157.4</ele>
        <time>2022-07-10T07:10:36Z</time>
      </trkpt>
      <trkpt lat="44.54793" lon="1.32718">
        <ele>157.5</ele>
        <time>2022-07-10T07:10:41Z</time>
      </trkpt>
      <trkpt lat="44.54788" lon="1.32716">
        <ele>157.2</ele>
        <time>2022-07-10T07:10:46Z</time>
      </trkpt>
      <trkpt lat="44.54783" lon="1.32714">
        <ele>157.1</ele>
        <time>2022-07-10T07:10:51Z</time>
      </trkpt>
      <trkpt lat="44.54778" lon="1.32712">
        <ele>156.8</ele>
        <time>2022-07-10T07:10:56Z</time>
      </trkpt>
      <trkpt lat="44.54773" lon="1.32711">
        <ele>156.3</ele>
        <time>2022-07-10T07:11:00Z</time>
      </trkpt>
      <trkpt lat="44.54769" lon="1.32708">
        <ele>156.8</ele>
        <time>2022-07-10T07:11:04Z</time>
      </trkpt>
      <trkpt lat="44.54764" lon="1.32707">
        <ele>157.1</ele>
        <time>2022-07-10T07:11:08Z</time>
      </trkpt>
      <trkpt lat="44.5476" lon="1.32706">
        <ele>157.4</ele>
        <time>2022-07-10T07:11:12Z</time>
      </trkpt>
      <trkpt lat="44.54755" lon="1.32705">
        <ele>157.5</ele>
        <time>2022-07-10T07:11:16Z</time>
      </trkpt>
      <trkpt lat="44.5475" lon="1.32705">
        <ele>157.5</ele>
        <time>2022-07-10T07:11:20Z</time>
      </trkpt>
      <trkpt lat="44.54745" lon="1.32704">
        <ele>157.7</ele>
        <time>2022-07-10T07:11:24Z</time>
      </trkpt>
      <trkpt lat="44.5474" lon="1.32703">
        <ele>157.3</ele>
        <time>2022-07-10T07:11:28Z</time>
      </trkpt>
      <trkpt lat="44.54735" lon="1.32704">
        <ele>157</ele>
        <time>2022-07-10T07:11:32Z</time>
      </trkpt>
      <trkpt lat="44.5473" lon="1.32705">
        <ele>155.9</ele>
        <time>2022-07-10T07:11:37Z</time>
      </trkpt>
      <trkpt lat="44.54725" lon="1.32705">
        <ele>155.7</ele>
        <time>2022-07-10T07:11:42Z</time>
      </trkpt>
      <trkpt lat="44.5472" lon="1.32706">
        <ele>154.7</ele>
        <time>2022-07-10T07:11:47Z</time>
      </trkpt>
      <trkpt lat="44.54715" lon="1.32704">
        <ele>154.8</ele>
        <time>2022-07-10T07:11:52Z</time>
      </trkpt>
      <trkpt lat="44.5471" lon="1.32702">
        <ele>154.9</ele>
        <time>2022-07-10T07:11:57Z</time>
      </trkpt>
      <trkpt lat="44.54705" lon="1.32704">
        <ele>154.4</ele>
        <time>2022-07-10T07:12:02Z</time>
      </trkpt>
      <trkpt lat="44.54699" lon="1.32705">
        <ele>154.5</ele>
        <time>2022-07-10T07:12:07Z</time>
      </trkpt>
      <trkpt lat="44.54695" lon="1.32706">
        <ele>153.8</ele>
        <time>2022-07-10T07:12:11Z</time>
      </trkpt>
      <trkpt lat="44.54689" lon="1.32705">
        <ele>153.9</ele>
        <time>2022-07-10T07:12:16Z</time>
      </trkpt>
      <trkpt lat="44.54685" lon="1.32706">
        <ele>153.6</ele>
        <time>2022-07-10T07:12:20Z</time>
      </trkpt>
      <trkpt lat="44.5468" lon="1.32705">
        <ele>153.6</ele>
        <time>2022-07-10T07:12:24Z</time>
      </trkpt>
      <trkpt lat="44.54675" lon="1.32707">
        <ele>152.7</ele>
        <time>2022-07-10T07:12:29Z</time>
      </trkpt>
      <trkpt lat="44.5467" lon="1.32705">
        <ele>152.5</ele>
        <time>2022-07-10T07:12:33Z</time>
      </trkpt>
      <trkpt lat="44.54665" lon="1.32703">
        <ele>153</ele>
        <time>2022-07-10T07:12:37Z</time>
      </trkpt>
      <trkpt lat="44.54661" lon="1.32702">
        <ele>152.9</ele>
        <time>2022-07-10T07:12:41Z</time>
      </trkpt>
      <trkpt lat="44.54656" lon="1.32701">
        <ele>153.1</ele>
        <time>2022-07-10T07:12:45Z</time>
      </trkpt>
      <trkpt lat="44.54652" lon="1.327">
        <ele>153.1</ele>
        <time>2022-07-10T07:12:49Z</time>
      </trkpt>
      <trkpt lat="44.54646" lon="1.32699">
        <ele>152.8</ele>
        <time>2022-07-10T07:12:54Z</time>
      </trkpt>
      <trkpt lat="44.54641" lon="1.32697">
        <ele>153.8</ele>
        <time>2022-07-10T07:12:59Z</time>
      </trkpt>
      <trkpt lat="44.54636" lon="1.32694">
        <ele>154.5</ele>
        <time>2022-07-10T07:13:03Z</time>
      </trkpt>
      <trkpt lat="44.54632" lon="1.32691">
        <ele>154.6</ele>
        <time>2022-07-10T07:13:07Z</time>
      </trkpt>
      <trkpt lat="44.54628" lon="1.32688">
        <ele>155.7</ele>
        <time>2022-07-10T07:13:11Z</time>
      </trkpt>
      <trkpt lat="44.54624" lon="1.32685">
        <ele>156</ele>
        <time>2022-07-10T07:13:15Z</time>
      </trkpt>
      <trkpt lat="44.5462" lon="1.32681">
        <ele>156.6</ele>
        <time>2022-07-10T07:13:19Z</time>
      </trkpt>
      <trkpt lat="44.54615" lon="1.32678">
        <ele>156.8</ele>
        <time>2022-07-10T07:13:24Z</time>
      </trkpt>
      <trkpt lat="44.54611" lon="1.32674">
        <ele>157.6</ele>
        <time>2022-07-10T07:13:28Z</time>
      </trkpt>
      <trkpt lat="44.54606" lon="1.32671">
        <ele>158</ele>
        <time>2022-07-10T07:13:32Z</time>
      </trkpt>
      <trkpt lat="44.54602" lon="1.32668">
        <ele>158.6</ele>
        <time>2022-07-10T07:13:36Z</time>
      </trkpt>
      <trkpt lat="44.54598" lon="1.32664">
        <ele>159.5</ele>
        <time>2022-07-10T07:13:40Z</time>
      </trkpt>
      <trkpt lat="44.54594" lon="1.32659">
        <ele>160.1</ele>
        <time>2022-07-10T07:13:44Z</time>
      </trkpt>
      <trkpt lat="44.5459" lon="1.32656">
        <ele>160.7</ele>
        <time>2022-07-10T07:13:48Z</time>
      </trkpt>
      <trkpt lat="44.54586" lon="1.32652">
        <ele>160.7</ele>
        <time>2022-07-10T07:13:52Z</time>
      </trkpt>
      <trkpt lat="44.54581" lon="1.32649">
        <ele>160.5</ele>
        <time>2022-07-10T07:13:56Z</time>
      </trkpt>
      <trkpt lat="44.54577" lon="1.32647">
        <ele>159.9</ele>
        <time>2022-07-10T07:13:59Z</time>
      </trkpt>
      <trkpt lat="44.54574" lon="1.32641">
        <ele>159.4</ele>
        <time>2022-07-10T07:14:03Z</time>
      </trkpt>
      <trkpt lat="44.5457" lon="1.32637">
        <ele>159.8</ele>
        <time>2022-07-10T07:14:08Z</time>
      </trkpt>
      <trkpt lat="44.54566" lon="1.32631">
        <ele>158.9</ele>
        <time>2022-07-10T07:14:13Z</time>
      </trkpt>
      <trkpt lat="44.54563" lon="1.32626">
        <ele>158.9</ele>
        <time>2022-07-10T07:14:17Z</time>
      </trkpt>
      <trkpt lat="44.5456" lon="1.32621">
        <ele>159.2</ele>
        <time>2022-07-10T07:14:21Z</time>
      </trkpt>
      <trkpt lat="44.54556" lon="1.32616">
        <ele>159.2</ele>
        <time>2022-07-10T07:14:26Z</time>
      </trkpt>
      <trkpt lat="44.54552" lon="1.32611">
        <ele>158.8</ele>
        <time>2022-07-10T07:14:31Z</time>
      </trkpt>
      <trkpt lat="44.54549" lon="1.32606">
        <ele>158.2</ele>
        <time>2022-07-10T07:14:35Z</time>
      </trkpt>
      <trkpt lat="44.54546" lon="1.32601">
        <ele>157.8</ele>
        <time>2022-07-10T07:14:39Z</time>
      </trkpt>
      <trkpt lat="44.54544" lon="1.32595">
        <ele>157.6</ele>
        <time>2022-07-10T07:14:43Z</time>
      </trkpt>
      <trkpt lat="44.54541" lon="1.32589">
        <ele>157.8</ele>
        <time>2022-07-10T07:14:48Z</time>
      </trkpt>
      <trkpt lat="44.54538" lon="1.32583">
        <ele>157.5</ele>
        <time>2022-07-10T07:14:52Z</time>
      </trkpt>
      <trkpt lat="44.54535" lon="1.32578">
        <ele>157.5</ele>
        <time>2022-07-10T07:14:56Z</time>
      </trkpt>
      <trkpt lat="44.54533" lon="1.32572">
        <ele>157.8</ele>
        <time>2022-07-10T07:15:00Z</time>
      </trkpt>
      <trkpt lat="44.5453" lon="1.32566">
        <ele>157.9</ele>
        <time>2022-07-10T07:15:05Z</time>
      </trkpt>
      <trkpt lat="44.54528" lon="1.32559">
        <ele>157.8</ele>
        <time>2022-07-10T07:15:10Z</time>
      </trkpt>
      <trkpt lat="44.54525" lon="1.32554">
        <ele>157.5</ele>
        <time>2022-07-10T07:15:14Z</time>
      </trkpt>
      <trkpt lat="44.54521" lon="1.3255">
        <ele>157</ele>
        <time>2022-07-10T07:15:19Z</time>
      </trkpt>
      <trkpt lat="44.54516" lon="1.3255">
        <ele>156.4</ele>
        <time>2022-07-10T07:15:23Z</time>
      </trkpt>
      <trkpt lat="44.54512" lon="1.32553">
        <ele>155.8</ele>
        <time>2022-07-10T07:15:27Z</time>
      </trkpt>
      <trkpt lat="44.54507" lon="1.32557">
        <ele>155.4</ele>
        <time>2022-07-10T07:15:32Z</time>
      </trkpt>
      <trkpt lat="44.54503" lon="1.32561">
        <ele>155.6</ele>
        <time>2022-07-10T07:15:37Z</time>
      </trkpt>
      <trkpt lat="44.54498" lon="1.32564">
        <ele>155.3</ele>
        <time>2022-07-10T07:15:42Z</time>
      </trkpt>
      <trkpt lat="44.54494" lon="1.32567">
        <ele>154.9</ele>
        <time>2022-07-10T07:15:47Z</time>
      </trkpt>
      <trkpt lat="44.54488" lon="1.32569">
        <ele>154.9</ele>
        <time>2022-07-10T07:15:52Z</time>
      </trkpt>
      <trkpt lat="44.54484" lon="1.32571">
        <ele>155.2</ele>
        <time>2022-07-10T07:15:56Z</time>
      </trkpt>
      <trkpt lat="44.54479" lon="1.32573">
        <ele>155.3</ele>
        <time>2022-07-10T07:16:01Z</time>
      </trkpt>
      <trkpt lat="44.54474" lon="1.32576">
        <ele>155.2</ele>
        <time>2022-07-10T07:16:06Z</time>
      </trkpt>
      <trkpt lat="44.54469" lon="1.32578">
        <ele>155.6</ele>
        <time>2022-07-10T07:16:11Z</time>
      </trkpt>
      <trkpt lat="44.54464" lon="1.32581">
        <ele>155.5</ele>
        <time>2022-07-10T07:16:16Z</time>
      </trkpt>
      <trkpt lat="44.54459" lon="1.32584">
        <ele>155.3</ele>
        <time>2022-07-10T07:16:21Z</time>
      </trkpt>
      <trkpt lat="44.54454" lon="1.32587">
        <ele>155</ele>
        <time>2022-07-10T07:16:26Z</time>
      </trkpt>
      <trkpt lat="44.54449" lon="1.32591">
        <ele>155</ele>
        <time>2022-07-10T07:16:31Z</time>
      </trkpt>
      <trkpt lat="44.54445" lon="1.32594">
        <ele>155.5</ele>
        <time>2022-07-10T07:16:35Z</time>
      </trkpt>
      <trkpt lat="44.54441" lon="1.32598">
        <ele>156</ele>
        <time>2022-07-10T07:16:39Z</time>
      </trkpt>
      <trkpt lat="44.54436" lon="1.32601">
        <ele>156.2</ele>
        <time>2022-07-10T07:16:43Z</time>
      </trkpt>
      <trkpt lat="44.54432" lon="1.32605">
        <ele>156.7</ele>
        <time>2022-07-10T07:16:47Z</time>
      </trkpt>
      <trkpt lat="44.54427" lon="1.32609">
        <ele>157.1</ele>
        <time>2022-07-10T07:16:52Z</time>
      </trkpt>
      <trkpt lat="44.54423" lon="1.32613">
        <ele>157.6</ele>
        <time>2022-07-10T07:16:57Z</time>
      </trkpt>
      <trkpt lat="44.54419" lon="1.32616">
        <ele>157.7</ele>
        <time>2022-07-10T07:17:01Z</time>
      </trkpt>
      <trkpt lat="44.54414" lon="1.32618">
        <ele>158.3</ele>
        <time>2022-07-10T07:17:05Z</time>
      </trkpt>
      <trkpt lat="44.5441" lon="1.3262">
        <ele>158.4</ele>
        <time>2022-07-10T07:17:09Z</time>
      </trkpt>
      <trkpt lat="44.54406" lon="1.32623">
        <ele>158.3</ele>
        <time>2022-07-10T07:17:13Z</time>
      </trkpt>
      <trkpt lat="44.544" lon="1.32625">
        <ele>158.3</ele>
        <time>2022-07-10T07:17:17Z</time>
      </trkpt>
      <trkpt lat="44.54396" lon="1.32628">
        <ele>158.6</ele>
        <time>2022-07-10T07:17:21Z</time>
      </trkpt>
      <trkpt lat="44.54392" lon="1.32632">
        <ele>158.7</ele>
        <time>2022-07-10T07:17:25Z</time>
      </trkpt>
      <trkpt lat="44.54388" lon="1.32636">
        <ele>158.8</ele>
        <time>2022-07-10T07:17:30Z</time>
      </trkpt>
      <trkpt lat="44.54387" lon="1.32643">
        <ele>159.2</ele>
        <time>2022-07-10T07:17:35Z</time>
      </trkpt>
      <trkpt lat="44.54387" lon="1.3265">
        <ele>159.5</ele>
        <time>2022-07-10T07:17:40Z</time>
      </trkpt>
      <trkpt lat="44.54387" lon="1.32657">
        <ele>160</ele>
        <time>2022-07-10T07:17:45Z</time>
      </trkpt>
      <trkpt lat="44.54387" lon="1.32664">
        <ele>161.3</ele>
        <time>2022-07-10T07:17:50Z</time>
      </trkpt>
      <trkpt lat="44.54387" lon="1.3267">
        <ele>162.6</ele>
        <time>2022-07-10T07:17:55Z</time>
      </trkpt>
      <trkpt lat="44.54387" lon="1.32678">
        <ele>163.5</ele>
        <time>2022-07-10T07:18:01Z</time>
      </trkpt>
      <trkpt lat="44.54388" lon="1.32684">
        <ele>164.5</ele>
        <time>2022-07-10T07:18:07Z</time>
      </trkpt>
      <trkpt lat="44.54389" lon="1.3269">
        <ele>164.9</ele>
        <time>2022-07-10T07:18:13Z</time>
      </trkpt>
      <trkpt lat="44.54391" lon="1.32696">
        <ele>165.9</ele>
        <time>2022-07-10T07:18:19Z</time>
      </trkpt>
      <trkpt lat="44.54392" lon="1.32702">
        <ele>167.9</ele>
        <time>2022-07-10T07:18:26Z</time>
      </trkpt>
      <trkpt lat="44.54395" lon="1.32708">
        <ele>170</ele>
        <time>2022-07-10T07:18:34Z</time>
      </trkpt>
      <trkpt lat="44.54395" lon="1.32714">
        <ele>170.1</ele>
        <time>2022-07-10T07:18:42Z</time>
      </trkpt>
      <trkpt lat="44.54394" lon="1.32721">
        <ele>170.4</ele>
        <time>2022-07-10T07:18:50Z</time>
      </trkpt>
      <trkpt lat="44.54396" lon="1.32727">
        <ele>171.6</ele>
        <time>2022-07-10T07:19:06Z</time>
      </trkpt>
      <trkpt lat="44.54395" lon="1.32734">
        <ele>172.6</ele>
        <time>2022-07-10T07:19:13Z</time>
      </trkpt>
      <trkpt lat="44.54397" lon="1.3274">
        <ele>173.1</ele>
        <time>2022-07-10T07:19:20Z</time>
      </trkpt>
      <trkpt lat="44.54399" lon="1.32746">
        <ele>173.7</ele>
        <time>2022-07-10T07:19:28Z</time>
      </trkpt>
      <trkpt lat="44.54399" lon="1.32753">
        <ele>174.7</ele>
        <time>2022-07-10T07:19:37Z</time>
      </trkpt>
      <trkpt lat="44.54399" lon="1.32761">
        <ele>176</ele>
        <time>2022-07-10T07:19:44Z</time>
      </trkpt>
      <trkpt lat="44.54398" lon="1.32767">
        <ele>177.2</ele>
        <time>2022-07-10T07:19:50Z</time>
      </trkpt>
      <trkpt lat="44.54397" lon="1.32774">
        <ele>179.2</ele>
        <time>2022-07-10T07:19:57Z</time>
      </trkpt>
      <trkpt lat="44.54396" lon="1.3278">
        <ele>181.2</ele>
        <time>2022-07-10T07:20:04Z</time>
      </trkpt>
      <trkpt lat="44.54397" lon="1.32787">
        <ele>182.4</ele>
        <time>2022-07-10T07:20:11Z</time>
      </trkpt>
      <trkpt lat="44.54398" lon="1.32794">
        <ele>183.1</ele>
        <time>2022-07-10T07:20:18Z</time>
      </trkpt>
      <trkpt lat="44.54398" lon="1.32801">
        <ele>184.4</ele>
        <time>2022-07-10T07:20:26Z</time>
      </trkpt>
      <trkpt lat="44.54398" lon="1.32807">
        <ele>184.8</ele>
        <time>2022-07-10T07:20:33Z</time>
      </trkpt>
      <trkpt lat="44.54398" lon="1.32814">
        <ele>185.7</ele>
        <time>2022-07-10T07:20:41Z</time>
      </trkpt>
      <trkpt lat="44.54397" lon="1.32821">
        <ele>187.3</ele>
        <time>2022-07-10T07:20:48Z</time>
      </trkpt>
      <trkpt lat="44.54399" lon="1.32827">
        <ele>189.2</ele>
        <time>2022-07-10T07:20:57Z</time>
      </trkpt>
      <trkpt lat="44.54398" lon="1.32834">
        <ele>191.1</ele>
        <time>2022-07-10T07:21:05Z</time>
      </trkpt>
      <trkpt lat="44.54396" lon="1.3284">
        <ele>192.7</ele>
        <time>2022-07-10T07:21:12Z</time>
      </trkpt>
      <trkpt lat="44.54394" lon="1.32846">
        <ele>194.5</ele>
        <time>2022-07-10T07:21:21Z</time>
      </trkpt>
      <trkpt lat="44.54391" lon="1.32851">
        <ele>194.8</ele>
        <time>2022-07-10T07:21:29Z</time>
      </trkpt>
      <trkpt lat="44.54388" lon="1.32856">
        <ele>195.5</ele>
        <time>2022-07-10T07:21:36Z</time>
      </trkpt>
      <trkpt lat="44.54386" lon="1.32863">
        <ele>197.8</ele>
        <time>2022-07-10T07:21:46Z</time>
      </trkpt>
      <trkpt lat="44.54384" lon="1.32868">
        <ele>199.1</ele>
        <time>2022-07-10T07:21:54Z</time>
      </trkpt>
      <trkpt lat="44.54383" lon="1.32875">
        <ele>200.6</ele>
        <time>2022-07-10T07:22:02Z</time>
      </trkpt>
      <trkpt lat="44.54382" lon="1.32882">
        <ele>201.3</ele>
        <time>2022-07-10T07:22:10Z</time>
      </trkpt>
      <trkpt lat="44.5438" lon="1.32888">
        <ele>202.5</ele>
        <time>2022-07-10T07:22:17Z</time>
      </trkpt>
      <trkpt lat="44.54379" lon="1.32895">
        <ele>203.8</ele>
        <time>2022-07-10T07:22:23Z</time>
      </trkpt>
      <trkpt lat="44.54377" lon="1.32902">
        <ele>204.4</ele>
        <time>2022-07-10T07:22:29Z</time>
      </trkpt>
      <trkpt lat="44.54374" lon="1.32907">
        <ele>205.3</ele>
        <time>2022-07-10T07:22:36Z</time>
      </trkpt>
      <trkpt lat="44.54371" lon="1.32913">
        <ele>206.2</ele>
        <time>2022-07-10T07:22:44Z</time>
      </trkpt>
      <trkpt lat="44.54367" lon="1.32917">
        <ele>208</ele>
        <time>2022-07-10T07:22:51Z</time>
      </trkpt>
      <trkpt lat="44.54363" lon="1.32921">
        <ele>208.8</ele>
        <time>2022-07-10T07:22:58Z</time>
      </trkpt>
      <trkpt lat="44.5436" lon="1.32926">
        <ele>208.9</ele>
        <time>2022-07-10T07:23:05Z</time>
      </trkpt>
      <trkpt lat="44.54357" lon="1.32931">
        <ele>209.1</ele>
        <time>2022-07-10T07:23:13Z</time>
      </trkpt>
      <trkpt lat="44.54354" lon="1.32936">
        <ele>209.2</ele>
        <time>2022-07-10T07:23:19Z</time>
      </trkpt>
      <trkpt lat="44.54351" lon="1.32941">
        <ele>208.8</ele>
        <time>2022-07-10T07:23:25Z</time>
      </trkpt>
      <trkpt lat="44.54347" lon="1.32945">
        <ele>210.1</ele>
        <time>2022-07-10T07:23:31Z</time>
      </trkpt>
      <trkpt lat="44.54343" lon="1.3295">
        <ele>211.6</ele>
        <time>2022-07-10T07:23:37Z</time>
      </trkpt>
      <trkpt lat="44.54339" lon="1.32953">
        <ele>214.1</ele>
        <time>2022-07-10T07:23:44Z</time>
      </trkpt>
      <trkpt lat="44.54335" lon="1.32957">
        <ele>216.5</ele>
        <time>2022-07-10T07:23:51Z</time>
      </trkpt>
      <trkpt lat="44.54331" lon="1.32961">
        <ele>218</ele>
        <time>2022-07-10T07:23:57Z</time>
      </trkpt>
      <trkpt lat="44.54327" lon="1.32966">
        <ele>220.1</ele>
        <time>2022-07-10T07:24:02Z</time>
      </trkpt>
      <trkpt lat="44.54326" lon="1.32972">
        <ele>221.5</ele>
        <time>2022-07-10T07:24:08Z</time>
      </trkpt>
      <trkpt lat="44.54326" lon="1.32979">
        <ele>217.8</ele>
        <time>2022-07-10T07:25:24Z</time>
      </trkpt>
      <trkpt lat="44.54323" lon="1.32985">
        <ele>217.4</ele>
        <time>2022-07-10T07:25:31Z</time>
      </trkpt>
      <trkpt lat="44.54323" lon="1.32991">
        <ele>219.5</ele>
        <time>2022-07-10T07:25:38Z</time>
      </trkpt>
      <trkpt lat="44.54322" lon="1.32998">
        <ele>220.7</ele>
        <time>2022-07-10T07:25:45Z</time>
      </trkpt>
      <trkpt lat="44.5432" lon="1.33005">
        <ele>221.3</ele>
        <time>2022-07-10T07:25:51Z</time>
      </trkpt>
      <trkpt lat="44.54319" lon="1.33012">
        <ele>221.1</ele>
        <time>2022-07-10T07:25:57Z</time>
      </trkpt>
      <trkpt lat="44.54318" lon="1.33018">
        <ele>221.3</ele>
        <time>2022-07-10T07:26:02Z</time>
      </trkpt>
      <trkpt lat="44.54317" lon="1.33024">
        <ele>221.7</ele>
        <time>2022-07-10T07:26:07Z</time>
      </trkpt>
      <trkpt lat="44.54315" lon="1.33031">
        <ele>222.7</ele>
        <time>2022-07-10T07:26:12Z</time>
      </trkpt>
      <trkpt lat="44.54314" lon="1.33038">
        <ele>222.6</ele>
        <time>2022-07-10T07:26:17Z</time>
      </trkpt>
      <trkpt lat="44.54312" lon="1.33045">
        <ele>222.8</ele>
        <time>2022-07-10T07:26:23Z</time>
      </trkpt>
      <trkpt lat="44.54312" lon="1.33051">
        <ele>221.9</ele>
        <time>2022-07-10T07:26:27Z</time>
      </trkpt>
      <trkpt lat="44.5431" lon="1.33059">
        <ele>221.2</ele>
        <time>2022-07-10T07:26:31Z</time>
      </trkpt>
      <trkpt lat="44.54309" lon="1.33065">
        <ele>221.6</ele>
        <time>2022-07-10T07:26:35Z</time>
      </trkpt>
      <trkpt lat="44.54307" lon="1.33071">
        <ele>222.3</ele>
        <time>2022-07-10T07:26:40Z</time>
      </trkpt>
      <trkpt lat="44.54307" lon="1.33078">
        <ele>223.3</ele>
        <time>2022-07-10T07:26:45Z</time>
      </trkpt>
      <trkpt lat="44.54306" lon="1.33084">
        <ele>224</ele>
        <time>2022-07-10T07:26:49Z</time>
      </trkpt>
      <trkpt lat="44.54306" lon="1.33091">
        <ele>223.4</ele>
        <time>2022-07-10T07:26:54Z</time>
      </trkpt>
      <trkpt lat="44.54305" lon="1.33098">
        <ele>224.1</ele>
        <time>2022-07-10T07:26:59Z</time>
      </trkpt>
      <trkpt lat="44.54305" lon="1.33104">
        <ele>224.8</ele>
        <time>2022-07-10T07:27:04Z</time>
      </trkpt>
      <trkpt lat="44.54305" lon="1.33111">
        <ele>224.5</ele>
        <time>2022-07-10T07:27:10Z</time>
      </trkpt>
      <trkpt lat="44.54305" lon="1.33119">
        <ele>224.1</ele>
        <time>2022-07-10T07:27:16Z</time>
      </trkpt>
      <trkpt lat="44.54305" lon="1.33125">
        <ele>225.2</ele>
        <time>2022-07-10T07:27:21Z</time>
      </trkpt>
      <trkpt lat="44.54307" lon="1.33132">
        <ele>226.5</ele>
        <time>2022-07-10T07:27:27Z</time>
      </trkpt>
      <trkpt lat="44.54307" lon="1.33138">
        <ele>227.3</ele>
        <time>2022-07-10T07:27:31Z</time>
      </trkpt>
      <trkpt lat="44.54307" lon="1.33145">
        <ele>228.4</ele>
        <time>2022-07-10T07:27:37Z</time>
      </trkpt>
      <trkpt lat="44.54307" lon="1.33151">
        <ele>229.5</ele>
        <time>2022-07-10T07:27:42Z</time>
      </trkpt>
      <trkpt lat="44.54307" lon="1.33158">
        <ele>230.3</ele>
        <time>2022-07-10T07:27:47Z</time>
      </trkpt>
      <trkpt lat="44.54307" lon="1.33165">
        <ele>231</ele>
        <time>2022-07-10T07:27:52Z</time>
      </trkpt>
      <trkpt lat="44.54307" lon="1.33172">
        <ele>231.8</ele>
        <time>2022-07-10T07:27:57Z</time>
      </trkpt>
      <trkpt lat="44.54307" lon="1.33179">
        <ele>231.9</ele>
        <time>2022-07-10T07:28:02Z</time>
      </trkpt>
      <trkpt lat="44.54307" lon="1.33187">
        <ele>231.4</ele>
        <time>2022-07-10T07:28:07Z</time>
      </trkpt>
      <trkpt lat="44.54306" lon="1.33194">
        <ele>231.8</ele>
        <time>2022-07-10T07:28:12Z</time>
      </trkpt>
      <trkpt lat="44.54305" lon="1.33201">
        <ele>231.7</ele>
        <time>2022-07-10T07:28:17Z</time>
      </trkpt>
      <trkpt lat="44.54304" lon="1.33208">
        <ele>231.7</ele>
        <time>2022-07-10T07:28:22Z</time>
      </trkpt>
      <trkpt lat="44.54302" lon="1.33214">
        <ele>231.8</ele>
        <time>2022-07-10T07:28:27Z</time>
      </trkpt>
      <trkpt lat="44.54301" lon="1.33221">
        <ele>232.5</ele>
        <time>2022-07-10T07:28:32Z</time>
      </trkpt>
      <trkpt lat="44.543" lon="1.33228">
        <ele>232.8</ele>
        <time>2022-07-10T07:28:37Z</time>
      </trkpt>
      <trkpt lat="44.54299" lon="1.33236">
        <ele>232.5</ele>
        <time>2022-07-10T07:28:42Z</time>
      </trkpt>
      <trkpt lat="44.54297" lon="1.33243">
        <ele>230.9</ele>
        <time>2022-07-10T07:28:47Z</time>
      </trkpt>
      <trkpt lat="44.54295" lon="1.33249">
        <ele>230.2</ele>
        <time>2022-07-10T07:28:51Z</time>
      </trkpt>
      <trkpt lat="44.54294" lon="1.33256">
        <ele>229.6</ele>
        <time>2022-07-10T07:28:56Z</time>
      </trkpt>
      <trkpt lat="44.54293" lon="1.33263">
        <ele>230.2</ele>
        <time>2022-07-10T07:29:00Z</time>
      </trkpt>
      <trkpt lat="44.54292" lon="1.33269">
        <ele>230.5</ele>
        <time>2022-07-10T07:29:04Z</time>
      </trkpt>
      <trkpt lat="44.5429" lon="1.33275">
        <ele>231.1</ele>
        <time>2022-07-10T07:29:08Z</time>
      </trkpt>
      <trkpt lat="44.54289" lon="1.33283">
        <ele>231.9</ele>
        <time>2022-07-10T07:29:13Z</time>
      </trkpt>
      <trkpt lat="44.54287" lon="1.3329">
        <ele>234.1</ele>
        <time>2022-07-10T07:29:18Z</time>
      </trkpt>
      <trkpt lat="44.54285" lon="1.33297">
        <ele>234.7</ele>
        <time>2022-07-10T07:29:23Z</time>
      </trkpt>
      <trkpt lat="44.54283" lon="1.33303">
        <ele>235.2</ele>
        <time>2022-07-10T07:29:28Z</time>
      </trkpt>
      <trkpt lat="44.54281" lon="1.33309">
        <ele>235.6</ele>
        <time>2022-07-10T07:29:34Z</time>
      </trkpt>
      <trkpt lat="44.54277" lon="1.33314">
        <ele>235.1</ele>
        <time>2022-07-10T07:29:40Z</time>
      </trkpt>
      <trkpt lat="44.54273" lon="1.33318">
        <ele>234.1</ele>
        <time>2022-07-10T07:29:46Z</time>
      </trkpt>
      <trkpt lat="44.5427" lon="1.33324">
        <ele>233.2</ele>
        <time>2022-07-10T07:29:52Z</time>
      </trkpt>
      <trkpt lat="44.54267" lon="1.3333">
        <ele>232.4</ele>
        <time>2022-07-10T07:29:57Z</time>
      </trkpt>
      <trkpt lat="44.54263" lon="1.33335">
        <ele>232.5</ele>
        <time>2022-07-10T07:30:02Z</time>
      </trkpt>
      <trkpt lat="44.54259" lon="1.33339">
        <ele>232.8</ele>
        <time>2022-07-10T07:30:07Z</time>
      </trkpt>
      <trkpt lat="44.54255" lon="1.33343">
        <ele>233.5</ele>
        <time>2022-07-10T07:30:12Z</time>
      </trkpt>
      <trkpt lat="44.54251" lon="1.33347">
        <ele>233.6</ele>
        <time>2022-07-10T07:30:17Z</time>
      </trkpt>
      <trkpt lat="44.54247" lon="1.33351">
        <ele>233</ele>
        <time>2022-07-10T07:30:22Z</time>
      </trkpt>
      <trkpt lat="44.54243" lon="1.33355">
        <ele>233.3</ele>
        <time>2022-07-10T07:30:27Z</time>
      </trkpt>
      <trkpt lat="44.54239" lon="1.33359">
        <ele>233.9</ele>
        <time>2022-07-10T07:30:32Z</time>
      </trkpt>
      <trkpt lat="44.54236" lon="1.33365">
        <ele>233.8</ele>
        <time>2022-07-10T07:30:37Z</time>
      </trkpt>
      <trkpt lat="44.54233" lon="1.3337">
        <ele>234.3</ele>
        <time>2022-07-10T07:30:42Z</time>
      </trkpt>
      <trkpt lat="44.5423" lon="1.33376">
        <ele>234.6</ele>
        <time>2022-07-10T07:30:47Z</time>
      </trkpt>
      <trkpt lat="44.54228" lon="1.33383">
        <ele>234.6</ele>
        <time>2022-07-10T07:30:52Z</time>
      </trkpt>
      <trkpt lat="44.54226" lon="1.33389">
        <ele>234.5</ele>
        <time>2022-07-10T07:30:57Z</time>
      </trkpt>
      <trkpt lat="44.54224" lon="1.33396">
        <ele>234.6</ele>
        <time>2022-07-10T07:31:02Z</time>
      </trkpt>
      <trkpt lat="44.54221" lon="1.33402">
        <ele>234.8</ele>
        <time>2022-07-10T07:31:07Z</time>
      </trkpt>
      <trkpt lat="44.54219" lon="1.33409">
        <ele>235.2</ele>
        <time>2022-07-10T07:31:12Z</time>
      </trkpt>
      <trkpt lat="44.54217" lon="1.33416">
        <ele>235.8</ele>
        <time>2022-07-10T07:31:17Z</time>
      </trkpt>
      <trkpt lat="44.54216" lon="1.33424">
        <ele>235.7</ele>
        <time>2022-07-10T07:31:22Z</time>
      </trkpt>
      <trkpt lat="44.54214" lon="1.33431">
        <ele>235.9</ele>
        <time>2022-07-10T07:31:27Z</time>
      </trkpt>
      <trkpt lat="44.54213" lon="1.33439">
        <ele>236.5</ele>
        <time>2022-07-10T07:31:32Z</time>
      </trkpt>
      <trkpt lat="44.54211" lon="1.33446">
        <ele>236.9</ele>
        <time>2022-07-10T07:31:37Z</time>
      </trkpt>
      <trkpt lat="44.54209" lon="1.33452">
        <ele>237</ele>
        <time>2022-07-10T07:31:42Z</time>
      </trkpt>
      <trkpt lat="44.54206" lon="1.33457">
        <ele>236.6</ele>
        <time>2022-07-10T07:31:46Z</time>
      </trkpt>
      <trkpt lat="44.54203" lon="1.33463">
        <ele>236.5</ele>
        <time>2022-07-10T07:31:51Z</time>
      </trkpt>
      <trkpt lat="44.542" lon="1.33469">
        <ele>236</ele>
        <time>2022-07-10T07:31:56Z</time>
      </trkpt>
      <trkpt lat="44.54197" lon="1.33476">
        <ele>234.8</ele>
        <time>2022-07-10T07:32:01Z</time>
      </trkpt>
      <trkpt lat="44.54194" lon="1.33481">
        <ele>233.8</ele>
        <time>2022-07-10T07:32:06Z</time>
      </trkpt>
      <trkpt lat="44.54191" lon="1.33488">
        <ele>233.4</ele>
        <time>2022-07-10T07:32:11Z</time>
      </trkpt>
      <trkpt lat="44.54188" lon="1.33493">
        <ele>233.3</ele>
        <time>2022-07-10T07:32:15Z</time>
      </trkpt>
      <trkpt lat="44.54185" lon="1.33498">
        <ele>233.3</ele>
        <time>2022-07-10T07:32:20Z</time>
      </trkpt>
      <trkpt lat="44.54181" lon="1.33503">
        <ele>233.2</ele>
        <time>2022-07-10T07:32:25Z</time>
      </trkpt>
      <trkpt lat="44.54177" lon="1.33508">
        <ele>232.9</ele>
        <time>2022-07-10T07:32:30Z</time>
      </trkpt>
      <trkpt lat="44.54173" lon="1.33513">
        <ele>232.6</ele>
        <time>2022-07-10T07:32:35Z</time>
      </trkpt>
      <trkpt lat="44.5417" lon="1.33518">
        <ele>232.5</ele>
        <time>2022-07-10T07:32:40Z</time>
      </trkpt>
      <trkpt lat="44.54167" lon="1.33524">
        <ele>232.9</ele>
        <time>2022-07-10T07:32:44Z</time>
      </trkpt>
      <trkpt lat="44.54164" lon="1.33531">
        <ele>233.4</ele>
        <time>2022-07-10T07:32:49Z</time>
      </trkpt>
      <trkpt lat="44.54162" lon="1.33538">
        <ele>233.5</ele>
        <time>2022-07-10T07:32:54Z</time>
      </trkpt>
      <trkpt lat="44.54161" lon="1.33544">
        <ele>233.9</ele>
        <time>2022-07-10T07:32:59Z</time>
      </trkpt>
      <trkpt lat="44.54161" lon="1.33552">
        <ele>234.7</ele>
        <time>2022-07-10T07:33:04Z</time>
      </trkpt>
      <trkpt lat="44.54163" lon="1.33559">
        <ele>235.3</ele>
        <time>2022-07-10T07:33:09Z</time>
      </trkpt>
      <trkpt lat="44.54165" lon="1.33566">
        <ele>235.3</ele>
        <time>2022-07-10T07:33:14Z</time>
      </trkpt>
      <trkpt lat="44.54169" lon="1.33572">
        <ele>235</ele>
        <time>2022-07-10T07:33:19Z</time>
      </trkpt>
      <trkpt lat="44.54173" lon="1.33577">
        <ele>234.8</ele>
        <time>2022-07-10T07:33:24Z</time>
      </trkpt>
      <trkpt lat="44.54177" lon="1.33582">
        <ele>234.8</ele>
        <time>2022-07-10T07:33:29Z</time>
      </trkpt>
      <trkpt lat="44.54181" lon="1.33587">
        <ele>235</ele>
        <time>2022-07-10T07:33:34Z</time>
      </trkpt>
      <trkpt lat="44.54183" lon="1.33594">
        <ele>234.9</ele>
        <time>2022-07-10T07:33:39Z</time>
      </trkpt>
      <trkpt lat="44.54184" lon="1.336">
        <ele>235.1</ele>
        <time>2022-07-10T07:33:43Z</time>
      </trkpt>
      <trkpt lat="44.54184" lon="1.33608">
        <ele>235.9</ele>
        <time>2022-07-10T07:33:48Z</time>
      </trkpt>
      <trkpt lat="44.54184" lon="1.33615">
        <ele>236.6</ele>
        <time>2022-07-10T07:33:53Z</time>
      </trkpt>
      <trkpt lat="44.54184" lon="1.33622">
        <ele>237</ele>
        <time>2022-07-10T07:33:58Z</time>
      </trkpt>
      <trkpt lat="44.54183" lon="1.33629">
        <ele>237.3</ele>
        <time>2022-07-10T07:34:03Z</time>
      </trkpt>
      <trkpt lat="44.54182" lon="1.33636">
        <ele>237.6</ele>
        <time>2022-07-10T07:34:08Z</time>
      </trkpt>
      <trkpt lat="44.54181" lon="1.33644">
        <ele>237.8</ele>
        <time>2022-07-10T07:34:13Z</time>
      </trkpt>
      <trkpt lat="44.5418" lon="1.33651">
        <ele>238.2</ele>
        <time>2022-07-10T07:34:18Z</time>
      </trkpt>
      <trkpt lat="44.54178" lon="1.33658">
        <ele>238.9</ele>
        <time>2022-07-10T07:34:23Z</time>
      </trkpt>
      <trkpt lat="44.54175" lon="1.33665">
        <ele>239.2</ele>
        <time>2022-07-10T07:34:28Z</time>
      </trkpt>
      <trkpt lat="44.54172" lon="1.3367">
        <ele>238.5</ele>
        <time>2022-07-10T07:34:33Z</time>
      </trkpt>
      <trkpt lat="44.54169" lon="1.33676">
        <ele>238.2</ele>
        <time>2022-07-10T07:34:38Z</time>
      </trkpt>
      <trkpt lat="44.54165" lon="1.33681">
        <ele>238</ele>
        <time>2022-07-10T07:34:43Z</time>
      </trkpt>
      <trkpt lat="44.54161" lon="1.33686">
        <ele>237.7</ele>
        <time>2022-07-10T07:34:48Z</time>
      </trkpt>
      <trkpt lat="44.54158" lon="1.33691">
        <ele>237.6</ele>
        <time>2022-07-10T07:34:52Z</time>
      </trkpt>
      <trkpt lat="44.54154" lon="1.33696">
        <ele>237.1</ele>
        <time>2022-07-10T07:34:57Z</time>
      </trkpt>
      <trkpt lat="44.54151" lon="1.33701">
        <ele>236.6</ele>
        <time>2022-07-10T07:35:01Z</time>
      </trkpt>
      <trkpt lat="44.54148" lon="1.33706">
        <ele>236.2</ele>
        <time>2022-07-10T07:35:05Z</time>
      </trkpt>
      <trkpt lat="44.54145" lon="1.33712">
        <ele>235.7</ele>
        <time>2022-07-10T07:35:10Z</time>
      </trkpt>
      <trkpt lat="44.54142" lon="1.33718">
        <ele>236</ele>
        <time>2022-07-10T07:35:15Z</time>
      </trkpt>
      <trkpt lat="44.54139" lon="1.33723">
        <ele>236</ele>
        <time>2022-07-10T07:35:19Z</time>
      </trkpt>
      <trkpt lat="44.54137" lon="1.33729">
        <ele>235.8</ele>
        <time>2022-07-10T07:35:23Z</time>
      </trkpt>
      <trkpt lat="44.54134" lon="1.33735">
        <ele>235.3</ele>
        <time>2022-07-10T07:35:28Z</time>
      </trkpt>
      <trkpt lat="44.54131" lon="1.33742">
        <ele>235.1</ele>
        <time>2022-07-10T07:35:33Z</time>
      </trkpt>
      <trkpt lat="44.54128" lon="1.33747">
        <ele>235.9</ele>
        <time>2022-07-10T07:35:38Z</time>
      </trkpt>
      <trkpt lat="44.54124" lon="1.33751">
        <ele>236.2</ele>
        <time>2022-07-10T07:35:42Z</time>
      </trkpt>
      <trkpt lat="44.5412" lon="1.33756">
        <ele>236.6</ele>
        <time>2022-07-10T07:35:47Z</time>
      </trkpt>
      <trkpt lat="44.54116" lon="1.33759">
        <ele>236.6</ele>
        <time>2022-07-10T07:35:51Z</time>
      </trkpt>
      <trkpt lat="44.54111" lon="1.33763">
        <ele>236.3</ele>
        <time>2022-07-10T07:35:56Z</time>
      </trkpt>
      <trkpt lat="44.54106" lon="1.33763">
        <ele>236.3</ele>
        <time>2022-07-10T07:36:01Z</time>
      </trkpt>
      <trkpt lat="44.54101" lon="1.33762">
        <ele>236.7</ele>
        <time>2022-07-10T07:36:06Z</time>
      </trkpt>
      <trkpt lat="44.54097" lon="1.3376">
        <ele>237.4</ele>
        <time>2022-07-10T07:36:11Z</time>
      </trkpt>
      <trkpt lat="44.54093" lon="1.33756">
        <ele>238.3</ele>
        <time>2022-07-10T07:36:16Z</time>
      </trkpt>
      <trkpt lat="44.54088" lon="1.33756">
        <ele>239.2</ele>
        <time>2022-07-10T07:36:21Z</time>
      </trkpt>
      <trkpt lat="44.5409" lon="1.33763">
        <ele>240.2</ele>
        <time>2022-07-10T07:36:28Z</time>
      </trkpt>
      <trkpt lat="44.54087" lon="1.33768">
        <ele>240.5</ele>
        <time>2022-07-10T07:36:36Z</time>
      </trkpt>
      <trkpt lat="44.54084" lon="1.33773">
        <ele>241.3</ele>
        <time>2022-07-10T07:36:43Z</time>
      </trkpt>
      <trkpt lat="44.5408" lon="1.33771">
        <ele>239.1</ele>
        <time>2022-07-10T07:37:06Z</time>
      </trkpt>
      <trkpt lat="44.54075" lon="1.33771">
        <ele>239</ele>
        <time>2022-07-10T07:37:11Z</time>
      </trkpt>
      <trkpt lat="44.5407" lon="1.33771">
        <ele>238.2</ele>
        <time>2022-07-10T07:37:16Z</time>
      </trkpt>
      <trkpt lat="44.54065" lon="1.33772">
        <ele>236.9</ele>
        <time>2022-07-10T07:37:21Z</time>
      </trkpt>
      <trkpt lat="44.5406" lon="1.33774">
        <ele>235.9</ele>
        <time>2022-07-10T07:37:26Z</time>
      </trkpt>
      <trkpt lat="44.54055" lon="1.33776">
        <ele>234.8</ele>
        <time>2022-07-10T07:37:31Z</time>
      </trkpt>
      <trkpt lat="44.54051" lon="1.33777">
        <ele>233.7</ele>
        <time>2022-07-10T07:37:36Z</time>
      </trkpt>
      <trkpt lat="44.54046" lon="1.3378">
        <ele>232.9</ele>
        <time>2022-07-10T07:37:41Z</time>
      </trkpt>
      <trkpt lat="44.54041" lon="1.33781">
        <ele>232.7</ele>
        <time>2022-07-10T07:37:45Z</time>
      </trkpt>
      <trkpt lat="44.54036" lon="1.33783">
        <ele>232.3</ele>
        <time>2022-07-10T07:37:49Z</time>
      </trkpt>
      <trkpt lat="44.54032" lon="1.33785">
        <ele>231.8</ele>
        <time>2022-07-10T07:37:53Z</time>
      </trkpt>
      <trkpt lat="44.54027" lon="1.33787">
        <ele>231.1</ele>
        <time>2022-07-10T07:37:58Z</time>
      </trkpt>
      <trkpt lat="44.54022" lon="1.33789">
        <ele>230.3</ele>
        <time>2022-07-10T07:38:03Z</time>
      </trkpt>
      <trkpt lat="44.54017" lon="1.33792">
        <ele>229.5</ele>
        <time>2022-07-10T07:38:08Z</time>
      </trkpt>
      <trkpt lat="44.54013" lon="1.33796">
        <ele>229.4</ele>
        <time>2022-07-10T07:38:12Z</time>
      </trkpt>
      <trkpt lat="44.54009" lon="1.338">
        <ele>229.4</ele>
        <time>2022-07-10T07:38:16Z</time>
      </trkpt>
      <trkpt lat="44.54006" lon="1.33805">
        <ele>229.4</ele>
        <time>2022-07-10T07:38:20Z</time>
      </trkpt>
      <trkpt lat="44.54003" lon="1.3381">
        <ele>229.8</ele>
        <time>2022-07-10T07:38:24Z</time>
      </trkpt>
      <trkpt lat="44.53999" lon="1.33816">
        <ele>230.5</ele>
        <time>2022-07-10T07:38:28Z</time>
      </trkpt>
      <trkpt lat="44.53996" lon="1.33821">
        <ele>231</ele>
        <time>2022-07-10T07:38:32Z</time>
      </trkpt>
      <trkpt lat="44.53993" lon="1.33827">
        <ele>231.4</ele>
        <time>2022-07-10T07:38:36Z</time>
      </trkpt>
      <trkpt lat="44.5399" lon="1.33832">
        <ele>232</ele>
        <time>2022-07-10T07:38:40Z</time>
      </trkpt>
      <trkpt lat="44.53987" lon="1.33838">
        <ele>232.4</ele>
        <time>2022-07-10T07:38:44Z</time>
      </trkpt>
      <trkpt lat="44.53985" lon="1.33843">
        <ele>232.6</ele>
        <time>2022-07-10T07:38:48Z</time>
      </trkpt>
      <trkpt lat="44.53982" lon="1.33849">
        <ele>232.7</ele>
        <time>2022-07-10T07:38:52Z</time>
      </trkpt>
      <trkpt lat="44.53979" lon="1.33855">
        <ele>232.9</ele>
        <time>2022-07-10T07:38:57Z</time>
      </trkpt>
      <trkpt lat="44.53976" lon="1.3386">
        <ele>232.8</ele>
        <time>2022-07-10T07:39:01Z</time>
      </trkpt>
      <trkpt lat="44.53973" lon="1.33865">
        <ele>232.6</ele>
        <time>2022-07-10T07:39:05Z</time>
      </trkpt>
      <trkpt lat="44.53969" lon="1.33871">
        <ele>233.2</ele>
        <time>2022-07-10T07:39:10Z</time>
      </trkpt>
      <trkpt lat="44.53966" lon="1.33877">
        <ele>234.1</ele>
        <time>2022-07-10T07:39:15Z</time>
      </trkpt>
      <trkpt lat="44.53962" lon="1.33883">
        <ele>235</ele>
        <time>2022-07-10T07:39:20Z</time>
      </trkpt>
      <trkpt lat="44.53959" lon="1.33888">
        <ele>236.4</ele>
        <time>2022-07-10T07:39:25Z</time>
      </trkpt>
      <trkpt lat="44.53956" lon="1.33894">
        <ele>237.8</ele>
        <time>2022-07-10T07:39:30Z</time>
      </trkpt>
      <trkpt lat="44.53953" lon="1.33901">
        <ele>238.8</ele>
        <time>2022-07-10T07:39:35Z</time>
      </trkpt>
      <trkpt lat="44.53951" lon="1.33906">
        <ele>239.4</ele>
        <time>2022-07-10T07:39:39Z</time>
      </trkpt>
      <trkpt lat="44.53948" lon="1.33912">
        <ele>239.4</ele>
        <time>2022-07-10T07:39:43Z</time>
      </trkpt>
      <trkpt lat="44.53947" lon="1.33918">
        <ele>239.4</ele>
        <time>2022-07-10T07:39:47Z</time>
      </trkpt>
      <trkpt lat="44.53944" lon="1.33925">
        <ele>239.2</ele>
        <time>2022-07-10T07:39:52Z</time>
      </trkpt>
      <trkpt lat="44.53942" lon="1.33931">
        <ele>239.5</ele>
        <time>2022-07-10T07:39:57Z</time>
      </trkpt>
      <trkpt lat="44.5394" lon="1.33937">
        <ele>240.2</ele>
        <time>2022-07-10T07:40:02Z</time>
      </trkpt>
      <trkpt lat="44.53939" lon="1.33943">
        <ele>240.4</ele>
        <time>2022-07-10T07:40:07Z</time>
      </trkpt>
      <trkpt lat="44.53937" lon="1.3395">
        <ele>240.7</ele>
        <time>2022-07-10T07:40:12Z</time>
      </trkpt>
      <trkpt lat="44.53936" lon="1.33958">
        <ele>241.2</ele>
        <time>2022-07-10T07:40:17Z</time>
      </trkpt>
      <trkpt lat="44.53936" lon="1.33965">
        <ele>241.5</ele>
        <time>2022-07-10T07:40:22Z</time>
      </trkpt>
      <trkpt lat="44.53936" lon="1.33971">
        <ele>241.6</ele>
        <time>2022-07-10T07:40:26Z</time>
      </trkpt>
      <trkpt lat="44.53937" lon="1.33978">
        <ele>241.5</ele>
        <time>2022-07-10T07:40:30Z</time>
      </trkpt>
      <trkpt lat="44.53939" lon="1.33984">
        <ele>241.3</ele>
        <time>2022-07-10T07:40:34Z</time>
      </trkpt>
      <trkpt lat="44.5394" lon="1.3399">
        <ele>241.6</ele>
        <time>2022-07-10T07:40:38Z</time>
      </trkpt>
      <trkpt lat="44.53943" lon="1.33996">
        <ele>241.6</ele>
        <time>2022-07-10T07:40:42Z</time>
      </trkpt>
      <trkpt lat="44.53945" lon="1.34001">
        <ele>242.1</ele>
        <time>2022-07-10T07:40:46Z</time>
      </trkpt>
      <trkpt lat="44.53948" lon="1.34006">
        <ele>242.6</ele>
        <time>2022-07-10T07:40:50Z</time>
      </trkpt>
      <trkpt lat="44.53952" lon="1.34011">
        <ele>243</ele>
        <time>2022-07-10T07:40:54Z</time>
      </trkpt>
      <trkpt lat="44.53955" lon="1.34015">
        <ele>243</ele>
        <time>2022-07-10T07:40:58Z</time>
      </trkpt>
      <trkpt lat="44.53959" lon="1.3402">
        <ele>243</ele>
        <time>2022-07-10T07:41:03Z</time>
      </trkpt>
      <trkpt lat="44.53963" lon="1.34025">
        <ele>243.3</ele>
        <time>2022-07-10T07:41:08Z</time>
      </trkpt>
      <trkpt lat="44.53967" lon="1.34031">
        <ele>243.5</ele>
        <time>2022-07-10T07:41:13Z</time>
      </trkpt>
      <trkpt lat="44.5397" lon="1.34036">
        <ele>243.6</ele>
        <time>2022-07-10T07:41:18Z</time>
      </trkpt>
      <trkpt lat="44.53975" lon="1.34041">
        <ele>244.2</ele>
        <time>2022-07-10T07:41:23Z</time>
      </trkpt>
      <trkpt lat="44.53979" lon="1.34045">
        <ele>243.8</ele>
        <time>2022-07-10T07:41:28Z</time>
      </trkpt>
      <trkpt lat="44.53983" lon="1.34049">
        <ele>243.1</ele>
        <time>2022-07-10T07:41:32Z</time>
      </trkpt>
      <trkpt lat="44.53988" lon="1.34053">
        <ele>242.3</ele>
        <time>2022-07-10T07:41:37Z</time>
      </trkpt>
      <trkpt lat="44.53992" lon="1.34057">
        <ele>241.6</ele>
        <time>2022-07-10T07:41:42Z</time>
      </trkpt>
      <trkpt lat="44.53997" lon="1.34061">
        <ele>240.8</ele>
        <time>2022-07-10T07:41:47Z</time>
      </trkpt>
      <trkpt lat="44.54001" lon="1.34065">
        <ele>240</ele>
        <time>2022-07-10T07:41:51Z</time>
      </trkpt>
      <trkpt lat="44.54005" lon="1.34068">
        <ele>239.3</ele>
        <time>2022-07-10T07:41:55Z</time>
      </trkpt>
      <trkpt lat="44.5401" lon="1.34071">
        <ele>239</ele>
        <time>2022-07-10T07:42:00Z</time>
      </trkpt>
      <trkpt lat="44.54014" lon="1.34071">
        <ele>238.7</ele>
        <time>2022-07-10T07:42:04Z</time>
      </trkpt>
      <trkpt lat="44.54019" lon="1.34071">
        <ele>239.2</ele>
        <time>2022-07-10T07:42:08Z</time>
      </trkpt>
      <trkpt lat="44.54024" lon="1.3407">
        <ele>239.2</ele>
        <time>2022-07-10T07:42:12Z</time>
      </trkpt>
      <trkpt lat="44.54029" lon="1.3407">
        <ele>238.8</ele>
        <time>2022-07-10T07:42:16Z</time>
      </trkpt>
      <trkpt lat="44.54034" lon="1.34069">
        <ele>238.2</ele>
        <time>2022-07-10T07:42:20Z</time>
      </trkpt>
      <trkpt lat="44.54039" lon="1.34068">
        <ele>237.4</ele>
        <time>2022-07-10T07:42:24Z</time>
      </trkpt>
      <trkpt lat="44.54043" lon="1.34067">
        <ele>237.1</ele>
        <time>2022-07-10T07:42:29Z</time>
      </trkpt>
      <trkpt lat="44.54049" lon="1.34066">
        <ele>237.2</ele>
        <time>2022-07-10T07:42:34Z</time>
      </trkpt>
      <trkpt lat="44.54054" lon="1.34064">
        <ele>236.8</ele>
        <time>2022-07-10T07:42:39Z</time>
      </trkpt>
      <trkpt lat="44.54058" lon="1.34061">
        <ele>236.4</ele>
        <time>2022-07-10T07:42:44Z</time>
      </trkpt>
      <trkpt lat="44.54063" lon="1.34058">
        <ele>236.2</ele>
        <time>2022-07-10T07:42:49Z</time>
      </trkpt>
      <trkpt lat="44.54068" lon="1.34054">
        <ele>236.6</ele>
        <time>2022-07-10T07:42:54Z</time>
      </trkpt>
      <trkpt lat="44.54073" lon="1.34051">
        <ele>236.7</ele>
        <time>2022-07-10T07:42:59Z</time>
      </trkpt>
      <trkpt lat="44.54078" lon="1.34048">
        <ele>236.3</ele>
        <time>2022-07-10T07:43:04Z</time>
      </trkpt>
      <trkpt lat="44.54083" lon="1.34047">
        <ele>235.8</ele>
        <time>2022-07-10T07:43:09Z</time>
      </trkpt>
      <trkpt lat="44.54088" lon="1.34047">
        <ele>234.9</ele>
        <time>2022-07-10T07:43:14Z</time>
      </trkpt>
      <trkpt lat="44.54093" lon="1.34051">
        <ele>234.1</ele>
        <time>2022-07-10T07:43:19Z</time>
      </trkpt>
      <trkpt lat="44.54097" lon="1.34056">
        <ele>233.1</ele>
        <time>2022-07-10T07:43:24Z</time>
      </trkpt>
      <trkpt lat="44.541" lon="1.34062">
        <ele>232.8</ele>
        <time>2022-07-10T07:43:29Z</time>
      </trkpt>
      <trkpt lat="44.54102" lon="1.34068">
        <ele>232.1</ele>
        <time>2022-07-10T07:43:33Z</time>
      </trkpt>
      <trkpt lat="44.54103" lon="1.34076">
        <ele>231.5</ele>
        <time>2022-07-10T07:43:38Z</time>
      </trkpt>
      <trkpt lat="44.54103" lon="1.34083">
        <ele>230.9</ele>
        <time>2022-07-10T07:43:43Z</time>
      </trkpt>
      <trkpt lat="44.54103" lon="1.34089">
        <ele>230.4</ele>
        <time>2022-07-10T07:43:47Z</time>
      </trkpt>
      <trkpt lat="44.54104" lon="1.34097">
        <ele>230</ele>
        <time>2022-07-10T07:43:52Z</time>
      </trkpt>
      <trkpt lat="44.54104" lon="1.34105">
        <ele>229.6</ele>
        <time>2022-07-10T07:43:57Z</time>
      </trkpt>
      <trkpt lat="44.54104" lon="1.34111">
        <ele>229.1</ele>
        <time>2022-07-10T07:44:01Z</time>
      </trkpt>
      <trkpt lat="44.54105" lon="1.34118">
        <ele>228.6</ele>
        <time>2022-07-10T07:44:05Z</time>
      </trkpt>
      <trkpt lat="44.54105" lon="1.34125">
        <ele>227.9</ele>
        <time>2022-07-10T07:44:09Z</time>
      </trkpt>
      <trkpt lat="44.54105" lon="1.34131">
        <ele>227.4</ele>
        <time>2022-07-10T07:44:13Z</time>
      </trkpt>
      <trkpt lat="44.54105" lon="1.34139">
        <ele>226.4</ele>
        <time>2022-07-10T07:44:18Z</time>
      </trkpt>
      <trkpt lat="44.54105" lon="1.34147">
        <ele>225.7</ele>
        <time>2022-07-10T07:44:23Z</time>
      </trkpt>
      <trkpt lat="44.54104" lon="1.34154">
        <ele>225.4</ele>
        <time>2022-07-10T07:44:28Z</time>
      </trkpt>
      <trkpt lat="44.54103" lon="1.34161">
        <ele>225.3</ele>
        <time>2022-07-10T07:44:32Z</time>
      </trkpt>
      <trkpt lat="44.54102" lon="1.34167">
        <ele>225.1</ele>
        <time>2022-07-10T07:44:36Z</time>
      </trkpt>
      <trkpt lat="44.54101" lon="1.34173">
        <ele>224.8</ele>
        <time>2022-07-10T07:44:40Z</time>
      </trkpt>
      <trkpt lat="44.54099" lon="1.3418">
        <ele>224.4</ele>
        <time>2022-07-10T07:44:45Z</time>
      </trkpt>
      <trkpt lat="44.54097" lon="1.34187">
        <ele>224.1</ele>
        <time>2022-07-10T07:44:50Z</time>
      </trkpt>
      <trkpt lat="44.54094" lon="1.34192">
        <ele>223.9</ele>
        <time>2022-07-10T07:44:54Z</time>
      </trkpt>
      <trkpt lat="44.54091" lon="1.34198">
        <ele>223.5</ele>
        <time>2022-07-10T07:44:59Z</time>
      </trkpt>
      <trkpt lat="44.54089" lon="1.34204">
        <ele>223</ele>
        <time>2022-07-10T07:45:03Z</time>
      </trkpt>
      <trkpt lat="44.54086" lon="1.34209">
        <ele>222.3</ele>
        <time>2022-07-10T07:45:07Z</time>
      </trkpt>
      <trkpt lat="44.54083" lon="1.34215">
        <ele>221.8</ele>
        <time>2022-07-10T07:45:11Z</time>
      </trkpt>
      <trkpt lat="44.54081" lon="1.34221">
        <ele>221.3</ele>
        <time>2022-07-10T07:45:15Z</time>
      </trkpt>
      <trkpt lat="44.54079" lon="1.34227">
        <ele>221.3</ele>
        <time>2022-07-10T07:45:19Z</time>
      </trkpt>
      <trkpt lat="44.54078" lon="1.34233">
        <ele>221.3</ele>
        <time>2022-07-10T07:45:23Z</time>
      </trkpt>
      <trkpt lat="44.54076" lon="1.34239">
        <ele>221.1</ele>
        <time>2022-07-10T07:45:27Z</time>
      </trkpt>
      <trkpt lat="44.54075" lon="1.34246">
        <ele>220.7</ele>
        <time>2022-07-10T07:45:31Z</time>
      </trkpt>
      <trkpt lat="44.54074" lon="1.34252">
        <ele>220.2</ele>
        <time>2022-07-10T07:45:35Z</time>
      </trkpt>
      <trkpt lat="44.54073" lon="1.34259">
        <ele>220.2</ele>
        <time>2022-07-10T07:45:39Z</time>
      </trkpt>
      <trkpt lat="44.54072" lon="1.34265">
        <ele>220.4</ele>
        <time>2022-07-10T07:45:43Z</time>
      </trkpt>
      <trkpt lat="44.54072" lon="1.34272">
        <ele>220.5</ele>
        <time>2022-07-10T07:45:47Z</time>
      </trkpt>
      <trkpt lat="44.54074" lon="1.34279">
        <ele>220.8</ele>
        <time>2022-07-10T07:45:51Z</time>
      </trkpt>
      <trkpt lat="44.54076" lon="1.34285">
        <ele>220.9</ele>
        <time>2022-07-10T07:45:55Z</time>
      </trkpt>
      <trkpt lat="44.54078" lon="1.3429">
        <ele>221</ele>
        <time>2022-07-10T07:45:59Z</time>
      </trkpt>
      <trkpt lat="44.54082" lon="1.34295">
        <ele>221</ele>
        <time>2022-07-10T07:46:04Z</time>
      </trkpt>
      <trkpt lat="44.54087" lon="1.343">
        <ele>220.5</ele>
        <time>2022-07-10T07:46:09Z</time>
      </trkpt>
      <trkpt lat="44.54091" lon="1.34303">
        <ele>220.5</ele>
        <time>2022-07-10T07:46:13Z</time>
      </trkpt>
      <trkpt lat="44.54095" lon="1.34307">
        <ele>220.1</ele>
        <time>2022-07-10T07:46:17Z</time>
      </trkpt>
      <trkpt lat="44.54098" lon="1.34312">
        <ele>219.6</ele>
        <time>2022-07-10T07:46:21Z</time>
      </trkpt>
      <trkpt lat="44.541" lon="1.34317">
        <ele>219.5</ele>
        <time>2022-07-10T07:46:25Z</time>
      </trkpt>
      <trkpt lat="44.54103" lon="1.34322">
        <ele>219.3</ele>
        <time>2022-07-10T07:46:29Z</time>
      </trkpt>
      <trkpt lat="44.54105" lon="1.34328">
        <ele>218.9</ele>
        <time>2022-07-10T07:46:33Z</time>
      </trkpt>
      <trkpt lat="44.54107" lon="1.34334">
        <ele>218.7</ele>
        <time>2022-07-10T07:46:37Z</time>
      </trkpt>
      <trkpt lat="44.5411" lon="1.34341">
        <ele>218</ele>
        <time>2022-07-10T07:46:42Z</time>
      </trkpt>
      <trkpt lat="44.54112" lon="1.34347">
        <ele>217.3</ele>
        <time>2022-07-10T07:46:46Z</time>
      </trkpt>
      <trkpt lat="44.54114" lon="1.34353">
        <ele>217.1</ele>
        <time>2022-07-10T07:46:50Z</time>
      </trkpt>
      <trkpt lat="44.54116" lon="1.34359">
        <ele>216.9</ele>
        <time>2022-07-10T07:46:54Z</time>
      </trkpt>
      <trkpt lat="44.54118" lon="1.34364">
        <ele>216.7</ele>
        <time>2022-07-10T07:46:58Z</time>
      </trkpt>
      <trkpt lat="44.5412" lon="1.3437">
        <ele>216.3</ele>
        <time>2022-07-10T07:47:02Z</time>
      </trkpt>
      <trkpt lat="44.54122" lon="1.34376">
        <ele>215.9</ele>
        <time>2022-07-10T07:47:06Z</time>
      </trkpt>
      <trkpt lat="44.54123" lon="1.34382">
        <ele>215.6</ele>
        <time>2022-07-10T07:47:10Z</time>
      </trkpt>
      <trkpt lat="44.54125" lon="1.3439">
        <ele>215.3</ele>
        <time>2022-07-10T07:47:15Z</time>
      </trkpt>
      <trkpt lat="44.54128" lon="1.34395">
        <ele>215.2</ele>
        <time>2022-07-10T07:47:19Z</time>
      </trkpt>
      <trkpt lat="44.5413" lon="1.34401">
        <ele>214.7</ele>
        <time>2022-07-10T07:47:23Z</time>
      </trkpt>
      <trkpt lat="44.54132" lon="1.34407">
        <ele>214.7</ele>
        <time>2022-07-10T07:47:27Z</time>
      </trkpt>
      <trkpt lat="44.54134" lon="1.34413">
        <ele>214.7</ele>
        <time>2022-07-10T07:47:31Z</time>
      </trkpt>
      <trkpt lat="44.54137" lon="1.34419">
        <ele>214.5</ele>
        <time>2022-07-10T07:47:36Z</time>
      </trkpt>
      <trkpt lat="44.5414" lon="1.34425">
        <ele>214.7</ele>
        <time>2022-07-10T07:47:40Z</time>
      </trkpt>
      <trkpt lat="44.54142" lon="1.34432">
        <ele>214.2</ele>
        <time>2022-07-10T07:47:45Z</time>
      </trkpt>
      <trkpt lat="44.54145" lon="1.34437">
        <ele>213.7</ele>
        <time>2022-07-10T07:47:49Z</time>
      </trkpt>
      <trkpt lat="44.54148" lon="1.34443">
        <ele>213.4</ele>
        <time>2022-07-10T07:47:54Z</time>
      </trkpt>
      <trkpt lat="44.54151" lon="1.34448">
        <ele>213</ele>
        <time>2022-07-10T07:47:58Z</time>
      </trkpt>
      <trkpt lat="44.54156" lon="1.34453">
        <ele>212.9</ele>
        <time>2022-07-10T07:48:03Z</time>
      </trkpt>
      <trkpt lat="44.5416" lon="1.34455">
        <ele>212.5</ele>
        <time>2022-07-10T07:48:07Z</time>
      </trkpt>
      <trkpt lat="44.54165" lon="1.34452">
        <ele>212</ele>
        <time>2022-07-10T07:48:12Z</time>
      </trkpt>
      <trkpt lat="44.54165" lon="1.34445">
        <ele>211.3</ele>
        <time>2022-07-10T07:48:16Z</time>
      </trkpt>
      <trkpt lat="44.54164" lon="1.34438">
        <ele>211.1</ele>
        <time>2022-07-10T07:48:21Z</time>
      </trkpt>
      <trkpt lat="44.54162" lon="1.34431">
        <ele>211.5</ele>
        <time>2022-07-10T07:48:26Z</time>
      </trkpt>
      <trkpt lat="44.54161" lon="1.34424">
        <ele>211.7</ele>
        <time>2022-07-10T07:48:31Z</time>
      </trkpt>
      <trkpt lat="44.5416" lon="1.34416">
        <ele>212.6</ele>
        <time>2022-07-10T07:48:36Z</time>
      </trkpt>
      <trkpt lat="44.54159" lon="1.34408">
        <ele>212.5</ele>
        <time>2022-07-10T07:48:41Z</time>
      </trkpt>
      <trkpt lat="44.54158" lon="1.34401">
        <ele>212.4</ele>
        <time>2022-07-10T07:48:46Z</time>
      </trkpt>
      <trkpt lat="44.54157" lon="1.34394">
        <ele>212</ele>
        <time>2022-07-10T07:48:51Z</time>
      </trkpt>
      <trkpt lat="44.54156" lon="1.34387">
        <ele>212.7</ele>
        <time>2022-07-10T07:48:55Z</time>
      </trkpt>
      <trkpt lat="44.54155" lon="1.3438">
        <ele>213</ele>
        <time>2022-07-10T07:49:00Z</time>
      </trkpt>
      <trkpt lat="44.54155" lon="1.34373">
        <ele>212.5</ele>
        <time>2022-07-10T07:49:05Z</time>
      </trkpt>
      <trkpt lat="44.54155" lon="1.34365">
        <ele>212.1</ele>
        <time>2022-07-10T07:49:10Z</time>
      </trkpt>
      <trkpt lat="44.54155" lon="1.34358">
        <ele>211.5</ele>
        <time>2022-07-10T07:49:15Z</time>
      </trkpt>
      <trkpt lat="44.54156" lon="1.34351">
        <ele>210.1</ele>
        <time>2022-07-10T07:49:20Z</time>
      </trkpt>
      <trkpt lat="44.54158" lon="1.34345">
        <ele>209</ele>
        <time>2022-07-10T07:49:25Z</time>
      </trkpt>
      <trkpt lat="44.54161" lon="1.34338">
        <ele>208.7</ele>
        <time>2022-07-10T07:49:30Z</time>
      </trkpt>
      <trkpt lat="44.54164" lon="1.34332">
        <ele>208.6</ele>
        <time>2022-07-10T07:49:35Z</time>
      </trkpt>
      <trkpt lat="44.54166" lon="1.34325">
        <ele>207.4</ele>
        <time>2022-07-10T07:49:40Z</time>
      </trkpt>
      <trkpt lat="44.54169" lon="1.34319">
        <ele>207.5</ele>
        <time>2022-07-10T07:49:45Z</time>
      </trkpt>
      <trkpt lat="44.54173" lon="1.34313">
        <ele>207.1</ele>
        <time>2022-07-10T07:49:50Z</time>
      </trkpt>
      <trkpt lat="44.54175" lon="1.34307">
        <ele>206.9</ele>
        <time>2022-07-10T07:49:54Z</time>
      </trkpt>
      <trkpt lat="44.54178" lon="1.34301">
        <ele>207.6</ele>
        <time>2022-07-10T07:49:59Z</time>
      </trkpt>
      <trkpt lat="44.5418" lon="1.34295">
        <ele>207.5</ele>
        <time>2022-07-10T07:50:04Z</time>
      </trkpt>
      <trkpt lat="44.54183" lon="1.34288">
        <ele>207.6</ele>
        <time>2022-07-10T07:50:09Z</time>
      </trkpt>
      <trkpt lat="44.54186" lon="1.34282">
        <ele>207.2</ele>
        <time>2022-07-10T07:50:14Z</time>
      </trkpt>
      <trkpt lat="44.54188" lon="1.34276">
        <ele>207</ele>
        <time>2022-07-10T07:50:19Z</time>
      </trkpt>
      <trkpt lat="44.54191" lon="1.3427">
        <ele>205.9</ele>
        <time>2022-07-10T07:50:24Z</time>
      </trkpt>
      <trkpt lat="44.54195" lon="1.34264">
        <ele>204.7</ele>
        <time>2022-07-10T07:50:29Z</time>
      </trkpt>
      <trkpt lat="44.54198" lon="1.34259">
        <ele>203.3</ele>
        <time>2022-07-10T07:50:34Z</time>
      </trkpt>
      <trkpt lat="44.54202" lon="1.34253">
        <ele>202.3</ele>
        <time>2022-07-10T07:50:39Z</time>
      </trkpt>
      <trkpt lat="44.54204" lon="1.34247">
        <ele>201.7</ele>
        <time>2022-07-10T07:50:44Z</time>
      </trkpt>
      <trkpt lat="44.54207" lon="1.34242">
        <ele>200.8</ele>
        <time>2022-07-10T07:50:49Z</time>
      </trkpt>
      <trkpt lat="44.5421" lon="1.34236">
        <ele>200.2</ele>
        <time>2022-07-10T07:50:54Z</time>
      </trkpt>
      <trkpt lat="44.54213" lon="1.3423">
        <ele>199.7</ele>
        <time>2022-07-10T07:50:59Z</time>
      </trkpt>
      <trkpt lat="44.54216" lon="1.34224">
        <ele>199.8</ele>
        <time>2022-07-10T07:51:04Z</time>
      </trkpt>
      <trkpt lat="44.54219" lon="1.34218">
        <ele>199</ele>
        <time>2022-07-10T07:51:09Z</time>
      </trkpt>
      <trkpt lat="44.54222" lon="1.34212">
        <ele>198.5</ele>
        <time>2022-07-10T07:51:14Z</time>
      </trkpt>
      <trkpt lat="44.54225" lon="1.34207">
        <ele>198.1</ele>
        <time>2022-07-10T07:51:18Z</time>
      </trkpt>
      <trkpt lat="44.54228" lon="1.34201">
        <ele>197.4</ele>
        <time>2022-07-10T07:51:23Z</time>
      </trkpt>
      <trkpt lat="44.54231" lon="1.34194">
        <ele>197.7</ele>
        <time>2022-07-10T07:51:28Z</time>
      </trkpt>
      <trkpt lat="44.54234" lon="1.34188">
        <ele>197.3</ele>
        <time>2022-07-10T07:51:33Z</time>
      </trkpt>
      <trkpt lat="44.54237" lon="1.34182">
        <ele>197.2</ele>
        <time>2022-07-10T07:51:38Z</time>
      </trkpt>
      <trkpt lat="44.5424" lon="1.34176">
        <ele>197.2</ele>
        <time>2022-07-10T07:51:43Z</time>
      </trkpt>
      <trkpt lat="44.54242" lon="1.3417">
        <ele>196.4</ele>
        <time>2022-07-10T07:51:48Z</time>
      </trkpt>
      <trkpt lat="44.54245" lon="1.34164">
        <ele>196.2</ele>
        <time>2022-07-10T07:51:53Z</time>
      </trkpt>
      <trkpt lat="44.54246" lon="1.34157">
        <ele>196.9</ele>
        <time>2022-07-10T07:51:58Z</time>
      </trkpt>
      <trkpt lat="44.54248" lon="1.3415">
        <ele>197.3</ele>
        <time>2022-07-10T07:52:03Z</time>
      </trkpt>
      <trkpt lat="44.5425" lon="1.34143">
        <ele>197.7</ele>
        <time>2022-07-10T07:52:08Z</time>
      </trkpt>
      <trkpt lat="44.54252" lon="1.34136">
        <ele>196.8</ele>
        <time>2022-07-10T07:52:13Z</time>
      </trkpt>
      <trkpt lat="44.54254" lon="1.3413">
        <ele>196.4</ele>
        <time>2022-07-10T07:52:18Z</time>
      </trkpt>
      <trkpt lat="44.54256" lon="1.34123">
        <ele>195.8</ele>
        <time>2022-07-10T07:52:23Z</time>
      </trkpt>
      <trkpt lat="44.54258" lon="1.34116">
        <ele>195.5</ele>
        <time>2022-07-10T07:52:28Z</time>
      </trkpt>
      <trkpt lat="44.54259" lon="1.34109">
        <ele>194.8</ele>
        <time>2022-07-10T07:52:33Z</time>
      </trkpt>
      <trkpt lat="44.54261" lon="1.34102">
        <ele>194.3</ele>
        <time>2022-07-10T07:52:38Z</time>
      </trkpt>
      <trkpt lat="44.54262" lon="1.34096">
        <ele>193.7</ele>
        <time>2022-07-10T07:52:43Z</time>
      </trkpt>
      <trkpt lat="44.54263" lon="1.34089">
        <ele>193.5</ele>
        <time>2022-07-10T07:52:48Z</time>
      </trkpt>
      <trkpt lat="44.54264" lon="1.34081">
        <ele>193</ele>
        <time>2022-07-10T07:52:53Z</time>
      </trkpt>
      <trkpt lat="44.54265" lon="1.34074">
        <ele>192.8</ele>
        <time>2022-07-10T07:52:58Z</time>
      </trkpt>
      <trkpt lat="44.54265" lon="1.34068">
        <ele>193.3</ele>
        <time>2022-07-10T07:53:03Z</time>
      </trkpt>
      <trkpt lat="44.54266" lon="1.34061">
        <ele>193.6</ele>
        <time>2022-07-10T07:53:08Z</time>
      </trkpt>
      <trkpt lat="44.54266" lon="1.34053">
        <ele>194</ele>
        <time>2022-07-10T07:53:13Z</time>
      </trkpt>
      <trkpt lat="44.54267" lon="1.34046">
        <ele>194.8</ele>
        <time>2022-07-10T07:53:18Z</time>
      </trkpt>
      <trkpt lat="44.54267" lon="1.34039">
        <ele>195.6</ele>
        <time>2022-07-10T07:53:23Z</time>
      </trkpt>
      <trkpt lat="44.54269" lon="1.34031">
        <ele>196.6</ele>
        <time>2022-07-10T07:53:28Z</time>
      </trkpt>
      <trkpt lat="44.5427" lon="1.34024">
        <ele>196.9</ele>
        <time>2022-07-10T07:53:33Z</time>
      </trkpt>
      <trkpt lat="44.54272" lon="1.34017">
        <ele>196.5</ele>
        <time>2022-07-10T07:53:38Z</time>
      </trkpt>
      <trkpt lat="44.54274" lon="1.3401">
        <ele>196.1</ele>
        <time>2022-07-10T07:53:43Z</time>
      </trkpt>
      <trkpt lat="44.54275" lon="1.34003">
        <ele>195.6</ele>
        <time>2022-07-10T07:53:48Z</time>
      </trkpt>
      <trkpt lat="44.54278" lon="1.33996">
        <ele>196.1</ele>
        <time>2022-07-10T07:53:53Z</time>
      </trkpt>
      <trkpt lat="44.54281" lon="1.3399">
        <ele>195.3</ele>
        <time>2022-07-10T07:53:58Z</time>
      </trkpt>
      <trkpt lat="44.54284" lon="1.33984">
        <ele>194.8</ele>
        <time>2022-07-10T07:54:03Z</time>
      </trkpt>
      <trkpt lat="44.54288" lon="1.33979">
        <ele>195.1</ele>
        <time>2022-07-10T07:54:08Z</time>
      </trkpt>
      <trkpt lat="44.54292" lon="1.33975">
        <ele>195</ele>
        <time>2022-07-10T07:54:13Z</time>
      </trkpt>
      <trkpt lat="44.54296" lon="1.3397">
        <ele>194.9</ele>
        <time>2022-07-10T07:54:18Z</time>
      </trkpt>
      <trkpt lat="44.54299" lon="1.33966">
        <ele>194.6</ele>
        <time>2022-07-10T07:54:23Z</time>
      </trkpt>
      <trkpt lat="44.54303" lon="1.33961">
        <ele>194.8</ele>
        <time>2022-07-10T07:54:28Z</time>
      </trkpt>
      <trkpt lat="44.54307" lon="1.33957">
        <ele>194.7</ele>
        <time>2022-07-10T07:54:33Z</time>
      </trkpt>
      <trkpt lat="44.54312" lon="1.33953">
        <ele>194.2</ele>
        <time>2022-07-10T07:54:38Z</time>
      </trkpt>
      <trkpt lat="44.54317" lon="1.3395">
        <ele>193.9</ele>
        <time>2022-07-10T07:54:43Z</time>
      </trkpt>
      <trkpt lat="44.54321" lon="1.33946">
        <ele>193.6</ele>
        <time>2022-07-10T07:54:48Z</time>
      </trkpt>
      <trkpt lat="44.54326" lon="1.33942">
        <ele>193.2</ele>
        <time>2022-07-10T07:54:53Z</time>
      </trkpt>
      <trkpt lat="44.5433" lon="1.33938">
        <ele>193.1</ele>
        <time>2022-07-10T07:54:58Z</time>
      </trkpt>
      <trkpt lat="44.54334" lon="1.33934">
        <ele>193.1</ele>
        <time>2022-07-10T07:55:03Z</time>
      </trkpt>
      <trkpt lat="44.5434" lon="1.33932">
        <ele>192.8</ele>
        <time>2022-07-10T07:55:09Z</time>
      </trkpt>
      <trkpt lat="44.54339" lon="1.33926">
        <ele>194.1</ele>
        <time>2022-07-10T07:57:12Z</time>
      </trkpt>
      <trkpt lat="44.54339" lon="1.33919">
        <ele>193.9</ele>
        <time>2022-07-10T07:57:19Z</time>
      </trkpt>
      <trkpt lat="44.54339" lon="1.33913">
        <ele>193.8</ele>
        <time>2022-07-10T07:57:24Z</time>
      </trkpt>
      <trkpt lat="44.54341" lon="1.33906">
        <ele>193.3</ele>
        <time>2022-07-10T07:57:30Z</time>
      </trkpt>
      <trkpt lat="44.5434" lon="1.33899">
        <ele>192.3</ele>
        <time>2022-07-10T07:57:36Z</time>
      </trkpt>
      <trkpt lat="44.54341" lon="1.33892">
        <ele>191.7</ele>
        <time>2022-07-10T07:57:42Z</time>
      </trkpt>
      <trkpt lat="44.54342" lon="1.33885">
        <ele>191.8</ele>
        <time>2022-07-10T07:57:48Z</time>
      </trkpt>
      <trkpt lat="44.54344" lon="1.33879">
        <ele>191.4</ele>
        <time>2022-07-10T07:57:53Z</time>
      </trkpt>
      <trkpt lat="44.54346" lon="1.33873">
        <ele>191.5</ele>
        <time>2022-07-10T07:57:58Z</time>
      </trkpt>
      <trkpt lat="44.54348" lon="1.33866">
        <ele>191.6</ele>
        <time>2022-07-10T07:58:03Z</time>
      </trkpt>
      <trkpt lat="44.5435" lon="1.3386">
        <ele>191.8</ele>
        <time>2022-07-10T07:58:08Z</time>
      </trkpt>
      <trkpt lat="44.54352" lon="1.33853">
        <ele>191.3</ele>
        <time>2022-07-10T07:58:13Z</time>
      </trkpt>
      <trkpt lat="44.54355" lon="1.33847">
        <ele>190.6</ele>
        <time>2022-07-10T07:58:18Z</time>
      </trkpt>
      <trkpt lat="44.54358" lon="1.3384">
        <ele>190.7</ele>
        <time>2022-07-10T07:58:23Z</time>
      </trkpt>
      <trkpt lat="44.54362" lon="1.33834">
        <ele>189.9</ele>
        <time>2022-07-10T07:58:28Z</time>
      </trkpt>
      <trkpt lat="44.54365" lon="1.3383">
        <ele>189.2</ele>
        <time>2022-07-10T07:58:32Z</time>
      </trkpt>
      <trkpt lat="44.54369" lon="1.33824">
        <ele>188.5</ele>
        <time>2022-07-10T07:58:37Z</time>
      </trkpt>
      <trkpt lat="44.54373" lon="1.3382">
        <ele>187.8</ele>
        <time>2022-07-10T07:58:42Z</time>
      </trkpt>
      <trkpt lat="44.54377" lon="1.33815">
        <ele>187.8</ele>
        <time>2022-07-10T07:58:47Z</time>
      </trkpt>
      <trkpt lat="44.54381" lon="1.33812">
        <ele>187.6</ele>
        <time>2022-07-10T07:58:52Z</time>
      </trkpt>
      <trkpt lat="44.54385" lon="1.33808">
        <ele>187.5</ele>
        <time>2022-07-10T07:58:57Z</time>
      </trkpt>
      <trkpt lat="44.5439" lon="1.33804">
        <ele>188.1</ele>
        <time>2022-07-10T07:59:02Z</time>
      </trkpt>
      <trkpt lat="44.54394" lon="1.338">
        <ele>187.9</ele>
        <time>2022-07-10T07:59:06Z</time>
      </trkpt>
      <trkpt lat="44.54398" lon="1.33796">
        <ele>187.2</ele>
        <time>2022-07-10T07:59:10Z</time>
      </trkpt>
      <trkpt lat="44.54401" lon="1.33792">
        <ele>187.3</ele>
        <time>2022-07-10T07:59:14Z</time>
      </trkpt>
      <trkpt lat="44.54405" lon="1.33788">
        <ele>187</ele>
        <time>2022-07-10T07:59:18Z</time>
      </trkpt>
      <trkpt lat="44.54408" lon="1.33783">
        <ele>186.5</ele>
        <time>2022-07-10T07:59:22Z</time>
      </trkpt>
      <trkpt lat="44.54412" lon="1.33778">
        <ele>185.7</ele>
        <time>2022-07-10T07:59:26Z</time>
      </trkpt>
      <trkpt lat="44.54415" lon="1.33773">
        <ele>186</ele>
        <time>2022-07-10T07:59:30Z</time>
      </trkpt>
      <trkpt lat="44.54418" lon="1.33769">
        <ele>186</ele>
        <time>2022-07-10T07:59:34Z</time>
      </trkpt>
      <trkpt lat="44.54421" lon="1.33763">
        <ele>185.6</ele>
        <time>2022-07-10T07:59:38Z</time>
      </trkpt>
      <trkpt lat="44.54424" lon="1.33758">
        <ele>185.8</ele>
        <time>2022-07-10T07:59:42Z</time>
      </trkpt>
      <trkpt lat="44.54427" lon="1.33753">
        <ele>186.3</ele>
        <time>2022-07-10T07:59:46Z</time>
      </trkpt>
      <trkpt lat="44.54431" lon="1.33748">
        <ele>186.1</ele>
        <time>2022-07-10T07:59:50Z</time>
      </trkpt>
      <trkpt lat="44.54434" lon="1.33744">
        <ele>185.8</ele>
        <time>2022-07-10T07:59:54Z</time>
      </trkpt>
      <trkpt lat="44.54438" lon="1.33741">
        <ele>185.4</ele>
        <time>2022-07-10T07:59:58Z</time>
      </trkpt>
      <trkpt lat="44.54442" lon="1.33737">
        <ele>184.8</ele>
        <time>2022-07-10T08:00:02Z</time>
      </trkpt>
      <trkpt lat="44.54446" lon="1.33733">
        <ele>184</ele>
        <time>2022-07-10T08:00:06Z</time>
      </trkpt>
      <trkpt lat="44.5445" lon="1.33729">
        <ele>183.8</ele>
        <time>2022-07-10T08:00:10Z</time>
      </trkpt>
      <trkpt lat="44.54454" lon="1.33727">
        <ele>183.9</ele>
        <time>2022-07-10T08:00:14Z</time>
      </trkpt>
      <trkpt lat="44.54459" lon="1.33725">
        <ele>184.5</ele>
        <time>2022-07-10T08:00:18Z</time>
      </trkpt>
      <trkpt lat="44.54463" lon="1.33723">
        <ele>184.9</ele>
        <time>2022-07-10T08:00:22Z</time>
      </trkpt>
      <trkpt lat="44.54468" lon="1.33724">
        <ele>185.8</ele>
        <time>2022-07-10T08:00:26Z</time>
      </trkpt>
      <trkpt lat="44.54473" lon="1.33723">
        <ele>185.8</ele>
        <time>2022-07-10T08:00:31Z</time>
      </trkpt>
      <trkpt lat="44.54478" lon="1.33724">
        <ele>184.8</ele>
        <time>2022-07-10T08:00:36Z</time>
      </trkpt>
      <trkpt lat="44.54483" lon="1.33725">
        <ele>183.8</ele>
        <time>2022-07-10T08:00:41Z</time>
      </trkpt>
      <trkpt lat="44.54488" lon="1.33725">
        <ele>182.1</ele>
        <time>2022-07-10T08:00:46Z</time>
      </trkpt>
      <trkpt lat="44.54493" lon="1.33724">
        <ele>179.8</ele>
        <time>2022-07-10T08:00:51Z</time>
      </trkpt>
      <trkpt lat="44.54498" lon="1.33721">
        <ele>178.9</ele>
        <time>2022-07-10T08:00:56Z</time>
      </trkpt>
      <trkpt lat="44.54501" lon="1.33715">
        <ele>178.8</ele>
        <time>2022-07-10T08:01:01Z</time>
      </trkpt>
      <trkpt lat="44.54504" lon="1.3371">
        <ele>178.8</ele>
        <time>2022-07-10T08:01:05Z</time>
      </trkpt>
      <trkpt lat="44.54506" lon="1.33703">
        <ele>179.2</ele>
        <time>2022-07-10T08:01:10Z</time>
      </trkpt>
      <trkpt lat="44.54509" lon="1.33696">
        <ele>180</ele>
        <time>2022-07-10T08:01:15Z</time>
      </trkpt>
      <trkpt lat="44.54511" lon="1.33691">
        <ele>180.3</ele>
        <time>2022-07-10T08:01:19Z</time>
      </trkpt>
      <trkpt lat="44.54513" lon="1.33684">
        <ele>180.9</ele>
        <time>2022-07-10T08:01:24Z</time>
      </trkpt>
      <trkpt lat="44.54515" lon="1.33678">
        <ele>181.1</ele>
        <time>2022-07-10T08:01:28Z</time>
      </trkpt>
      <trkpt lat="44.54518" lon="1.33671">
        <ele>181</ele>
        <time>2022-07-10T08:01:33Z</time>
      </trkpt>
      <trkpt lat="44.5452" lon="1.33665">
        <ele>181.9</ele>
        <time>2022-07-10T08:01:37Z</time>
      </trkpt>
      <trkpt lat="44.54521" lon="1.33658">
        <ele>182</ele>
        <time>2022-07-10T08:01:41Z</time>
      </trkpt>
      <trkpt lat="44.54523" lon="1.33651">
        <ele>182.9</ele>
        <time>2022-07-10T08:01:46Z</time>
      </trkpt>
      <trkpt lat="44.54524" lon="1.33643">
        <ele>184.4</ele>
        <time>2022-07-10T08:01:51Z</time>
      </trkpt>
      <trkpt lat="44.54525" lon="1.33637">
        <ele>185.1</ele>
        <time>2022-07-10T08:01:55Z</time>
      </trkpt>
      <trkpt lat="44.54525" lon="1.3363">
        <ele>185</ele>
        <time>2022-07-10T08:02:00Z</time>
      </trkpt>
      <trkpt lat="44.54525" lon="1.33622">
        <ele>185.3</ele>
        <time>2022-07-10T08:02:05Z</time>
      </trkpt>
      <trkpt lat="44.54525" lon="1.33616">
        <ele>185.3</ele>
        <time>2022-07-10T08:02:10Z</time>
      </trkpt>
      <trkpt lat="44.54525" lon="1.33609">
        <ele>185.1</ele>
        <time>2022-07-10T08:02:15Z</time>
      </trkpt>
      <trkpt lat="44.54527" lon="1.33603">
        <ele>184.8</ele>
        <time>2022-07-10T08:02:20Z</time>
      </trkpt>
      <trkpt lat="44.54528" lon="1.33596">
        <ele>183.7</ele>
        <time>2022-07-10T08:02:25Z</time>
      </trkpt>
      <trkpt lat="44.54531" lon="1.3359">
        <ele>183.5</ele>
        <time>2022-07-10T08:02:30Z</time>
      </trkpt>
      <trkpt lat="44.54531" lon="1.33583">
        <ele>183.1</ele>
        <time>2022-07-10T08:02:34Z</time>
      </trkpt>
      <trkpt lat="44.54531" lon="1.33577">
        <ele>182.5</ele>
        <time>2022-07-10T08:02:38Z</time>
      </trkpt>
      <trkpt lat="44.54531" lon="1.3357">
        <ele>182.3</ele>
        <time>2022-07-10T08:02:42Z</time>
      </trkpt>
      <trkpt lat="44.54532" lon="1.33562">
        <ele>182.3</ele>
        <time>2022-07-10T08:02:47Z</time>
      </trkpt>
      <trkpt lat="44.54536" lon="1.33558">
        <ele>181.5</ele>
        <time>2022-07-10T08:02:52Z</time>
      </trkpt>
      <trkpt lat="44.5454" lon="1.33555">
        <ele>180.4</ele>
        <time>2022-07-10T08:02:57Z</time>
      </trkpt>
      <trkpt lat="44.54545" lon="1.33553">
        <ele>178.2</ele>
        <time>2022-07-10T08:03:02Z</time>
      </trkpt>
      <trkpt lat="44.5455" lon="1.33553">
        <ele>176.4</ele>
        <time>2022-07-10T08:03:07Z</time>
      </trkpt>
      <trkpt lat="44.54556" lon="1.33552">
        <ele>174.8</ele>
        <time>2022-07-10T08:03:12Z</time>
      </trkpt>
      <trkpt lat="44.54561" lon="1.3355">
        <ele>174.8</ele>
        <time>2022-07-10T08:03:17Z</time>
      </trkpt>
      <trkpt lat="44.54566" lon="1.33548">
        <ele>174.8</ele>
        <time>2022-07-10T08:03:22Z</time>
      </trkpt>
      <trkpt lat="44.5457" lon="1.33542">
        <ele>174.5</ele>
        <time>2022-07-10T08:03:27Z</time>
      </trkpt>
      <trkpt lat="44.54572" lon="1.33536">
        <ele>175.1</ele>
        <time>2022-07-10T08:03:31Z</time>
      </trkpt>
      <trkpt lat="44.54574" lon="1.33531">
        <ele>175.5</ele>
        <time>2022-07-10T08:03:35Z</time>
      </trkpt>
      <trkpt lat="44.54576" lon="1.33525">
        <ele>175.8</ele>
        <time>2022-07-10T08:03:39Z</time>
      </trkpt>
      <trkpt lat="44.54578" lon="1.33519">
        <ele>175.9</ele>
        <time>2022-07-10T08:03:43Z</time>
      </trkpt>
      <trkpt lat="44.54578" lon="1.33512">
        <ele>176.3</ele>
        <time>2022-07-10T08:03:48Z</time>
      </trkpt>
      <trkpt lat="44.54577" lon="1.33504">
        <ele>177</ele>
        <time>2022-07-10T08:03:53Z</time>
      </trkpt>
      <trkpt lat="44.54574" lon="1.33498">
        <ele>177.2</ele>
        <time>2022-07-10T08:03:58Z</time>
      </trkpt>
      <trkpt lat="44.54571" lon="1.33491">
        <ele>177.6</ele>
        <time>2022-07-10T08:04:03Z</time>
      </trkpt>
      <trkpt lat="44.54568" lon="1.33486">
        <ele>177.3</ele>
        <time>2022-07-10T08:04:07Z</time>
      </trkpt>
      <trkpt lat="44.54566" lon="1.3348">
        <ele>177.4</ele>
        <time>2022-07-10T08:04:11Z</time>
      </trkpt>
      <trkpt lat="44.54563" lon="1.33475">
        <ele>177.4</ele>
        <time>2022-07-10T08:04:15Z</time>
      </trkpt>
      <trkpt lat="44.5456" lon="1.3347">
        <ele>176.8</ele>
        <time>2022-07-10T08:04:19Z</time>
      </trkpt>
      <trkpt lat="44.54558" lon="1.33464">
        <ele>177</ele>
        <time>2022-07-10T08:04:23Z</time>
      </trkpt>
      <trkpt lat="44.54555" lon="1.33458">
        <ele>177.4</ele>
        <time>2022-07-10T08:04:28Z</time>
      </trkpt>
      <trkpt lat="44.54552" lon="1.33451">
        <ele>177.5</ele>
        <time>2022-07-10T08:04:33Z</time>
      </trkpt>
      <trkpt lat="44.5455" lon="1.33446">
        <ele>177.8</ele>
        <time>2022-07-10T08:04:37Z</time>
      </trkpt>
      <trkpt lat="44.54547" lon="1.3344">
        <ele>178.4</ele>
        <time>2022-07-10T08:04:41Z</time>
      </trkpt>
      <trkpt lat="44.54544" lon="1.33435">
        <ele>178.8</ele>
        <time>2022-07-10T08:04:45Z</time>
      </trkpt>
      <trkpt lat="44.54542" lon="1.33429">
        <ele>178.1</ele>
        <time>2022-07-10T08:04:49Z</time>
      </trkpt>
      <trkpt lat="44.5454" lon="1.33423">
        <ele>177.6</ele>
        <time>2022-07-10T08:04:53Z</time>
      </trkpt>
      <trkpt lat="44.54538" lon="1.33417">
        <ele>177</ele>
        <time>2022-07-10T08:04:57Z</time>
      </trkpt>
      <trkpt lat="44.54536" lon="1.33412">
        <ele>176.6</ele>
        <time>2022-07-10T08:05:01Z</time>
      </trkpt>
      <trkpt lat="44.54534" lon="1.33406">
        <ele>175.7</ele>
        <time>2022-07-10T08:05:05Z</time>
      </trkpt>
      <trkpt lat="44.54533" lon="1.334">
        <ele>175.2</ele>
        <time>2022-07-10T08:05:09Z</time>
      </trkpt>
      <trkpt lat="44.54533" lon="1.33392">
        <ele>175.3</ele>
        <time>2022-07-10T08:05:14Z</time>
      </trkpt>
      <trkpt lat="44.54534" lon="1.33385">
        <ele>175.6</ele>
        <time>2022-07-10T08:05:18Z</time>
      </trkpt>
      <trkpt lat="44.54535" lon="1.33378">
        <ele>175.8</ele>
        <time>2022-07-10T08:05:23Z</time>
      </trkpt>
      <trkpt lat="44.54537" lon="1.33372">
        <ele>175.9</ele>
        <time>2022-07-10T08:05:27Z</time>
      </trkpt>
      <trkpt lat="44.54538" lon="1.33366">
        <ele>175.1</ele>
        <time>2022-07-10T08:05:31Z</time>
      </trkpt>
      <trkpt lat="44.5454" lon="1.33358">
        <ele>174.8</ele>
        <time>2022-07-10T08:05:36Z</time>
      </trkpt>
      <trkpt lat="44.54542" lon="1.33352">
        <ele>175</ele>
        <time>2022-07-10T08:05:40Z</time>
      </trkpt>
      <trkpt lat="44.54543" lon="1.33346">
        <ele>174.5</ele>
        <time>2022-07-10T08:05:44Z</time>
      </trkpt>
      <trkpt lat="44.54545" lon="1.3334">
        <ele>174.7</ele>
        <time>2022-07-10T08:05:48Z</time>
      </trkpt>
      <trkpt lat="44.54546" lon="1.33334">
        <ele>175.3</ele>
        <time>2022-07-10T08:05:52Z</time>
      </trkpt>
      <trkpt lat="44.54547" lon="1.33327">
        <ele>176</ele>
        <time>2022-07-10T08:05:56Z</time>
      </trkpt>
      <trkpt lat="44.54548" lon="1.3332">
        <ele>176.5</ele>
        <time>2022-07-10T08:06:00Z</time>
      </trkpt>
      <trkpt lat="44.54548" lon="1.33312">
        <ele>176.7</ele>
        <time>2022-07-10T08:06:05Z</time>
      </trkpt>
      <trkpt lat="44.54548" lon="1.33306">
        <ele>177.1</ele>
        <time>2022-07-10T08:06:09Z</time>
      </trkpt>
      <trkpt lat="44.54549" lon="1.33299">
        <ele>177.2</ele>
        <time>2022-07-10T08:06:13Z</time>
      </trkpt>
      <trkpt lat="44.54549" lon="1.33293">
        <ele>178.1</ele>
        <time>2022-07-10T08:06:17Z</time>
      </trkpt>
      <trkpt lat="44.54549" lon="1.33286">
        <ele>179.9</ele>
        <time>2022-07-10T08:06:21Z</time>
      </trkpt>
      <trkpt lat="44.5455" lon="1.33279">
        <ele>180.7</ele>
        <time>2022-07-10T08:06:25Z</time>
      </trkpt>
      <trkpt lat="44.54549" lon="1.33273">
        <ele>180.7</ele>
        <time>2022-07-10T08:06:29Z</time>
      </trkpt>
      <trkpt lat="44.54549" lon="1.33266">
        <ele>180.5</ele>
        <time>2022-07-10T08:06:33Z</time>
      </trkpt>
      <trkpt lat="44.54547" lon="1.33259">
        <ele>180.8</ele>
        <time>2022-07-10T08:06:37Z</time>
      </trkpt>
      <trkpt lat="44.54546" lon="1.33252">
        <ele>180.8</ele>
        <time>2022-07-10T08:06:41Z</time>
      </trkpt>
      <trkpt lat="44.54544" lon="1.33246">
        <ele>180.5</ele>
        <time>2022-07-10T08:06:45Z</time>
      </trkpt>
      <trkpt lat="44.54542" lon="1.3324">
        <ele>180</ele>
        <time>2022-07-10T08:06:49Z</time>
      </trkpt>
      <trkpt lat="44.54541" lon="1.33232">
        <ele>178.9</ele>
        <time>2022-07-10T08:06:54Z</time>
      </trkpt>
      <trkpt lat="44.54541" lon="1.33226">
        <ele>178.7</ele>
        <time>2022-07-10T08:06:58Z</time>
      </trkpt>
      <trkpt lat="44.5454" lon="1.33218">
        <ele>178.3</ele>
        <time>2022-07-10T08:07:03Z</time>
      </trkpt>
      <trkpt lat="44.54539" lon="1.33212">
        <ele>178.7</ele>
        <time>2022-07-10T08:07:07Z</time>
      </trkpt>
      <trkpt lat="44.54538" lon="1.33204">
        <ele>179.1</ele>
        <time>2022-07-10T08:07:12Z</time>
      </trkpt>
      <trkpt lat="44.54539" lon="1.33198">
        <ele>180</ele>
        <time>2022-07-10T08:07:16Z</time>
      </trkpt>
      <trkpt lat="44.5454" lon="1.33191">
        <ele>180.2</ele>
        <time>2022-07-10T08:07:20Z</time>
      </trkpt>
      <trkpt lat="44.54541" lon="1.33185">
        <ele>179.8</ele>
        <time>2022-07-10T08:07:24Z</time>
      </trkpt>
      <trkpt lat="44.54542" lon="1.33179">
        <ele>179.5</ele>
        <time>2022-07-10T08:07:28Z</time>
      </trkpt>
      <trkpt lat="44.54543" lon="1.33171">
        <ele>179.2</ele>
        <time>2022-07-10T08:07:33Z</time>
      </trkpt>
      <trkpt lat="44.54545" lon="1.33164">
        <ele>179.1</ele>
        <time>2022-07-10T08:07:38Z</time>
      </trkpt>
      <trkpt lat="44.54546" lon="1.33158">
        <ele>179</ele>
        <time>2022-07-10T08:07:42Z</time>
      </trkpt>
      <trkpt lat="44.54548" lon="1.33152">
        <ele>178.9</ele>
        <time>2022-07-10T08:07:46Z</time>
      </trkpt>
      <trkpt lat="44.5455" lon="1.33146">
        <ele>178.8</ele>
        <time>2022-07-10T08:07:50Z</time>
      </trkpt>
      <trkpt lat="44.54551" lon="1.3314">
        <ele>178.4</ele>
        <time>2022-07-10T08:07:54Z</time>
      </trkpt>
      <trkpt lat="44.54553" lon="1.33133">
        <ele>178</ele>
        <time>2022-07-10T08:07:58Z</time>
      </trkpt>
      <trkpt lat="44.54554" lon="1.33127">
        <ele>178.5</ele>
        <time>2022-07-10T08:08:02Z</time>
      </trkpt>
      <trkpt lat="44.54555" lon="1.3312">
        <ele>178.8</ele>
        <time>2022-07-10T08:08:07Z</time>
      </trkpt>
      <trkpt lat="44.54557" lon="1.33113">
        <ele>179.4</ele>
        <time>2022-07-10T08:08:11Z</time>
      </trkpt>
      <trkpt lat="44.54557" lon="1.33107">
        <ele>179.3</ele>
        <time>2022-07-10T08:08:15Z</time>
      </trkpt>
      <trkpt lat="44.54557" lon="1.33099">
        <ele>178.7</ele>
        <time>2022-07-10T08:08:20Z</time>
      </trkpt>
      <trkpt lat="44.54558" lon="1.33093">
        <ele>178.6</ele>
        <time>2022-07-10T08:08:24Z</time>
      </trkpt>
      <trkpt lat="44.54558" lon="1.33086">
        <ele>178</ele>
        <time>2022-07-10T08:08:29Z</time>
      </trkpt>
      <trkpt lat="44.54559" lon="1.33079">
        <ele>177.9</ele>
        <time>2022-07-10T08:08:33Z</time>
      </trkpt>
      <trkpt lat="44.54559" lon="1.33071">
        <ele>177.3</ele>
        <time>2022-07-10T08:08:38Z</time>
      </trkpt>
      <trkpt lat="44.54559" lon="1.33065">
        <ele>177</ele>
        <time>2022-07-10T08:08:42Z</time>
      </trkpt>
      <trkpt lat="44.54559" lon="1.33058">
        <ele>176.9</ele>
        <time>2022-07-10T08:08:46Z</time>
      </trkpt>
      <trkpt lat="44.5456" lon="1.33052">
        <ele>177.1</ele>
        <time>2022-07-10T08:08:50Z</time>
      </trkpt>
      <trkpt lat="44.54561" lon="1.33044">
        <ele>177.6</ele>
        <time>2022-07-10T08:08:55Z</time>
      </trkpt>
      <trkpt lat="44.54562" lon="1.33038">
        <ele>178.2</ele>
        <time>2022-07-10T08:08:59Z</time>
      </trkpt>
      <trkpt lat="44.54562" lon="1.3303">
        <ele>178</ele>
        <time>2022-07-10T08:09:04Z</time>
      </trkpt>
      <trkpt lat="44.54562" lon="1.33022">
        <ele>177.3</ele>
        <time>2022-07-10T08:09:09Z</time>
      </trkpt>
      <trkpt lat="44.54563" lon="1.33016">
        <ele>176.4</ele>
        <time>2022-07-10T08:09:13Z</time>
      </trkpt>
      <trkpt lat="44.54563" lon="1.33009">
        <ele>175.7</ele>
        <time>2022-07-10T08:09:17Z</time>
      </trkpt>
      <trkpt lat="44.54564" lon="1.33001">
        <ele>174.8</ele>
        <time>2022-07-10T08:09:22Z</time>
      </trkpt>
      <trkpt lat="44.54563" lon="1.32994">
        <ele>174.3</ele>
        <time>2022-07-10T08:09:27Z</time>
      </trkpt>
      <trkpt lat="44.54562" lon="1.32987">
        <ele>174</ele>
        <time>2022-07-10T08:09:31Z</time>
      </trkpt>
      <trkpt lat="44.54562" lon="1.32981">
        <ele>173.9</ele>
        <time>2022-07-10T08:09:35Z</time>
      </trkpt>
      <trkpt lat="44.5456" lon="1.32974">
        <ele>173.4</ele>
        <time>2022-07-10T08:09:39Z</time>
      </trkpt>
      <trkpt lat="44.54558" lon="1.32968">
        <ele>172.9</ele>
        <time>2022-07-10T08:09:43Z</time>
      </trkpt>
      <trkpt lat="44.54556" lon="1.32961">
        <ele>172.1</ele>
        <time>2022-07-10T08:09:48Z</time>
      </trkpt>
      <trkpt lat="44.54553" lon="1.32955">
        <ele>170.5</ele>
        <time>2022-07-10T08:09:52Z</time>
      </trkpt>
      <trkpt lat="44.54551" lon="1.3295">
        <ele>170.1</ele>
        <time>2022-07-10T08:09:56Z</time>
      </trkpt>
      <trkpt lat="44.54548" lon="1.32945">
        <ele>170.6</ele>
        <time>2022-07-10T08:10:00Z</time>
      </trkpt>
      <trkpt lat="44.54545" lon="1.3294">
        <ele>170.9</ele>
        <time>2022-07-10T08:10:04Z</time>
      </trkpt>
      <trkpt lat="44.54541" lon="1.32935">
        <ele>171.2</ele>
        <time>2022-07-10T08:10:08Z</time>
      </trkpt>
      <trkpt lat="44.54538" lon="1.32932">
        <ele>171.8</ele>
        <time>2022-07-10T08:10:12Z</time>
      </trkpt>
      <trkpt lat="44.54534" lon="1.32926">
        <ele>171.6</ele>
        <time>2022-07-10T08:10:17Z</time>
      </trkpt>
      <trkpt lat="44.54529" lon="1.32922">
        <ele>171.1</ele>
        <time>2022-07-10T08:10:22Z</time>
      </trkpt>
      <trkpt lat="44.54525" lon="1.32917">
        <ele>169.6</ele>
        <time>2022-07-10T08:10:27Z</time>
      </trkpt>
      <trkpt lat="44.54522" lon="1.32913">
        <ele>168.6</ele>
        <time>2022-07-10T08:10:32Z</time>
      </trkpt>
      <trkpt lat="44.54519" lon="1.32908">
        <ele>168.6</ele>
        <time>2022-07-10T08:10:36Z</time>
      </trkpt>
      <trkpt lat="44.54517" lon="1.32902">
        <ele>168.7</ele>
        <time>2022-07-10T08:10:40Z</time>
      </trkpt>
      <trkpt lat="44.54514" lon="1.32896">
        <ele>168.8</ele>
        <time>2022-07-10T08:10:44Z</time>
      </trkpt>
      <trkpt lat="44.54512" lon="1.3289">
        <ele>169.3</ele>
        <time>2022-07-10T08:10:49Z</time>
      </trkpt>
      <trkpt lat="44.54511" lon="1.32882">
        <ele>170.1</ele>
        <time>2022-07-10T08:10:54Z</time>
      </trkpt>
      <trkpt lat="44.54511" lon="1.32874">
        <ele>170.1</ele>
        <time>2022-07-10T08:10:59Z</time>
      </trkpt>
      <trkpt lat="44.54511" lon="1.32867">
        <ele>169.2</ele>
        <time>2022-07-10T08:11:04Z</time>
      </trkpt>
      <trkpt lat="44.54512" lon="1.3286">
        <ele>168.6</ele>
        <time>2022-07-10T08:11:09Z</time>
      </trkpt>
      <trkpt lat="44.54514" lon="1.32852">
        <ele>168.9</ele>
        <time>2022-07-10T08:11:14Z</time>
      </trkpt>
      <trkpt lat="44.54516" lon="1.32845">
        <ele>169.4</ele>
        <time>2022-07-10T08:11:19Z</time>
      </trkpt>
      <trkpt lat="44.54517" lon="1.32838">
        <ele>170.7</ele>
        <time>2022-07-10T08:11:24Z</time>
      </trkpt>
      <trkpt lat="44.54518" lon="1.32831">
        <ele>170.5</ele>
        <time>2022-07-10T08:11:29Z</time>
      </trkpt>
      <trkpt lat="44.54519" lon="1.32824">
        <ele>170.2</ele>
        <time>2022-07-10T08:11:33Z</time>
      </trkpt>
      <trkpt lat="44.5452" lon="1.32817">
        <ele>170.1</ele>
        <time>2022-07-10T08:11:37Z</time>
      </trkpt>
      <trkpt lat="44.54521" lon="1.32811">
        <ele>170.1</ele>
        <time>2022-07-10T08:11:41Z</time>
      </trkpt>
      <trkpt lat="44.54522" lon="1.32804">
        <ele>170.5</ele>
        <time>2022-07-10T08:11:45Z</time>
      </trkpt>
      <trkpt lat="44.54523" lon="1.32797">
        <ele>171</ele>
        <time>2022-07-10T08:11:50Z</time>
      </trkpt>
      <trkpt lat="44.54524" lon="1.32791">
        <ele>170.9</ele>
        <time>2022-07-10T08:11:54Z</time>
      </trkpt>
      <trkpt lat="44.54525" lon="1.32784">
        <ele>170.5</ele>
        <time>2022-07-10T08:11:58Z</time>
      </trkpt>
      <trkpt lat="44.54526" lon="1.32776">
        <ele>170.6</ele>
        <time>2022-07-10T08:12:03Z</time>
      </trkpt>
      <trkpt lat="44.54527" lon="1.3277">
        <ele>170.8</ele>
        <time>2022-07-10T08:12:07Z</time>
      </trkpt>
      <trkpt lat="44.54527" lon="1.32763">
        <ele>171</ele>
        <time>2022-07-10T08:12:11Z</time>
      </trkpt>
      <trkpt lat="44.54526" lon="1.32757">
        <ele>170.5</ele>
        <time>2022-07-10T08:12:15Z</time>
      </trkpt>
      <trkpt lat="44.54526" lon="1.3275">
        <ele>170.5</ele>
        <time>2022-07-10T08:12:19Z</time>
      </trkpt>
      <trkpt lat="44.54525" lon="1.32743">
        <ele>170.4</ele>
        <time>2022-07-10T08:12:23Z</time>
      </trkpt>
      <trkpt lat="44.54524" lon="1.32737">
        <ele>170.2</ele>
        <time>2022-07-10T08:12:27Z</time>
      </trkpt>
      <trkpt lat="44.54523" lon="1.3273">
        <ele>169.8</ele>
        <time>2022-07-10T08:12:32Z</time>
      </trkpt>
      <trkpt lat="44.54522" lon="1.32723">
        <ele>170.5</ele>
        <time>2022-07-10T08:12:37Z</time>
      </trkpt>
      <trkpt lat="44.54521" lon="1.32716">
        <ele>170.7</ele>
        <time>2022-07-10T08:12:42Z</time>
      </trkpt>
      <trkpt lat="44.54519" lon="1.32709">
        <ele>170.9</ele>
        <time>2022-07-10T08:12:47Z</time>
      </trkpt>
      <trkpt lat="44.54517" lon="1.32702">
        <ele>170.7</ele>
        <time>2022-07-10T08:12:52Z</time>
      </trkpt>
      <trkpt lat="44.54516" lon="1.32694">
        <ele>170.4</ele>
        <time>2022-07-10T08:12:57Z</time>
      </trkpt>
      <trkpt lat="44.54513" lon="1.32688">
        <ele>170</ele>
        <time>2022-07-10T08:13:02Z</time>
      </trkpt>
      <trkpt lat="44.54511" lon="1.32682">
        <ele>169.9</ele>
        <time>2022-07-10T08:13:06Z</time>
      </trkpt>
      <trkpt lat="44.54509" lon="1.32676">
        <ele>169.9</ele>
        <time>2022-07-10T08:13:10Z</time>
      </trkpt>
      <trkpt lat="44.54506" lon="1.32671">
        <ele>169.9</ele>
        <time>2022-07-10T08:13:14Z</time>
      </trkpt>
      <trkpt lat="44.54503" lon="1.32666">
        <ele>169.7</ele>
        <time>2022-07-10T08:13:18Z</time>
      </trkpt>
      <trkpt lat="44.54499" lon="1.32662">
        <ele>169.8</ele>
        <time>2022-07-10T08:13:22Z</time>
      </trkpt>
      <trkpt lat="44.54495" lon="1.32658">
        <ele>169.6</ele>
        <time>2022-07-10T08:13:26Z</time>
      </trkpt>
      <trkpt lat="44.54492" lon="1.32654">
        <ele>169.3</ele>
        <time>2022-07-10T08:13:30Z</time>
      </trkpt>
      <trkpt lat="44.54487" lon="1.3265">
        <ele>169.1</ele>
        <time>2022-07-10T08:13:35Z</time>
      </trkpt>
      <trkpt lat="44.54483" lon="1.32646">
        <ele>169.3</ele>
        <time>2022-07-10T08:13:40Z</time>
      </trkpt>
      <trkpt lat="44.54479" lon="1.32642">
        <ele>169.6</ele>
        <time>2022-07-10T08:13:44Z</time>
      </trkpt>
      <trkpt lat="44.54475" lon="1.32638">
        <ele>170</ele>
        <time>2022-07-10T08:13:49Z</time>
      </trkpt>
      <trkpt lat="44.54479" lon="1.32641">
        <ele>167.7</ele>
        <time>2022-07-10T08:19:34Z</time>
      </trkpt>
      <trkpt lat="44.54484" lon="1.32643">
        <ele>167.3</ele>
        <time>2022-07-10T08:19:39Z</time>
      </trkpt>
      <trkpt lat="44.54489" lon="1.32645">
        <ele>167.4</ele>
        <time>2022-07-10T08:19:45Z</time>
      </trkpt>
      <trkpt lat="44.54494" lon="1.32646">
        <ele>167.5</ele>
        <time>2022-07-10T08:19:51Z</time>
      </trkpt>
      <trkpt lat="44.54499" lon="1.32649">
        <ele>167.6</ele>
        <time>2022-07-10T08:19:57Z</time>
      </trkpt>
      <trkpt lat="44.54503" lon="1.32651">
        <ele>168.5</ele>
        <time>2022-07-10T08:20:03Z</time>
      </trkpt>
      <trkpt lat="44.54508" lon="1.32654">
        <ele>169.3</ele>
        <time>2022-07-10T08:20:08Z</time>
      </trkpt>
      <trkpt lat="44.54513" lon="1.32656">
        <ele>169.4</ele>
        <time>2022-07-10T08:20:13Z</time>
      </trkpt>
      <trkpt lat="44.54517" lon="1.32659">
        <ele>169.2</ele>
        <time>2022-07-10T08:20:18Z</time>
      </trkpt>
      <trkpt lat="44.54522" lon="1.32661">
        <ele>169.4</ele>
        <time>2022-07-10T08:20:23Z</time>
      </trkpt>
      <trkpt lat="44.54526" lon="1.32665">
        <ele>169.8</ele>
        <time>2022-07-10T08:20:28Z</time>
      </trkpt>
      <trkpt lat="44.5453" lon="1.32669">
        <ele>170.6</ele>
        <time>2022-07-10T08:20:33Z</time>
      </trkpt>
      <trkpt lat="44.54533" lon="1.32672">
        <ele>171</ele>
        <time>2022-07-10T08:20:38Z</time>
      </trkpt>
      <trkpt lat="44.54537" lon="1.32676">
        <ele>172.2</ele>
        <time>2022-07-10T08:20:43Z</time>
      </trkpt>
      <trkpt lat="44.5454" lon="1.32681">
        <ele>173.1</ele>
        <time>2022-07-10T08:20:48Z</time>
      </trkpt>
      <trkpt lat="44.54545" lon="1.32685">
        <ele>173.5</ele>
        <time>2022-07-10T08:20:54Z</time>
      </trkpt>
      <trkpt lat="44.54549" lon="1.32689">
        <ele>174.5</ele>
        <time>2022-07-10T08:21:00Z</time>
      </trkpt>
      <trkpt lat="44.54552" lon="1.32693">
        <ele>175.4</ele>
        <time>2022-07-10T08:21:05Z</time>
      </trkpt>
      <trkpt lat="44.54556" lon="1.32699">
        <ele>177</ele>
        <time>2022-07-10T08:21:12Z</time>
      </trkpt>
      <trkpt lat="44.54559" lon="1.32703">
        <ele>178.1</ele>
        <time>2022-07-10T08:21:18Z</time>
      </trkpt>
      <trkpt lat="44.54563" lon="1.32707">
        <ele>179.1</ele>
        <time>2022-07-10T08:21:24Z</time>
      </trkpt>
      <trkpt lat="44.54566" lon="1.32711">
        <ele>180.3</ele>
        <time>2022-07-10T08:21:30Z</time>
      </trkpt>
      <trkpt lat="44.5457" lon="1.32716">
        <ele>181.7</ele>
        <time>2022-07-10T08:21:36Z</time>
      </trkpt>
      <trkpt lat="44.54574" lon="1.3272">
        <ele>183</ele>
        <time>2022-07-10T08:21:43Z</time>
      </trkpt>
      <trkpt lat="44.54577" lon="1.32725">
        <ele>184.6</ele>
        <time>2022-07-10T08:21:49Z</time>
      </trkpt>
      <trkpt lat="44.5458" lon="1.3273">
        <ele>185.7</ele>
        <time>2022-07-10T08:21:56Z</time>
      </trkpt>
      <trkpt lat="44.54584" lon="1.32736">
        <ele>186.3</ele>
        <time>2022-07-10T08:22:03Z</time>
      </trkpt>
      <trkpt lat="44.54586" lon="1.32741">
        <ele>187</ele>
        <time>2022-07-10T08:22:10Z</time>
      </trkpt>
      <trkpt lat="44.54587" lon="1.32748">
        <ele>188</ele>
        <time>2022-07-10T08:22:17Z</time>
      </trkpt>
      <trkpt lat="44.54588" lon="1.32755">
        <ele>188.9</ele>
        <time>2022-07-10T08:22:24Z</time>
      </trkpt>
      <trkpt lat="44.54587" lon="1.32762">
        <ele>190.5</ele>
        <time>2022-07-10T08:22:31Z</time>
      </trkpt>
      <trkpt lat="44.54587" lon="1.32769">
        <ele>192.2</ele>
        <time>2022-07-10T08:22:39Z</time>
      </trkpt>
      <trkpt lat="44.54587" lon="1.32775">
        <ele>193.7</ele>
        <time>2022-07-10T08:22:47Z</time>
      </trkpt>
      <trkpt lat="44.54588" lon="1.32782">
        <ele>195</ele>
        <time>2022-07-10T08:22:56Z</time>
      </trkpt>
      <trkpt lat="44.54589" lon="1.32789">
        <ele>196</ele>
        <time>2022-07-10T08:23:03Z</time>
      </trkpt>
      <trkpt lat="44.54592" lon="1.32795">
        <ele>197.2</ele>
        <time>2022-07-10T08:23:10Z</time>
      </trkpt>
      <trkpt lat="44.54595" lon="1.32801">
        <ele>197.2</ele>
        <time>2022-07-10T08:23:17Z</time>
      </trkpt>
      <trkpt lat="44.54596" lon="1.32807">
        <ele>197.2</ele>
        <time>2022-07-10T08:23:24Z</time>
      </trkpt>
      <trkpt lat="44.54598" lon="1.32813">
        <ele>198.4</ele>
        <time>2022-07-10T08:23:31Z</time>
      </trkpt>
      <trkpt lat="44.54599" lon="1.3282">
        <ele>199.5</ele>
        <time>2022-07-10T08:23:38Z</time>
      </trkpt>
      <trkpt lat="44.54601" lon="1.32826">
        <ele>199.9</ele>
        <time>2022-07-10T08:23:44Z</time>
      </trkpt>
      <trkpt lat="44.54603" lon="1.32833">
        <ele>201.1</ele>
        <time>2022-07-10T08:23:51Z</time>
      </trkpt>
      <trkpt lat="44.54604" lon="1.32839">
        <ele>202.1</ele>
        <time>2022-07-10T08:23:57Z</time>
      </trkpt>
      <trkpt lat="44.54605" lon="1.32846">
        <ele>203</ele>
        <time>2022-07-10T08:24:03Z</time>
      </trkpt>
      <trkpt lat="44.54606" lon="1.32852">
        <ele>203.4</ele>
        <time>2022-07-10T08:24:08Z</time>
      </trkpt>
      <trkpt lat="44.54607" lon="1.32859">
        <ele>204.3</ele>
        <time>2022-07-10T08:24:13Z</time>
      </trkpt>
      <trkpt lat="44.54608" lon="1.32865">
        <ele>205.1</ele>
        <time>2022-07-10T08:24:19Z</time>
      </trkpt>
      <trkpt lat="44.54609" lon="1.32872">
        <ele>205.4</ele>
        <time>2022-07-10T08:24:25Z</time>
      </trkpt>
      <trkpt lat="44.5461" lon="1.32878">
        <ele>205.4</ele>
        <time>2022-07-10T08:24:30Z</time>
      </trkpt>
      <trkpt lat="44.54611" lon="1.32885">
        <ele>205.4</ele>
        <time>2022-07-10T08:24:35Z</time>
      </trkpt>
      <trkpt lat="44.54613" lon="1.32892">
        <ele>205.5</ele>
        <time>2022-07-10T08:24:40Z</time>
      </trkpt>
      <trkpt lat="44.54614" lon="1.32898">
        <ele>205.4</ele>
        <time>2022-07-10T08:24:45Z</time>
      </trkpt>
      <trkpt lat="44.54615" lon="1.32905">
        <ele>206</ele>
        <time>2022-07-10T08:24:50Z</time>
      </trkpt>
      <trkpt lat="44.54617" lon="1.32912">
        <ele>206.2</ele>
        <time>2022-07-10T08:24:55Z</time>
      </trkpt>
      <trkpt lat="44.54619" lon="1.32918">
        <ele>206.6</ele>
        <time>2022-07-10T08:25:00Z</time>
      </trkpt>
      <trkpt lat="44.54621" lon="1.32925">
        <ele>207.1</ele>
        <time>2022-07-10T08:25:05Z</time>
      </trkpt>
      <trkpt lat="44.54622" lon="1.32931">
        <ele>207.5</ele>
        <time>2022-07-10T08:25:10Z</time>
      </trkpt>
      <trkpt lat="44.54624" lon="1.32938">
        <ele>208</ele>
        <time>2022-07-10T08:25:15Z</time>
      </trkpt>
      <trkpt lat="44.54625" lon="1.32945">
        <ele>208.2</ele>
        <time>2022-07-10T08:25:20Z</time>
      </trkpt>
      <trkpt lat="44.54627" lon="1.32952">
        <ele>208.3</ele>
        <time>2022-07-10T08:25:25Z</time>
      </trkpt>
      <trkpt lat="44.54629" lon="1.32959">
        <ele>208.6</ele>
        <time>2022-07-10T08:25:30Z</time>
      </trkpt>
      <trkpt lat="44.5463" lon="1.32965">
        <ele>209.2</ele>
        <time>2022-07-10T08:25:35Z</time>
      </trkpt>
      <trkpt lat="44.54631" lon="1.32972">
        <ele>210.8</ele>
        <time>2022-07-10T08:25:41Z</time>
      </trkpt>
      <trkpt lat="44.54633" lon="1.32979">
        <ele>211.6</ele>
        <time>2022-07-10T08:25:46Z</time>
      </trkpt>
      <trkpt lat="44.54635" lon="1.32985">
        <ele>211.9</ele>
        <time>2022-07-10T08:25:51Z</time>
      </trkpt>
      <trkpt lat="44.54637" lon="1.32991">
        <ele>212.4</ele>
        <time>2022-07-10T08:25:56Z</time>
      </trkpt>
      <trkpt lat="44.54639" lon="1.32997">
        <ele>212.8</ele>
        <time>2022-07-10T08:26:01Z</time>
      </trkpt>
      <trkpt lat="44.5464" lon="1.33005">
        <ele>214</ele>
        <time>2022-07-10T08:26:07Z</time>
      </trkpt>
      <trkpt lat="44.54641" lon="1.33011">
        <ele>215.5</ele>
        <time>2022-07-10T08:26:12Z</time>
      </trkpt>
      <trkpt lat="44.54643" lon="1.33017">
        <ele>216.7</ele>
        <time>2022-07-10T08:26:17Z</time>
      </trkpt>
      <trkpt lat="44.54644" lon="1.33023">
        <ele>217.5</ele>
        <time>2022-07-10T08:26:22Z</time>
      </trkpt>
      <trkpt lat="44.54645" lon="1.3303">
        <ele>218.3</ele>
        <time>2022-07-10T08:26:28Z</time>
      </trkpt>
      <trkpt lat="44.54646" lon="1.33037">
        <ele>219</ele>
        <time>2022-07-10T08:26:34Z</time>
      </trkpt>
      <trkpt lat="44.54646" lon="1.33044">
        <ele>219.8</ele>
        <time>2022-07-10T08:26:40Z</time>
      </trkpt>
      <trkpt lat="44.54648" lon="1.33051">
        <ele>220.5</ele>
        <time>2022-07-10T08:26:46Z</time>
      </trkpt>
      <trkpt lat="44.54648" lon="1.33057">
        <ele>221.8</ele>
        <time>2022-07-10T08:26:52Z</time>
      </trkpt>
      <trkpt lat="44.54649" lon="1.33064">
        <ele>222.7</ele>
        <time>2022-07-10T08:26:58Z</time>
      </trkpt>
      <trkpt lat="44.54649" lon="1.33071">
        <ele>222.7</ele>
        <time>2022-07-10T08:27:04Z</time>
      </trkpt>
      <trkpt lat="44.54649" lon="1.33078">
        <ele>222.3</ele>
        <time>2022-07-10T08:27:10Z</time>
      </trkpt>
      <trkpt lat="44.54649" lon="1.33085">
        <ele>222.3</ele>
        <time>2022-07-10T08:27:15Z</time>
      </trkpt>
      <trkpt lat="44.54649" lon="1.33091">
        <ele>222.4</ele>
        <time>2022-07-10T08:27:20Z</time>
      </trkpt>
      <trkpt lat="44.5465" lon="1.33097">
        <ele>222.8</ele>
        <time>2022-07-10T08:27:25Z</time>
      </trkpt>
      <trkpt lat="44.54651" lon="1.33104">
        <ele>223</ele>
        <time>2022-07-10T08:27:30Z</time>
      </trkpt>
      <trkpt lat="44.54652" lon="1.33111">
        <ele>223.1</ele>
        <time>2022-07-10T08:27:35Z</time>
      </trkpt>
      <trkpt lat="44.54652" lon="1.33117">
        <ele>222.8</ele>
        <time>2022-07-10T08:27:40Z</time>
      </trkpt>
      <trkpt lat="44.54654" lon="1.33124">
        <ele>223.1</ele>
        <time>2022-07-10T08:27:45Z</time>
      </trkpt>
      <trkpt lat="44.54656" lon="1.33129">
        <ele>223.6</ele>
        <time>2022-07-10T08:27:50Z</time>
      </trkpt>
      <trkpt lat="44.5466" lon="1.33134">
        <ele>224.8</ele>
        <time>2022-07-10T08:27:56Z</time>
      </trkpt>
      <trkpt lat="44.54664" lon="1.33137">
        <ele>225.4</ele>
        <time>2022-07-10T08:28:01Z</time>
      </trkpt>
      <trkpt lat="44.54668" lon="1.33141">
        <ele>226</ele>
        <time>2022-07-10T08:28:06Z</time>
      </trkpt>
      <trkpt lat="44.54671" lon="1.33147">
        <ele>227.1</ele>
        <time>2022-07-10T08:28:11Z</time>
      </trkpt>
      <trkpt lat="44.54674" lon="1.33151">
        <ele>228.9</ele>
        <time>2022-07-10T08:28:17Z</time>
      </trkpt>
      <trkpt lat="44.54678" lon="1.33156">
        <ele>230</ele>
        <time>2022-07-10T08:28:22Z</time>
      </trkpt>
      <trkpt lat="44.54681" lon="1.33161">
        <ele>230.8</ele>
        <time>2022-07-10T08:28:27Z</time>
      </trkpt>
      <trkpt lat="44.54686" lon="1.33165">
        <ele>231.7</ele>
        <time>2022-07-10T08:28:33Z</time>
      </trkpt>
      <trkpt lat="44.54689" lon="1.33169">
        <ele>232.5</ele>
        <time>2022-07-10T08:28:38Z</time>
      </trkpt>
      <trkpt lat="44.54694" lon="1.33172">
        <ele>233.1</ele>
        <time>2022-07-10T08:28:43Z</time>
      </trkpt>
      <trkpt lat="44.54699" lon="1.33175">
        <ele>233.8</ele>
        <time>2022-07-10T08:28:49Z</time>
      </trkpt>
      <trkpt lat="44.54703" lon="1.33177">
        <ele>234.1</ele>
        <time>2022-07-10T08:28:54Z</time>
      </trkpt>
      <trkpt lat="44.54708" lon="1.33177">
        <ele>233.7</ele>
        <time>2022-07-10T08:28:59Z</time>
      </trkpt>
      <trkpt lat="44.54713" lon="1.33178">
        <ele>233.5</ele>
        <time>2022-07-10T08:29:04Z</time>
      </trkpt>
      <trkpt lat="44.54717" lon="1.33179">
        <ele>233.4</ele>
        <time>2022-07-10T08:29:09Z</time>
      </trkpt>
      <trkpt lat="44.54718" lon="1.33185">
        <ele>234</ele>
        <time>2022-07-10T08:31:36Z</time>
      </trkpt>
      <trkpt lat="44.54723" lon="1.33186">
        <ele>233.4</ele>
        <time>2022-07-10T08:32:30Z</time>
      </trkpt>
      <trkpt lat="44.54728" lon="1.33186">
        <ele>232.9</ele>
        <time>2022-07-10T08:32:36Z</time>
      </trkpt>
      <trkpt lat="44.54733" lon="1.33187">
        <ele>232.9</ele>
        <time>2022-07-10T08:32:42Z</time>
      </trkpt>
      <trkpt lat="44.54737" lon="1.33188">
        <ele>232.4</ele>
        <time>2022-07-10T08:32:48Z</time>
      </trkpt>
      <trkpt lat="44.54742" lon="1.33189">
        <ele>232.2</ele>
        <time>2022-07-10T08:32:54Z</time>
      </trkpt>
      <trkpt lat="44.54747" lon="1.3319">
        <ele>232</ele>
        <time>2022-07-10T08:33:00Z</time>
      </trkpt>
      <trkpt lat="44.54752" lon="1.33192">
        <ele>231</ele>
        <time>2022-07-10T08:33:05Z</time>
      </trkpt>
      <trkpt lat="44.54757" lon="1.33195">
        <ele>230.1</ele>
        <time>2022-07-10T08:33:10Z</time>
      </trkpt>
      <trkpt lat="44.54761" lon="1.33198">
        <ele>229.7</ele>
        <time>2022-07-10T08:33:15Z</time>
      </trkpt>
      <trkpt lat="44.54765" lon="1.33203">
        <ele>229.3</ele>
        <time>2022-07-10T08:33:20Z</time>
      </trkpt>
      <trkpt lat="44.54769" lon="1.33207">
        <ele>228.5</ele>
        <time>2022-07-10T08:33:25Z</time>
      </trkpt>
      <trkpt lat="44.54773" lon="1.33212">
        <ele>227.8</ele>
        <time>2022-07-10T08:33:30Z</time>
      </trkpt>
      <trkpt lat="44.54777" lon="1.33215">
        <ele>227.9</ele>
        <time>2022-07-10T08:33:34Z</time>
      </trkpt>
      <trkpt lat="44.54781" lon="1.33219">
        <ele>228.6</ele>
        <time>2022-07-10T08:33:39Z</time>
      </trkpt>
      <trkpt lat="44.54786" lon="1.33222">
        <ele>228.7</ele>
        <time>2022-07-10T08:33:44Z</time>
      </trkpt>
      <trkpt lat="44.54791" lon="1.33225">
        <ele>228.6</ele>
        <time>2022-07-10T08:33:49Z</time>
      </trkpt>
      <trkpt lat="44.54795" lon="1.33229">
        <ele>228.1</ele>
        <time>2022-07-10T08:33:54Z</time>
      </trkpt>
      <trkpt lat="44.54799" lon="1.33234">
        <ele>228.6</ele>
        <time>2022-07-10T08:33:58Z</time>
      </trkpt>
      <trkpt lat="44.54804" lon="1.33238">
        <ele>228.4</ele>
        <time>2022-07-10T08:34:03Z</time>
      </trkpt>
      <trkpt lat="44.54808" lon="1.33241">
        <ele>227.5</ele>
        <time>2022-07-10T08:34:08Z</time>
      </trkpt>
      <trkpt lat="44.54812" lon="1.33246">
        <ele>228.2</ele>
        <time>2022-07-10T08:34:12Z</time>
      </trkpt>
      <trkpt lat="44.54817" lon="1.33249">
        <ele>228.5</ele>
        <time>2022-07-10T08:34:17Z</time>
      </trkpt>
      <trkpt lat="44.54821" lon="1.33253">
        <ele>229.2</ele>
        <time>2022-07-10T08:34:22Z</time>
      </trkpt>
      <trkpt lat="44.54825" lon="1.33258">
        <ele>230</ele>
        <time>2022-07-10T08:34:27Z</time>
      </trkpt>
      <trkpt lat="44.54828" lon="1.33264">
        <ele>231.1</ele>
        <time>2022-07-10T08:34:32Z</time>
      </trkpt>
      <trkpt lat="44.54829" lon="1.3327">
        <ele>232.2</ele>
        <time>2022-07-10T08:34:37Z</time>
      </trkpt>
      <trkpt lat="44.54828" lon="1.33277">
        <ele>232.9</ele>
        <time>2022-07-10T08:34:42Z</time>
      </trkpt>
      <trkpt lat="44.54826" lon="1.33284">
        <ele>233.9</ele>
        <time>2022-07-10T08:34:47Z</time>
      </trkpt>
      <trkpt lat="44.54825" lon="1.33291">
        <ele>234.6</ele>
        <time>2022-07-10T08:34:52Z</time>
      </trkpt>
      <trkpt lat="44.54825" lon="1.33298">
        <ele>235.4</ele>
        <time>2022-07-10T08:34:57Z</time>
      </trkpt>
      <trkpt lat="44.54827" lon="1.33305">
        <ele>235.8</ele>
        <time>2022-07-10T08:35:02Z</time>
      </trkpt>
      <trkpt lat="44.5483" lon="1.3331">
        <ele>235.6</ele>
        <time>2022-07-10T08:35:07Z</time>
      </trkpt>
      <trkpt lat="44.54834" lon="1.33313">
        <ele>234.9</ele>
        <time>2022-07-10T08:35:12Z</time>
      </trkpt>
      <trkpt lat="44.54839" lon="1.33315">
        <ele>234.9</ele>
        <time>2022-07-10T08:35:17Z</time>
      </trkpt>
      <trkpt lat="44.54844" lon="1.33317">
        <ele>235.2</ele>
        <time>2022-07-10T08:35:22Z</time>
      </trkpt>
      <trkpt lat="44.54848" lon="1.33319">
        <ele>235.9</ele>
        <time>2022-07-10T08:35:26Z</time>
      </trkpt>
      <trkpt lat="44.54853" lon="1.33321">
        <ele>236.3</ele>
        <time>2022-07-10T08:35:31Z</time>
      </trkpt>
      <trkpt lat="44.54858" lon="1.33322">
        <ele>236.5</ele>
        <time>2022-07-10T08:35:36Z</time>
      </trkpt>
      <trkpt lat="44.54864" lon="1.33324">
        <ele>235.1</ele>
        <time>2022-07-10T08:35:41Z</time>
      </trkpt>
      <trkpt lat="44.54868" lon="1.33326">
        <ele>233.9</ele>
        <time>2022-07-10T08:35:45Z</time>
      </trkpt>
      <trkpt lat="44.54873" lon="1.33328">
        <ele>233.1</ele>
        <time>2022-07-10T08:35:49Z</time>
      </trkpt>
      <trkpt lat="44.54878" lon="1.33331">
        <ele>232.7</ele>
        <time>2022-07-10T08:35:53Z</time>
      </trkpt>
      <trkpt lat="44.54882" lon="1.33332">
        <ele>232.6</ele>
        <time>2022-07-10T08:35:57Z</time>
      </trkpt>
      <trkpt lat="44.54887" lon="1.33334">
        <ele>232.5</ele>
        <time>2022-07-10T08:36:01Z</time>
      </trkpt>
      <trkpt lat="44.54892" lon="1.33335">
        <ele>232.1</ele>
        <time>2022-07-10T08:36:06Z</time>
      </trkpt>
      <trkpt lat="44.54897" lon="1.33335">
        <ele>231.6</ele>
        <time>2022-07-10T08:36:10Z</time>
      </trkpt>
      <trkpt lat="44.54902" lon="1.33336">
        <ele>231</ele>
        <time>2022-07-10T08:36:14Z</time>
      </trkpt>
      <trkpt lat="44.54907" lon="1.33337">
        <ele>230.7</ele>
        <time>2022-07-10T08:36:19Z</time>
      </trkpt>
      <trkpt lat="44.54912" lon="1.33337">
        <ele>230.4</ele>
        <time>2022-07-10T08:36:24Z</time>
      </trkpt>
      <trkpt lat="44.54917" lon="1.33338">
        <ele>229.7</ele>
        <time>2022-07-10T08:36:29Z</time>
      </trkpt>
      <trkpt lat="44.54923" lon="1.33338">
        <ele>228.9</ele>
        <time>2022-07-10T08:36:34Z</time>
      </trkpt>
      <trkpt lat="44.54928" lon="1.3334">
        <ele>228.3</ele>
        <time>2022-07-10T08:36:39Z</time>
      </trkpt>
      <trkpt lat="44.54934" lon="1.3334">
        <ele>227.6</ele>
        <time>2022-07-10T08:36:44Z</time>
      </trkpt>
      <trkpt lat="44.54939" lon="1.33341">
        <ele>227.2</ele>
        <time>2022-07-10T08:36:49Z</time>
      </trkpt>
      <trkpt lat="44.54944" lon="1.33342">
        <ele>227</ele>
        <time>2022-07-10T08:36:53Z</time>
      </trkpt>
      <trkpt lat="44.54948" lon="1.33342">
        <ele>227</ele>
        <time>2022-07-10T08:36:57Z</time>
      </trkpt>
      <trkpt lat="44.54953" lon="1.33344">
        <ele>227.1</ele>
        <time>2022-07-10T08:37:01Z</time>
      </trkpt>
      <trkpt lat="44.54958" lon="1.33345">
        <ele>227.4</ele>
        <time>2022-07-10T08:37:05Z</time>
      </trkpt>
      <trkpt lat="44.54963" lon="1.33346">
        <ele>227.8</ele>
        <time>2022-07-10T08:37:10Z</time>
      </trkpt>
      <trkpt lat="44.54968" lon="1.33347">
        <ele>228.9</ele>
        <time>2022-07-10T08:37:15Z</time>
      </trkpt>
      <trkpt lat="44.54973" lon="1.33348">
        <ele>229.2</ele>
        <time>2022-07-10T08:37:19Z</time>
      </trkpt>
      <trkpt lat="44.54978" lon="1.3335">
        <ele>229.4</ele>
        <time>2022-07-10T08:37:24Z</time>
      </trkpt>
      <trkpt lat="44.54983" lon="1.33352">
        <ele>229.6</ele>
        <time>2022-07-10T08:37:28Z</time>
      </trkpt>
      <trkpt lat="44.54987" lon="1.33354">
        <ele>229.7</ele>
        <time>2022-07-10T08:37:32Z</time>
      </trkpt>
      <trkpt lat="44.54991" lon="1.33357">
        <ele>230.1</ele>
        <time>2022-07-10T08:37:36Z</time>
      </trkpt>
      <trkpt lat="44.54995" lon="1.33361">
        <ele>231</ele>
        <time>2022-07-10T08:37:40Z</time>
      </trkpt>
      <trkpt lat="44.54998" lon="1.33365">
        <ele>232.2</ele>
        <time>2022-07-10T08:37:44Z</time>
      </trkpt>
      <trkpt lat="44.55001" lon="1.3337">
        <ele>233.2</ele>
        <time>2022-07-10T08:37:48Z</time>
      </trkpt>
      <trkpt lat="44.55006" lon="1.33373">
        <ele>233.4</ele>
        <time>2022-07-10T08:37:53Z</time>
      </trkpt>
      <trkpt lat="44.55011" lon="1.33375">
        <ele>233.7</ele>
        <time>2022-07-10T08:37:59Z</time>
      </trkpt>
      <trkpt lat="44.55015" lon="1.33377">
        <ele>234.1</ele>
        <time>2022-07-10T08:38:05Z</time>
      </trkpt>
      <trkpt lat="44.5502" lon="1.33376">
        <ele>234.5</ele>
        <time>2022-07-10T08:38:11Z</time>
      </trkpt>
      <trkpt lat="44.55025" lon="1.33375">
        <ele>235.7</ele>
        <time>2022-07-10T08:38:17Z</time>
      </trkpt>
      <trkpt lat="44.55029" lon="1.33373">
        <ele>236.4</ele>
        <time>2022-07-10T08:38:22Z</time>
      </trkpt>
      <trkpt lat="44.55034" lon="1.33371">
        <ele>237.9</ele>
        <time>2022-07-10T08:38:27Z</time>
      </trkpt>
      <trkpt lat="44.55039" lon="1.33369">
        <ele>238.6</ele>
        <time>2022-07-10T08:38:32Z</time>
      </trkpt>
      <trkpt lat="44.55044" lon="1.33367">
        <ele>239</ele>
        <time>2022-07-10T08:38:37Z</time>
      </trkpt>
      <trkpt lat="44.55049" lon="1.33366">
        <ele>238.9</ele>
        <time>2022-07-10T08:38:42Z</time>
      </trkpt>
      <trkpt lat="44.55054" lon="1.33364">
        <ele>238.9</ele>
        <time>2022-07-10T08:38:47Z</time>
      </trkpt>
      <trkpt lat="44.55059" lon="1.33361">
        <ele>238.8</ele>
        <time>2022-07-10T08:38:52Z</time>
      </trkpt>
      <trkpt lat="44.55064" lon="1.33358">
        <ele>239.3</ele>
        <time>2022-07-10T08:38:57Z</time>
      </trkpt>
      <trkpt lat="44.55068" lon="1.33355">
        <ele>239.8</ele>
        <time>2022-07-10T08:39:02Z</time>
      </trkpt>
      <trkpt lat="44.55073" lon="1.33352">
        <ele>240.1</ele>
        <time>2022-07-10T08:39:07Z</time>
      </trkpt>
      <trkpt lat="44.55078" lon="1.3335">
        <ele>239.6</ele>
        <time>2022-07-10T08:39:12Z</time>
      </trkpt>
      <trkpt lat="44.55083" lon="1.33348">
        <ele>239.8</ele>
        <time>2022-07-10T08:39:17Z</time>
      </trkpt>
      <trkpt lat="44.55088" lon="1.33346">
        <ele>240.5</ele>
        <time>2022-07-10T08:39:22Z</time>
      </trkpt>
      <trkpt lat="44.55093" lon="1.33343">
        <ele>240.8</ele>
        <time>2022-07-10T08:39:27Z</time>
      </trkpt>
      <trkpt lat="44.55098" lon="1.33341">
        <ele>240.2</ele>
        <time>2022-07-10T08:39:32Z</time>
      </trkpt>
      <trkpt lat="44.55103" lon="1.3334">
        <ele>239.8</ele>
        <time>2022-07-10T08:39:37Z</time>
      </trkpt>
      <trkpt lat="44.55108" lon="1.3334">
        <ele>239.7</ele>
        <time>2022-07-10T08:39:42Z</time>
      </trkpt>
      <trkpt lat="44.55112" lon="1.3334">
        <ele>239.5</ele>
        <time>2022-07-10T08:39:47Z</time>
      </trkpt>
      <trkpt lat="44.55117" lon="1.33341">
        <ele>239.4</ele>
        <time>2022-07-10T08:39:52Z</time>
      </trkpt>
      <trkpt lat="44.55121" lon="1.33344">
        <ele>239</ele>
        <time>2022-07-10T08:39:57Z</time>
      </trkpt>
      <trkpt lat="44.55125" lon="1.33348">
        <ele>237.6</ele>
        <time>2022-07-10T08:40:02Z</time>
      </trkpt>
      <trkpt lat="44.55129" lon="1.33352">
        <ele>236.5</ele>
        <time>2022-07-10T08:40:07Z</time>
      </trkpt>
      <trkpt lat="44.55133" lon="1.33357">
        <ele>235.8</ele>
        <time>2022-07-10T08:40:13Z</time>
      </trkpt>
      <trkpt lat="44.55136" lon="1.33362">
        <ele>236.3</ele>
        <time>2022-07-10T08:40:18Z</time>
      </trkpt>
      <trkpt lat="44.55138" lon="1.33369">
        <ele>236.9</ele>
        <time>2022-07-10T08:40:23Z</time>
      </trkpt>
      <trkpt lat="44.55139" lon="1.33375">
        <ele>238.7</ele>
        <time>2022-07-10T08:40:28Z</time>
      </trkpt>
      <trkpt lat="44.55138" lon="1.33382">
        <ele>240.2</ele>
        <time>2022-07-10T08:40:34Z</time>
      </trkpt>
      <trkpt lat="44.55137" lon="1.33389">
        <ele>241</ele>
        <time>2022-07-10T08:40:40Z</time>
      </trkpt>
      <trkpt lat="44.55137" lon="1.33396">
        <ele>241.1</ele>
        <time>2022-07-10T08:40:46Z</time>
      </trkpt>
      <trkpt lat="44.55136" lon="1.33403">
        <ele>242.4</ele>
        <time>2022-07-10T08:40:52Z</time>
      </trkpt>
      <trkpt lat="44.55135" lon="1.3341">
        <ele>242.4</ele>
        <time>2022-07-10T08:40:58Z</time>
      </trkpt>
      <trkpt lat="44.55134" lon="1.33416">
        <ele>243.1</ele>
        <time>2022-07-10T08:41:03Z</time>
      </trkpt>
      <trkpt lat="44.55134" lon="1.33422">
        <ele>244.2</ele>
        <time>2022-07-10T08:41:08Z</time>
      </trkpt>
      <trkpt lat="44.55134" lon="1.33429">
        <ele>245.5</ele>
        <time>2022-07-10T08:41:13Z</time>
      </trkpt>
      <trkpt lat="44.55136" lon="1.33435">
        <ele>245.9</ele>
        <time>2022-07-10T08:41:19Z</time>
      </trkpt>
      <trkpt lat="44.5514" lon="1.33438">
        <ele>245.6</ele>
        <time>2022-07-10T08:41:27Z</time>
      </trkpt>
      <trkpt lat="44.55145" lon="1.3344">
        <ele>244.3</ele>
        <time>2022-07-10T08:41:34Z</time>
      </trkpt>
      <trkpt lat="44.5515" lon="1.33442">
        <ele>243.6</ele>
        <time>2022-07-10T08:41:40Z</time>
      </trkpt>
      <trkpt lat="44.55155" lon="1.33444">
        <ele>243.3</ele>
        <time>2022-07-10T08:41:45Z</time>
      </trkpt>
      <trkpt lat="44.55159" lon="1.33446">
        <ele>243.4</ele>
        <time>2022-07-10T08:41:50Z</time>
      </trkpt>
      <trkpt lat="44.55164" lon="1.33448">
        <ele>243.7</ele>
        <time>2022-07-10T08:41:55Z</time>
      </trkpt>
      <trkpt lat="44.55169" lon="1.33451">
        <ele>243.6</ele>
        <time>2022-07-10T08:42:00Z</time>
      </trkpt>
      <trkpt lat="44.55173" lon="1.33454">
        <ele>243.6</ele>
        <time>2022-07-10T08:42:05Z</time>
      </trkpt>
      <trkpt lat="44.55178" lon="1.33457">
        <ele>243.8</ele>
        <time>2022-07-10T08:42:10Z</time>
      </trkpt>
      <trkpt lat="44.55182" lon="1.3346">
        <ele>243.7</ele>
        <time>2022-07-10T08:42:15Z</time>
      </trkpt>
      <trkpt lat="44.55187" lon="1.33461">
        <ele>243.9</ele>
        <time>2022-07-10T08:42:20Z</time>
      </trkpt>
      <trkpt lat="44.55192" lon="1.33461">
        <ele>244.4</ele>
        <time>2022-07-10T08:42:25Z</time>
      </trkpt>
      <trkpt lat="44.55196" lon="1.33463">
        <ele>244.9</ele>
        <time>2022-07-10T08:42:30Z</time>
      </trkpt>
      <trkpt lat="44.552" lon="1.33466">
        <ele>245.2</ele>
        <time>2022-07-10T08:42:35Z</time>
      </trkpt>
      <trkpt lat="44.55204" lon="1.33469">
        <ele>245.8</ele>
        <time>2022-07-10T08:42:40Z</time>
      </trkpt>
      <trkpt lat="44.55209" lon="1.3347">
        <ele>245.3</ele>
        <time>2022-07-10T08:42:45Z</time>
      </trkpt>
      <trkpt lat="44.55214" lon="1.33472">
        <ele>243.9</ele>
        <time>2022-07-10T08:42:50Z</time>
      </trkpt>
      <trkpt lat="44.55219" lon="1.33476">
        <ele>243.5</ele>
        <time>2022-07-10T08:42:55Z</time>
      </trkpt>
      <trkpt lat="44.55223" lon="1.33481">
        <ele>244.6</ele>
        <time>2022-07-10T08:43:00Z</time>
      </trkpt>
      <trkpt lat="44.55226" lon="1.33486">
        <ele>245.4</ele>
        <time>2022-07-10T08:43:05Z</time>
      </trkpt>
      <trkpt lat="44.55229" lon="1.33492">
        <ele>245.8</ele>
        <time>2022-07-10T08:43:10Z</time>
      </trkpt>
      <trkpt lat="44.55232" lon="1.33498">
        <ele>245.8</ele>
        <time>2022-07-10T08:43:15Z</time>
      </trkpt>
      <trkpt lat="44.55235" lon="1.33504">
        <ele>245.8</ele>
        <time>2022-07-10T08:43:20Z</time>
      </trkpt>
      <trkpt lat="44.55237" lon="1.3351">
        <ele>245.5</ele>
        <time>2022-07-10T08:43:25Z</time>
      </trkpt>
      <trkpt lat="44.55236" lon="1.33516">
        <ele>245.6</ele>
        <time>2022-07-10T08:43:38Z</time>
      </trkpt>
      <trkpt lat="44.5524" lon="1.33519">
        <ele>244.3</ele>
        <time>2022-07-10T08:43:43Z</time>
      </trkpt>
      <trkpt lat="44.55245" lon="1.33521">
        <ele>243.2</ele>
        <time>2022-07-10T08:43:48Z</time>
      </trkpt>
      <trkpt lat="44.5525" lon="1.33522">
        <ele>242.4</ele>
        <time>2022-07-10T08:43:54Z</time>
      </trkpt>
      <trkpt lat="44.55254" lon="1.33521">
        <ele>241.4</ele>
        <time>2022-07-10T08:43:59Z</time>
      </trkpt>
      <trkpt lat="44.55257" lon="1.33516">
        <ele>242.1</ele>
        <time>2022-07-10T08:44:05Z</time>
      </trkpt>
      <trkpt lat="44.55261" lon="1.33512">
        <ele>242.4</ele>
        <time>2022-07-10T08:46:10Z</time>
      </trkpt>
      <trkpt lat="44.55257" lon="1.33511">
        <ele>241.1</ele>
        <time>2022-07-10T08:47:10Z</time>
      </trkpt>
      <trkpt lat="44.55253" lon="1.33506">
        <ele>241</ele>
        <time>2022-07-10T08:47:15Z</time>
      </trkpt>
      <trkpt lat="44.55248" lon="1.33507">
        <ele>241.6</ele>
        <time>2022-07-10T08:47:20Z</time>
      </trkpt>
      <trkpt lat="44.55244" lon="1.33505">
        <ele>242.3</ele>
        <time>2022-07-10T08:47:31Z</time>
      </trkpt>
      <trkpt lat="44.55245" lon="1.33511">
        <ele>242.3</ele>
        <time>2022-07-10T08:48:12Z</time>
      </trkpt>
      <trkpt lat="44.55249" lon="1.33515">
        <ele>240.8</ele>
        <time>2022-07-10T08:48:20Z</time>
      </trkpt>
      <trkpt lat="44.55253" lon="1.33516">
        <ele>239.9</ele>
        <time>2022-07-10T08:48:27Z</time>
      </trkpt>
      <trkpt lat="44.55257" lon="1.3351">
        <ele>239.4</ele>
        <time>2022-07-10T08:48:33Z</time>
      </trkpt>
      <trkpt lat="44.5526" lon="1.33505">
        <ele>239.2</ele>
        <time>2022-07-10T08:48:41Z</time>
      </trkpt>
      <trkpt lat="44.55255" lon="1.33508">
        <ele>239.8</ele>
        <time>2022-07-10T08:50:02Z</time>
      </trkpt>
      <trkpt lat="44.55252" lon="1.33514">
        <ele>239.5</ele>
        <time>2022-07-10T08:51:38Z</time>
      </trkpt>
      <trkpt lat="44.55247" lon="1.33514">
        <ele>240</ele>
        <time>2022-07-10T08:51:44Z</time>
      </trkpt>
      <trkpt lat="44.55243" lon="1.33512">
        <ele>241.1</ele>
        <time>2022-07-10T08:51:50Z</time>
      </trkpt>
      <trkpt lat="44.55239" lon="1.33509">
        <ele>242.4</ele>
        <time>2022-07-10T08:51:58Z</time>
      </trkpt>
      <trkpt lat="44.55234" lon="1.33506">
        <ele>244.7</ele>
        <time>2022-07-10T08:52:08Z</time>
      </trkpt>
      <trkpt lat="44.55232" lon="1.33499">
        <ele>245.4</ele>
        <time>2022-07-10T08:52:15Z</time>
      </trkpt>
      <trkpt lat="44.5523" lon="1.33493">
        <ele>245.8</ele>
        <time>2022-07-10T08:52:20Z</time>
      </trkpt>
      <trkpt lat="44.55228" lon="1.33487">
        <ele>246</ele>
        <time>2022-07-10T08:52:25Z</time>
      </trkpt>
      <trkpt lat="44.55226" lon="1.33481">
        <ele>246.5</ele>
        <time>2022-07-10T08:52:32Z</time>
      </trkpt>
      <trkpt lat="44.55223" lon="1.33476">
        <ele>246.8</ele>
        <time>2022-07-10T08:52:38Z</time>
      </trkpt>
      <trkpt lat="44.55218" lon="1.33471">
        <ele>246.7</ele>
        <time>2022-07-10T08:52:44Z</time>
      </trkpt>
      <trkpt lat="44.55215" lon="1.33468">
        <ele>246.4</ele>
        <time>2022-07-10T08:52:48Z</time>
      </trkpt>
      <trkpt lat="44.5521" lon="1.33463">
        <ele>247</ele>
        <time>2022-07-10T08:52:53Z</time>
      </trkpt>
      <trkpt lat="44.55205" lon="1.33461">
        <ele>247.6</ele>
        <time>2022-07-10T08:52:57Z</time>
      </trkpt>
      <trkpt lat="44.55201" lon="1.33459">
        <ele>247.6</ele>
        <time>2022-07-10T08:53:02Z</time>
      </trkpt>
      <trkpt lat="44.55196" lon="1.33457">
        <ele>246.7</ele>
        <time>2022-07-10T08:53:07Z</time>
      </trkpt>
      <trkpt lat="44.55192" lon="1.33455">
        <ele>245.9</ele>
        <time>2022-07-10T08:53:12Z</time>
      </trkpt>
      <trkpt lat="44.55187" lon="1.33452">
        <ele>245.7</ele>
        <time>2022-07-10T08:53:18Z</time>
      </trkpt>
      <trkpt lat="44.55182" lon="1.33451">
        <ele>246</ele>
        <time>2022-07-10T08:53:24Z</time>
      </trkpt>
      <trkpt lat="44.55177" lon="1.3345">
        <ele>245.9</ele>
        <time>2022-07-10T08:53:29Z</time>
      </trkpt>
      <trkpt lat="44.55172" lon="1.33448">
        <ele>245.7</ele>
        <time>2022-07-10T08:53:34Z</time>
      </trkpt>
      <trkpt lat="44.55167" lon="1.33445">
        <ele>244.9</ele>
        <time>2022-07-10T08:53:40Z</time>
      </trkpt>
      <trkpt lat="44.55162" lon="1.33443">
        <ele>244.2</ele>
        <time>2022-07-10T08:53:45Z</time>
      </trkpt>
      <trkpt lat="44.55157" lon="1.3344">
        <ele>244.3</ele>
        <time>2022-07-10T08:53:50Z</time>
      </trkpt>
      <trkpt lat="44.55152" lon="1.33438">
        <ele>244.8</ele>
        <time>2022-07-10T08:53:55Z</time>
      </trkpt>
      <trkpt lat="44.55147" lon="1.33436">
        <ele>245.7</ele>
        <time>2022-07-10T08:54:00Z</time>
      </trkpt>
      <trkpt lat="44.55143" lon="1.33435">
        <ele>246.3</ele>
        <time>2022-07-10T08:54:05Z</time>
      </trkpt>
      <trkpt lat="44.55138" lon="1.33431">
        <ele>246.8</ele>
        <time>2022-07-10T08:54:10Z</time>
      </trkpt>
      <trkpt lat="44.55135" lon="1.33426">
        <ele>247.1</ele>
        <time>2022-07-10T08:54:16Z</time>
      </trkpt>
      <trkpt lat="44.55135" lon="1.3342">
        <ele>246.6</ele>
        <time>2022-07-10T08:54:22Z</time>
      </trkpt>
      <trkpt lat="44.55136" lon="1.33412">
        <ele>245.8</ele>
        <time>2022-07-10T08:54:28Z</time>
      </trkpt>
      <trkpt lat="44.55137" lon="1.33406">
        <ele>245.6</ele>
        <time>2022-07-10T08:54:33Z</time>
      </trkpt>
      <trkpt lat="44.55137" lon="1.33399">
        <ele>245.1</ele>
        <time>2022-07-10T08:54:38Z</time>
      </trkpt>
      <trkpt lat="44.55137" lon="1.33392">
        <ele>243.9</ele>
        <time>2022-07-10T08:54:43Z</time>
      </trkpt>
      <trkpt lat="44.55135" lon="1.33385">
        <ele>242.5</ele>
        <time>2022-07-10T08:54:48Z</time>
      </trkpt>
      <trkpt lat="44.55134" lon="1.33378">
        <ele>241.8</ele>
        <time>2022-07-10T08:54:54Z</time>
      </trkpt>
      <trkpt lat="44.55132" lon="1.33372">
        <ele>240.9</ele>
        <time>2022-07-10T08:54:59Z</time>
      </trkpt>
      <trkpt lat="44.5513" lon="1.33365">
        <ele>240.2</ele>
        <time>2022-07-10T08:55:04Z</time>
      </trkpt>
      <trkpt lat="44.55128" lon="1.33358">
        <ele>239.8</ele>
        <time>2022-07-10T08:55:09Z</time>
      </trkpt>
      <trkpt lat="44.55126" lon="1.33351">
        <ele>239</ele>
        <time>2022-07-10T08:55:15Z</time>
      </trkpt>
      <trkpt lat="44.55123" lon="1.33345">
        <ele>238.4</ele>
        <time>2022-07-10T08:55:20Z</time>
      </trkpt>
      <trkpt lat="44.5512" lon="1.3334">
        <ele>238</ele>
        <time>2022-07-10T08:55:24Z</time>
      </trkpt>
      <trkpt lat="44.55116" lon="1.33336">
        <ele>237.1</ele>
        <time>2022-07-10T08:55:28Z</time>
      </trkpt>
      <trkpt lat="44.55111" lon="1.33334">
        <ele>236.2</ele>
        <time>2022-07-10T08:55:33Z</time>
      </trkpt>
      <trkpt lat="44.55105" lon="1.33333">
        <ele>235.4</ele>
        <time>2022-07-10T08:55:38Z</time>
      </trkpt>
      <trkpt lat="44.55101" lon="1.33333">
        <ele>234.7</ele>
        <time>2022-07-10T08:55:42Z</time>
      </trkpt>
      <trkpt lat="44.55096" lon="1.33335">
        <ele>234.3</ele>
        <time>2022-07-10T08:55:47Z</time>
      </trkpt>
      <trkpt lat="44.5509" lon="1.33336">
        <ele>234.9</ele>
        <time>2022-07-10T08:55:52Z</time>
      </trkpt>
      <trkpt lat="44.55085" lon="1.33337">
        <ele>235.4</ele>
        <time>2022-07-10T08:55:56Z</time>
      </trkpt>
      <trkpt lat="44.55079" lon="1.33339">
        <ele>236</ele>
        <time>2022-07-10T08:56:01Z</time>
      </trkpt>
      <trkpt lat="44.55075" lon="1.33342">
        <ele>235.3</ele>
        <time>2022-07-10T08:56:05Z</time>
      </trkpt>
      <trkpt lat="44.5507" lon="1.33345">
        <ele>235.2</ele>
        <time>2022-07-10T08:56:10Z</time>
      </trkpt>
      <trkpt lat="44.55065" lon="1.33348">
        <ele>235.2</ele>
        <time>2022-07-10T08:56:15Z</time>
      </trkpt>
      <trkpt lat="44.5506" lon="1.33351">
        <ele>235.5</ele>
        <time>2022-07-10T08:56:20Z</time>
      </trkpt>
      <trkpt lat="44.55055" lon="1.33354">
        <ele>235.2</ele>
        <time>2022-07-10T08:56:25Z</time>
      </trkpt>
      <trkpt lat="44.5505" lon="1.33356">
        <ele>234.7</ele>
        <time>2022-07-10T08:56:30Z</time>
      </trkpt>
      <trkpt lat="44.55044" lon="1.33357">
        <ele>234.6</ele>
        <time>2022-07-10T08:56:35Z</time>
      </trkpt>
      <trkpt lat="44.55039" lon="1.33359">
        <ele>234.8</ele>
        <time>2022-07-10T08:56:40Z</time>
      </trkpt>
      <trkpt lat="44.55034" lon="1.3336">
        <ele>235.3</ele>
        <time>2022-07-10T08:56:45Z</time>
      </trkpt>
      <trkpt lat="44.55029" lon="1.33362">
        <ele>235.5</ele>
        <time>2022-07-10T08:56:50Z</time>
      </trkpt>
      <trkpt lat="44.55024" lon="1.33364">
        <ele>236</ele>
        <time>2022-07-10T08:56:55Z</time>
      </trkpt>
      <trkpt lat="44.55019" lon="1.33365">
        <ele>235.7</ele>
        <time>2022-07-10T08:56:59Z</time>
      </trkpt>
      <trkpt lat="44.55014" lon="1.33366">
        <ele>235.6</ele>
        <time>2022-07-10T08:57:04Z</time>
      </trkpt>
      <trkpt lat="44.55009" lon="1.33369">
        <ele>235.9</ele>
        <time>2022-07-10T08:57:09Z</time>
      </trkpt>
      <trkpt lat="44.55005" lon="1.33369">
        <ele>236.6</ele>
        <time>2022-07-10T08:57:15Z</time>
      </trkpt>
      <trkpt lat="44.55001" lon="1.33365">
        <ele>235.9</ele>
        <time>2022-07-10T08:57:23Z</time>
      </trkpt>
      <trkpt lat="44.55002" lon="1.33359">
        <ele>234.8</ele>
        <time>2022-07-10T08:57:30Z</time>
      </trkpt>
      <trkpt lat="44.55007" lon="1.33357">
        <ele>234.1</ele>
        <time>2022-07-10T08:57:35Z</time>
      </trkpt>
      <trkpt lat="44.55012" lon="1.33357">
        <ele>233.5</ele>
        <time>2022-07-10T08:57:40Z</time>
      </trkpt>
      <trkpt lat="44.55017" lon="1.33356">
        <ele>232.7</ele>
        <time>2022-07-10T08:57:46Z</time>
      </trkpt>
      <trkpt lat="44.55022" lon="1.33357">
        <ele>232.3</ele>
        <time>2022-07-10T08:57:51Z</time>
      </trkpt>
      <trkpt lat="44.55027" lon="1.33357">
        <ele>232.2</ele>
        <time>2022-07-10T08:57:56Z</time>
      </trkpt>
      <trkpt lat="44.55032" lon="1.33356">
        <ele>231.4</ele>
        <time>2022-07-10T08:58:01Z</time>
      </trkpt>
      <trkpt lat="44.55038" lon="1.33355">
        <ele>231.4</ele>
        <time>2022-07-10T08:58:06Z</time>
      </trkpt>
      <trkpt lat="44.55043" lon="1.33353">
        <ele>232</ele>
        <time>2022-07-10T08:58:11Z</time>
      </trkpt>
      <trkpt lat="44.55047" lon="1.33351">
        <ele>232.3</ele>
        <time>2022-07-10T08:58:15Z</time>
      </trkpt>
      <trkpt lat="44.55052" lon="1.33348">
        <ele>232.2</ele>
        <time>2022-07-10T08:58:20Z</time>
      </trkpt>
      <trkpt lat="44.55057" lon="1.33345">
        <ele>232</ele>
        <time>2022-07-10T08:58:25Z</time>
      </trkpt>
      <trkpt lat="44.55062" lon="1.33343">
        <ele>232.1</ele>
        <time>2022-07-10T08:58:30Z</time>
      </trkpt>
      <trkpt lat="44.55067" lon="1.33341">
        <ele>231.7</ele>
        <time>2022-07-10T08:58:35Z</time>
      </trkpt>
      <trkpt lat="44.55072" lon="1.33339">
        <ele>232.9</ele>
        <time>2022-07-10T08:58:40Z</time>
      </trkpt>
      <trkpt lat="44.55077" lon="1.33337">
        <ele>233.8</ele>
        <time>2022-07-10T08:58:45Z</time>
      </trkpt>
      <trkpt lat="44.55083" lon="1.33335">
        <ele>234.4</ele>
        <time>2022-07-10T08:58:49Z</time>
      </trkpt>
      <trkpt lat="44.55087" lon="1.33332">
        <ele>234.1</ele>
        <time>2022-07-10T08:58:54Z</time>
      </trkpt>
      <trkpt lat="44.55092" lon="1.3333">
        <ele>234.1</ele>
        <time>2022-07-10T08:58:59Z</time>
      </trkpt>
      <trkpt lat="44.55097" lon="1.33329">
        <ele>234</ele>
        <time>2022-07-10T08:59:05Z</time>
      </trkpt>
      <trkpt lat="44.55101" lon="1.33326">
        <ele>234.1</ele>
        <time>2022-07-10T08:59:11Z</time>
      </trkpt>
      <trkpt lat="44.55106" lon="1.33325">
        <ele>235.8</ele>
        <time>2022-07-10T08:59:17Z</time>
      </trkpt>
      <trkpt lat="44.55111" lon="1.33327">
        <ele>236.8</ele>
        <time>2022-07-10T08:59:26Z</time>
      </trkpt>
      <trkpt lat="44.55116" lon="1.33328">
        <ele>236.1</ele>
        <time>2022-07-10T08:59:32Z</time>
      </trkpt>
      <trkpt lat="44.55121" lon="1.33328">
        <ele>235.4</ele>
        <time>2022-07-10T08:59:37Z</time>
      </trkpt>
      <trkpt lat="44.55126" lon="1.33329">
        <ele>235.5</ele>
        <time>2022-07-10T08:59:41Z</time>
      </trkpt>
      <trkpt lat="44.55131" lon="1.33331">
        <ele>235.2</ele>
        <time>2022-07-10T08:59:46Z</time>
      </trkpt>
      <trkpt lat="44.55136" lon="1.33334">
        <ele>235.4</ele>
        <time>2022-07-10T08:59:51Z</time>
      </trkpt>
      <trkpt lat="44.55141" lon="1.33335">
        <ele>236.2</ele>
        <time>2022-07-10T08:59:56Z</time>
      </trkpt>
      <trkpt lat="44.55147" lon="1.33336">
        <ele>236.2</ele>
        <time>2022-07-10T09:00:01Z</time>
      </trkpt>
      <trkpt lat="44.55152" lon="1.33337">
        <ele>236.1</ele>
        <time>2022-07-10T09:00:05Z</time>
      </trkpt>
      <trkpt lat="44.55156" lon="1.33336">
        <ele>235.2</ele>
        <time>2022-07-10T09:00:09Z</time>
      </trkpt>
      <trkpt lat="44.55161" lon="1.33335">
        <ele>234.7</ele>
        <time>2022-07-10T09:00:13Z</time>
      </trkpt>
      <trkpt lat="44.55166" lon="1.33335">
        <ele>233.8</ele>
        <time>2022-07-10T09:00:18Z</time>
      </trkpt>
      <trkpt lat="44.55171" lon="1.33335">
        <ele>234.1</ele>
        <time>2022-07-10T09:00:23Z</time>
      </trkpt>
      <trkpt lat="44.55176" lon="1.33334">
        <ele>235</ele>
        <time>2022-07-10T09:00:28Z</time>
      </trkpt>
      <trkpt lat="44.55181" lon="1.33332">
        <ele>235.4</ele>
        <time>2022-07-10T09:00:32Z</time>
      </trkpt>
      <trkpt lat="44.55185" lon="1.33329">
        <ele>235</ele>
        <time>2022-07-10T09:00:37Z</time>
      </trkpt>
      <trkpt lat="44.5519" lon="1.33327">
        <ele>234.1</ele>
        <time>2022-07-10T09:00:42Z</time>
      </trkpt>
      <trkpt lat="44.55195" lon="1.33324">
        <ele>233.3</ele>
        <time>2022-07-10T09:00:47Z</time>
      </trkpt>
      <trkpt lat="44.552" lon="1.33322">
        <ele>232.3</ele>
        <time>2022-07-10T09:00:52Z</time>
      </trkpt>
      <trkpt lat="44.55205" lon="1.33319">
        <ele>231.4</ele>
        <time>2022-07-10T09:00:57Z</time>
      </trkpt>
      <trkpt lat="44.5521" lon="1.33319">
        <ele>230.4</ele>
        <time>2022-07-10T09:01:02Z</time>
      </trkpt>
      <trkpt lat="44.55215" lon="1.33319">
        <ele>229.8</ele>
        <time>2022-07-10T09:01:13Z</time>
      </trkpt>
      <trkpt lat="44.5522" lon="1.3332">
        <ele>229.4</ele>
        <time>2022-07-10T09:01:19Z</time>
      </trkpt>
      <trkpt lat="44.55225" lon="1.33321">
        <ele>229.1</ele>
        <time>2022-07-10T09:01:25Z</time>
      </trkpt>
      <trkpt lat="44.55229" lon="1.33323">
        <ele>228.8</ele>
        <time>2022-07-10T09:01:30Z</time>
      </trkpt>
      <trkpt lat="44.55234" lon="1.33326">
        <ele>228.7</ele>
        <time>2022-07-10T09:01:35Z</time>
      </trkpt>
      <trkpt lat="44.55239" lon="1.33328">
        <ele>228.8</ele>
        <time>2022-07-10T09:01:40Z</time>
      </trkpt>
      <trkpt lat="44.55243" lon="1.33331">
        <ele>228.1</ele>
        <time>2022-07-10T09:01:45Z</time>
      </trkpt>
      <trkpt lat="44.55248" lon="1.33333">
        <ele>227.5</ele>
        <time>2022-07-10T09:01:50Z</time>
      </trkpt>
      <trkpt lat="44.55252" lon="1.33336">
        <ele>226.4</ele>
        <time>2022-07-10T09:01:55Z</time>
      </trkpt>
      <trkpt lat="44.55257" lon="1.33338">
        <ele>225.1</ele>
        <time>2022-07-10T09:02:00Z</time>
      </trkpt>
      <trkpt lat="44.55262" lon="1.33341">
        <ele>224.5</ele>
        <time>2022-07-10T09:02:07Z</time>
      </trkpt>
      <trkpt lat="44.55266" lon="1.33344">
        <ele>223.8</ele>
        <time>2022-07-10T09:02:34Z</time>
      </trkpt>
      <trkpt lat="44.55271" lon="1.33346">
        <ele>225.5</ele>
        <time>2022-07-10T09:02:46Z</time>
      </trkpt>
      <trkpt lat="44.55272" lon="1.33352">
        <ele>224.8</ele>
        <time>2022-07-10T09:02:52Z</time>
      </trkpt>
      <trkpt lat="44.55275" lon="1.33358">
        <ele>223.9</ele>
        <time>2022-07-10T09:02:56Z</time>
      </trkpt>
      <trkpt lat="44.55277" lon="1.33364">
        <ele>222.9</ele>
        <time>2022-07-10T09:03:01Z</time>
      </trkpt>
      <trkpt lat="44.5528" lon="1.3337">
        <ele>222.2</ele>
        <time>2022-07-10T09:03:06Z</time>
      </trkpt>
      <trkpt lat="44.55284" lon="1.33376">
        <ele>221.8</ele>
        <time>2022-07-10T09:03:11Z</time>
      </trkpt>
      <trkpt lat="44.55287" lon="1.33381">
        <ele>221.4</ele>
        <time>2022-07-10T09:03:16Z</time>
      </trkpt>
      <trkpt lat="44.55291" lon="1.33386">
        <ele>221.5</ele>
        <time>2022-07-10T09:03:20Z</time>
      </trkpt>
      <trkpt lat="44.55294" lon="1.3339">
        <ele>221.4</ele>
        <time>2022-07-10T09:03:24Z</time>
      </trkpt>
      <trkpt lat="44.55297" lon="1.33395">
        <ele>221.6</ele>
        <time>2022-07-10T09:03:28Z</time>
      </trkpt>
      <trkpt lat="44.55301" lon="1.33401">
        <ele>221.8</ele>
        <time>2022-07-10T09:03:33Z</time>
      </trkpt>
      <trkpt lat="44.55305" lon="1.33406">
        <ele>222.2</ele>
        <time>2022-07-10T09:03:38Z</time>
      </trkpt>
      <trkpt lat="44.55308" lon="1.33412">
        <ele>222.5</ele>
        <time>2022-07-10T09:03:43Z</time>
      </trkpt>
      <trkpt lat="44.55311" lon="1.33417">
        <ele>223.1</ele>
        <time>2022-07-10T09:03:48Z</time>
      </trkpt>
      <trkpt lat="44.55314" lon="1.33424">
        <ele>225.5</ele>
        <time>2022-07-10T09:03:58Z</time>
      </trkpt>
      <trkpt lat="44.55318" lon="1.33428">
        <ele>224.4</ele>
        <time>2022-07-10T09:04:04Z</time>
      </trkpt>
      <trkpt lat="44.55322" lon="1.33433">
        <ele>223.4</ele>
        <time>2022-07-10T09:04:10Z</time>
      </trkpt>
      <trkpt lat="44.55325" lon="1.33438">
        <ele>223.3</ele>
        <time>2022-07-10T09:04:16Z</time>
      </trkpt>
      <trkpt lat="44.55328" lon="1.33442">
        <ele>223.6</ele>
        <time>2022-07-10T09:04:22Z</time>
      </trkpt>
      <trkpt lat="44.55332" lon="1.33447">
        <ele>223.7</ele>
        <time>2022-07-10T09:04:28Z</time>
      </trkpt>
      <trkpt lat="44.55336" lon="1.33451">
        <ele>222.6</ele>
        <time>2022-07-10T09:04:33Z</time>
      </trkpt>
      <trkpt lat="44.5534" lon="1.33456">
        <ele>221.5</ele>
        <time>2022-07-10T09:04:38Z</time>
      </trkpt>
      <trkpt lat="44.55343" lon="1.3346">
        <ele>220.8</ele>
        <time>2022-07-10T09:04:43Z</time>
      </trkpt>
      <trkpt lat="44.55348" lon="1.33464">
        <ele>219.5</ele>
        <time>2022-07-10T09:04:49Z</time>
      </trkpt>
      <trkpt lat="44.55352" lon="1.33469">
        <ele>218.4</ele>
        <time>2022-07-10T09:04:54Z</time>
      </trkpt>
      <trkpt lat="44.55356" lon="1.33473">
        <ele>217.6</ele>
        <time>2022-07-10T09:04:59Z</time>
      </trkpt>
      <trkpt lat="44.55359" lon="1.33478">
        <ele>217.1</ele>
        <time>2022-07-10T09:05:04Z</time>
      </trkpt>
      <trkpt lat="44.55361" lon="1.33484">
        <ele>217</ele>
        <time>2022-07-10T09:05:10Z</time>
      </trkpt>
      <trkpt lat="44.55364" lon="1.3349">
        <ele>215.4</ele>
        <time>2022-07-10T09:05:17Z</time>
      </trkpt>
      <trkpt lat="44.55368" lon="1.33496">
        <ele>214.5</ele>
        <time>2022-07-10T09:05:22Z</time>
      </trkpt>
      <trkpt lat="44.5537" lon="1.33502">
        <ele>214</ele>
        <time>2022-07-10T09:05:27Z</time>
      </trkpt>
      <trkpt lat="44.55372" lon="1.33509">
        <ele>213.4</ele>
        <time>2022-07-10T09:05:32Z</time>
      </trkpt>
      <trkpt lat="44.55374" lon="1.33515">
        <ele>212.5</ele>
        <time>2022-07-10T09:05:37Z</time>
      </trkpt>
      <trkpt lat="44.55375" lon="1.33522">
        <ele>210.4</ele>
        <time>2022-07-10T09:05:42Z</time>
      </trkpt>
      <trkpt lat="44.55377" lon="1.33529">
        <ele>208.9</ele>
        <time>2022-07-10T09:05:47Z</time>
      </trkpt>
      <trkpt lat="44.55379" lon="1.33535">
        <ele>208.1</ele>
        <time>2022-07-10T09:05:52Z</time>
      </trkpt>
      <trkpt lat="44.5538" lon="1.33541">
        <ele>207.7</ele>
        <time>2022-07-10T09:05:57Z</time>
      </trkpt>
      <trkpt lat="44.55381" lon="1.33548">
        <ele>207.9</ele>
        <time>2022-07-10T09:06:03Z</time>
      </trkpt>
      <trkpt lat="44.5538" lon="1.33556">
        <ele>208.3</ele>
        <time>2022-07-10T09:06:09Z</time>
      </trkpt>
      <trkpt lat="44.55378" lon="1.33563">
        <ele>208.4</ele>
        <time>2022-07-10T09:06:15Z</time>
      </trkpt>
      <trkpt lat="44.55378" lon="1.33569">
        <ele>207.5</ele>
        <time>2022-07-10T09:06:20Z</time>
      </trkpt>
      <trkpt lat="44.55378" lon="1.33576">
        <ele>205.7</ele>
        <time>2022-07-10T09:06:25Z</time>
      </trkpt>
      <trkpt lat="44.5538" lon="1.33583">
        <ele>204.1</ele>
        <time>2022-07-10T09:06:30Z</time>
      </trkpt>
      <trkpt lat="44.55384" lon="1.33589">
        <ele>202.1</ele>
        <time>2022-07-10T09:06:35Z</time>
      </trkpt>
      <trkpt lat="44.55387" lon="1.33594">
        <ele>202</ele>
        <time>2022-07-10T09:06:40Z</time>
      </trkpt>
      <trkpt lat="44.5539" lon="1.33599">
        <ele>202.7</ele>
        <time>2022-07-10T09:06:45Z</time>
      </trkpt>
      <trkpt lat="44.55394" lon="1.33604">
        <ele>203.4</ele>
        <time>2022-07-10T09:06:53Z</time>
      </trkpt>
      <trkpt lat="44.55398" lon="1.33608">
        <ele>202.9</ele>
        <time>2022-07-10T09:07:00Z</time>
      </trkpt>
      <trkpt lat="44.55401" lon="1.33613">
        <ele>201.7</ele>
        <time>2022-07-10T09:07:06Z</time>
      </trkpt>
      <trkpt lat="44.55405" lon="1.33617">
        <ele>201.3</ele>
        <time>2022-07-10T09:07:12Z</time>
      </trkpt>
      <trkpt lat="44.55409" lon="1.33621">
        <ele>200.3</ele>
        <time>2022-07-10T09:07:17Z</time>
      </trkpt>
      <trkpt lat="44.55413" lon="1.33624">
        <ele>198.7</ele>
        <time>2022-07-10T09:07:22Z</time>
      </trkpt>
      <trkpt lat="44.55416" lon="1.33629">
        <ele>196.6</ele>
        <time>2022-07-10T09:07:27Z</time>
      </trkpt>
      <trkpt lat="44.55417" lon="1.33636">
        <ele>195.3</ele>
        <time>2022-07-10T09:07:33Z</time>
      </trkpt>
      <trkpt lat="44.55422" lon="1.33637">
        <ele>194.1</ele>
        <time>2022-07-10T09:07:41Z</time>
      </trkpt>
      <trkpt lat="44.55425" lon="1.33634">
        <ele>193.4</ele>
        <time>2022-07-10T09:07:46Z</time>
      </trkpt>
      <trkpt lat="44.55429" lon="1.33629">
        <ele>192.2</ele>
        <time>2022-07-10T09:07:53Z</time>
      </trkpt>
      <trkpt lat="44.55431" lon="1.33623">
        <ele>190.4</ele>
        <time>2022-07-10T09:08:00Z</time>
      </trkpt>
      <trkpt lat="44.55434" lon="1.33617">
        <ele>188.7</ele>
        <time>2022-07-10T09:08:06Z</time>
      </trkpt>
      <trkpt lat="44.55438" lon="1.33616">
        <ele>187.6</ele>
        <time>2022-07-10T09:08:14Z</time>
      </trkpt>
      <trkpt lat="44.55441" lon="1.33621">
        <ele>185.6</ele>
        <time>2022-07-10T09:08:22Z</time>
      </trkpt>
      <trkpt lat="44.55442" lon="1.33629">
        <ele>183.8</ele>
        <time>2022-07-10T09:08:29Z</time>
      </trkpt>
      <trkpt lat="44.55443" lon="1.33635">
        <ele>182.6</ele>
        <time>2022-07-10T09:08:36Z</time>
      </trkpt>
      <trkpt lat="44.55444" lon="1.33642">
        <ele>181</ele>
        <time>2022-07-10T09:08:43Z</time>
      </trkpt>
      <trkpt lat="44.55446" lon="1.33648">
        <ele>179.6</ele>
        <time>2022-07-10T09:08:49Z</time>
      </trkpt>
      <trkpt lat="44.55448" lon="1.33654">
        <ele>178.1</ele>
        <time>2022-07-10T09:08:55Z</time>
      </trkpt>
      <trkpt lat="44.55451" lon="1.3366">
        <ele>177.2</ele>
        <time>2022-07-10T09:09:02Z</time>
      </trkpt>
      <trkpt lat="44.55452" lon="1.33667">
        <ele>177.6</ele>
        <time>2022-07-10T09:09:08Z</time>
      </trkpt>
      <trkpt lat="44.55455" lon="1.33673">
        <ele>177.6</ele>
        <time>2022-07-10T09:09:15Z</time>
      </trkpt>
      <trkpt lat="44.55456" lon="1.33679">
        <ele>175.3</ele>
        <time>2022-07-10T09:09:22Z</time>
      </trkpt>
      <trkpt lat="44.55458" lon="1.33686">
        <ele>173.6</ele>
        <time>2022-07-10T09:09:29Z</time>
      </trkpt>
      <trkpt lat="44.55459" lon="1.33692">
        <ele>171.6</ele>
        <time>2022-07-10T09:09:36Z</time>
      </trkpt>
      <trkpt lat="44.55463" lon="1.33696">
        <ele>172.2</ele>
        <time>2022-07-10T09:09:46Z</time>
      </trkpt>
      <trkpt lat="44.55464" lon="1.33702">
        <ele>173.8</ele>
        <time>2022-07-10T09:10:03Z</time>
      </trkpt>
      <trkpt lat="44.55469" lon="1.33705">
        <ele>170.8</ele>
        <time>2022-07-10T09:11:06Z</time>
      </trkpt>
      <trkpt lat="44.55466" lon="1.3371">
        <ele>168.2</ele>
        <time>2022-07-10T09:11:43Z</time>
      </trkpt>
      <trkpt lat="44.55464" lon="1.33716">
        <ele>167.4</ele>
        <time>2022-07-10T09:12:14Z</time>
      </trkpt>
      <trkpt lat="44.55469" lon="1.33718">
        <ele>167.3</ele>
        <time>2022-07-10T09:12:22Z</time>
      </trkpt>
      <trkpt lat="44.55474" lon="1.33717">
        <ele>167.8</ele>
        <time>2022-07-10T09:12:27Z</time>
      </trkpt>
      <trkpt lat="44.55478" lon="1.33714">
        <ele>168.2</ele>
        <time>2022-07-10T09:12:32Z</time>
      </trkpt>
      <trkpt lat="44.55481" lon="1.33709">
        <ele>168</ele>
        <time>2022-07-10T09:12:37Z</time>
      </trkpt>
      <trkpt lat="44.55484" lon="1.33702">
        <ele>167.4</ele>
        <time>2022-07-10T09:12:43Z</time>
      </trkpt>
      <trkpt lat="44.55486" lon="1.33696">
        <ele>167.8</ele>
        <time>2022-07-10T09:12:49Z</time>
      </trkpt>
      <trkpt lat="44.55488" lon="1.3369">
        <ele>167.6</ele>
        <time>2022-07-10T09:12:55Z</time>
      </trkpt>
      <trkpt lat="44.55492" lon="1.33686">
        <ele>165.8</ele>
        <time>2022-07-10T09:13:02Z</time>
      </trkpt>
      <trkpt lat="44.55497" lon="1.33683">
        <ele>164.4</ele>
        <time>2022-07-10T09:13:08Z</time>
      </trkpt>
      <trkpt lat="44.55502" lon="1.33681">
        <ele>163.8</ele>
        <time>2022-07-10T09:13:13Z</time>
      </trkpt>
      <trkpt lat="44.55506" lon="1.3368">
        <ele>163.5</ele>
        <time>2022-07-10T09:13:18Z</time>
      </trkpt>
      <trkpt lat="44.5551" lon="1.33678">
        <ele>164.3</ele>
        <time>2022-07-10T09:13:23Z</time>
      </trkpt>
      <trkpt lat="44.55515" lon="1.33675">
        <ele>165.5</ele>
        <time>2022-07-10T09:13:29Z</time>
      </trkpt>
      <trkpt lat="44.55518" lon="1.33671">
        <ele>166.6</ele>
        <time>2022-07-10T09:13:35Z</time>
      </trkpt>
      <trkpt lat="44.5552" lon="1.33664">
        <ele>166.6</ele>
        <time>2022-07-10T09:13:41Z</time>
      </trkpt>
      <trkpt lat="44.55518" lon="1.33658">
        <ele>166.2</ele>
        <time>2022-07-10T09:13:46Z</time>
      </trkpt>
      <trkpt lat="44.55516" lon="1.33651">
        <ele>165.8</ele>
        <time>2022-07-10T09:13:52Z</time>
      </trkpt>
      <trkpt lat="44.55513" lon="1.33645">
        <ele>165.9</ele>
        <time>2022-07-10T09:13:57Z</time>
      </trkpt>
      <trkpt lat="44.55511" lon="1.3364">
        <ele>165.2</ele>
        <time>2022-07-10T09:14:02Z</time>
      </trkpt>
      <trkpt lat="44.55508" lon="1.33634">
        <ele>165</ele>
        <time>2022-07-10T09:14:07Z</time>
      </trkpt>
      <trkpt lat="44.55505" lon="1.33628">
        <ele>165.4</ele>
        <time>2022-07-10T09:14:12Z</time>
      </trkpt>
      <trkpt lat="44.55503" lon="1.33622">
        <ele>165.5</ele>
        <time>2022-07-10T09:14:17Z</time>
      </trkpt>
      <trkpt lat="44.555" lon="1.33616">
        <ele>165</ele>
        <time>2022-07-10T09:14:22Z</time>
      </trkpt>
      <trkpt lat="44.55497" lon="1.33609">
        <ele>165</ele>
        <time>2022-07-10T09:14:27Z</time>
      </trkpt>
      <trkpt lat="44.55494" lon="1.33603">
        <ele>164.2</ele>
        <time>2022-07-10T09:14:32Z</time>
      </trkpt>
      <trkpt lat="44.55491" lon="1.33596">
        <ele>163.6</ele>
        <time>2022-07-10T09:14:37Z</time>
      </trkpt>
      <trkpt lat="44.55489" lon="1.3359">
        <ele>163.7</ele>
        <time>2022-07-10T09:14:42Z</time>
      </trkpt>
      <trkpt lat="44.55486" lon="1.33584">
        <ele>164.2</ele>
        <time>2022-07-10T09:14:47Z</time>
      </trkpt>
      <trkpt lat="44.55483" lon="1.33578">
        <ele>165.2</ele>
        <time>2022-07-10T09:14:52Z</time>
      </trkpt>
      <trkpt lat="44.5548" lon="1.33573">
        <ele>165.5</ele>
        <time>2022-07-10T09:14:57Z</time>
      </trkpt>
      <trkpt lat="44.55476" lon="1.33567">
        <ele>165.5</ele>
        <time>2022-07-10T09:15:02Z</time>
      </trkpt>
      <trkpt lat="44.55472" lon="1.33562">
        <ele>163.8</ele>
        <time>2022-07-10T09:15:07Z</time>
      </trkpt>
      <trkpt lat="44.55469" lon="1.33556">
        <ele>163.6</ele>
        <time>2022-07-10T09:15:12Z</time>
      </trkpt>
      <trkpt lat="44.55466" lon="1.33551">
        <ele>163.4</ele>
        <time>2022-07-10T09:15:17Z</time>
      </trkpt>
      <trkpt lat="44.55463" lon="1.33544">
        <ele>163.4</ele>
        <time>2022-07-10T09:15:22Z</time>
      </trkpt>
      <trkpt lat="44.55461" lon="1.33537">
        <ele>163</ele>
        <time>2022-07-10T09:15:27Z</time>
      </trkpt>
      <trkpt lat="44.5546" lon="1.3353">
        <ele>162.9</ele>
        <time>2022-07-10T09:15:32Z</time>
      </trkpt>
      <trkpt lat="44.55458" lon="1.33523">
        <ele>162.6</ele>
        <time>2022-07-10T09:15:37Z</time>
      </trkpt>
      <trkpt lat="44.55457" lon="1.33515">
        <ele>162.1</ele>
        <time>2022-07-10T09:15:42Z</time>
      </trkpt>
      <trkpt lat="44.55454" lon="1.33508">
        <ele>161.7</ele>
        <time>2022-07-10T09:15:47Z</time>
      </trkpt>
      <trkpt lat="44.55454" lon="1.33502">
        <ele>162</ele>
        <time>2022-07-10T09:15:51Z</time>
      </trkpt>
      <trkpt lat="44.55453" lon="1.33496">
        <ele>162.4</ele>
        <time>2022-07-10T09:15:55Z</time>
      </trkpt>
      <trkpt lat="44.55451" lon="1.3349">
        <ele>162</ele>
        <time>2022-07-10T09:15:59Z</time>
      </trkpt>
      <trkpt lat="44.55449" lon="1.33483">
        <ele>162.2</ele>
        <time>2022-07-10T09:16:04Z</time>
      </trkpt>
      <trkpt lat="44.55447" lon="1.33476">
        <ele>163.2</ele>
        <time>2022-07-10T09:16:09Z</time>
      </trkpt>
      <trkpt lat="44.55444" lon="1.33469">
        <ele>163</ele>
        <time>2022-07-10T09:16:14Z</time>
      </trkpt>
      <trkpt lat="44.55441" lon="1.33463">
        <ele>161.6</ele>
        <time>2022-07-10T09:16:19Z</time>
      </trkpt>
      <trkpt lat="44.55437" lon="1.33457">
        <ele>161.7</ele>
        <time>2022-07-10T09:16:24Z</time>
      </trkpt>
      <trkpt lat="44.55434" lon="1.33452">
        <ele>162.4</ele>
        <time>2022-07-10T09:16:29Z</time>
      </trkpt>
      <trkpt lat="44.5543" lon="1.33446">
        <ele>163.6</ele>
        <time>2022-07-10T09:16:34Z</time>
      </trkpt>
      <trkpt lat="44.55428" lon="1.33441">
        <ele>163.8</ele>
        <time>2022-07-10T09:16:39Z</time>
      </trkpt>
      <trkpt lat="44.55425" lon="1.33436">
        <ele>163.3</ele>
        <time>2022-07-10T09:16:44Z</time>
      </trkpt>
      <trkpt lat="44.55423" lon="1.3343">
        <ele>164.2</ele>
        <time>2022-07-10T09:16:49Z</time>
      </trkpt>
      <trkpt lat="44.5542" lon="1.33424">
        <ele>164.3</ele>
        <time>2022-07-10T09:16:54Z</time>
      </trkpt>
      <trkpt lat="44.55417" lon="1.33418">
        <ele>165.3</ele>
        <time>2022-07-10T09:16:59Z</time>
      </trkpt>
      <trkpt lat="44.55415" lon="1.33412">
        <ele>166.2</ele>
        <time>2022-07-10T09:17:04Z</time>
      </trkpt>
      <trkpt lat="44.55412" lon="1.33406">
        <ele>166.7</ele>
        <time>2022-07-10T09:17:09Z</time>
      </trkpt>
      <trkpt lat="44.55409" lon="1.334">
        <ele>167.7</ele>
        <time>2022-07-10T09:17:14Z</time>
      </trkpt>
      <trkpt lat="44.55406" lon="1.33394">
        <ele>168.9</ele>
        <time>2022-07-10T09:17:19Z</time>
      </trkpt>
      <trkpt lat="44.55404" lon="1.33389">
        <ele>169.4</ele>
        <time>2022-07-10T09:17:23Z</time>
      </trkpt>
      <trkpt lat="44.554" lon="1.33382">
        <ele>170.1</ele>
        <time>2022-07-10T09:17:28Z</time>
      </trkpt>
      <trkpt lat="44.55397" lon="1.33377">
        <ele>170.9</ele>
        <time>2022-07-10T09:17:33Z</time>
      </trkpt>
      <trkpt lat="44.55394" lon="1.33371">
        <ele>171.4</ele>
        <time>2022-07-10T09:17:38Z</time>
      </trkpt>
      <trkpt lat="44.5539" lon="1.33365">
        <ele>171.2</ele>
        <time>2022-07-10T09:17:43Z</time>
      </trkpt>
      <trkpt lat="44.55387" lon="1.3336">
        <ele>171.2</ele>
        <time>2022-07-10T09:17:47Z</time>
      </trkpt>
      <trkpt lat="44.55384" lon="1.33354">
        <ele>170.9</ele>
        <time>2022-07-10T09:17:52Z</time>
      </trkpt>
      <trkpt lat="44.55381" lon="1.33348">
        <ele>170.9</ele>
        <time>2022-07-10T09:17:57Z</time>
      </trkpt>
      <trkpt lat="44.55377" lon="1.33342">
        <ele>170.6</ele>
        <time>2022-07-10T09:18:02Z</time>
      </trkpt>
      <trkpt lat="44.55374" lon="1.33338">
        <ele>169.7</ele>
        <time>2022-07-10T09:18:06Z</time>
      </trkpt>
      <trkpt lat="44.5537" lon="1.33334">
        <ele>168.4</ele>
        <time>2022-07-10T09:18:10Z</time>
      </trkpt>
      <trkpt lat="44.55367" lon="1.33328">
        <ele>167.8</ele>
        <time>2022-07-10T09:18:15Z</time>
      </trkpt>
      <trkpt lat="44.55363" lon="1.33323">
        <ele>167.5</ele>
        <time>2022-07-10T09:18:20Z</time>
      </trkpt>
      <trkpt lat="44.5536" lon="1.33317">
        <ele>167.2</ele>
        <time>2022-07-10T09:18:25Z</time>
      </trkpt>
      <trkpt lat="44.55357" lon="1.33311">
        <ele>167.2</ele>
        <time>2022-07-10T09:18:30Z</time>
      </trkpt>
      <trkpt lat="44.55353" lon="1.33305">
        <ele>167</ele>
        <time>2022-07-10T09:18:35Z</time>
      </trkpt>
      <trkpt lat="44.5535" lon="1.333">
        <ele>166.8</ele>
        <time>2022-07-10T09:18:40Z</time>
      </trkpt>
      <trkpt lat="44.55347" lon="1.33294">
        <ele>166.1</ele>
        <time>2022-07-10T09:18:45Z</time>
      </trkpt>
      <trkpt lat="44.55344" lon="1.33289">
        <ele>165.1</ele>
        <time>2022-07-10T09:18:50Z</time>
      </trkpt>
      <trkpt lat="44.55341" lon="1.33282">
        <ele>163.7</ele>
        <time>2022-07-10T09:18:55Z</time>
      </trkpt>
      <trkpt lat="44.55338" lon="1.33276">
        <ele>162.9</ele>
        <time>2022-07-10T09:19:00Z</time>
      </trkpt>
      <trkpt lat="44.55336" lon="1.33269">
        <ele>162.5</ele>
        <time>2022-07-10T09:19:05Z</time>
      </trkpt>
      <trkpt lat="44.55332" lon="1.33263">
        <ele>161.6</ele>
        <time>2022-07-10T09:19:10Z</time>
      </trkpt>
      <trkpt lat="44.5533" lon="1.33257">
        <ele>161.5</ele>
        <time>2022-07-10T09:19:15Z</time>
      </trkpt>
      <trkpt lat="44.55327" lon="1.33251">
        <ele>161.9</ele>
        <time>2022-07-10T09:19:20Z</time>
      </trkpt>
      <trkpt lat="44.55324" lon="1.33245">
        <ele>162</ele>
        <time>2022-07-10T09:19:24Z</time>
      </trkpt>
      <trkpt lat="44.55321" lon="1.33239">
        <ele>162.1</ele>
        <time>2022-07-10T09:19:29Z</time>
      </trkpt>
      <trkpt lat="44.55318" lon="1.33233">
        <ele>162.1</ele>
        <time>2022-07-10T09:19:34Z</time>
      </trkpt>
      <trkpt lat="44.55315" lon="1.33227">
        <ele>161.7</ele>
        <time>2022-07-10T09:19:39Z</time>
      </trkpt>
      <trkpt lat="44.55312" lon="1.33222">
        <ele>161.4</ele>
        <time>2022-07-10T09:19:44Z</time>
      </trkpt>
      <trkpt lat="44.55308" lon="1.33217">
        <ele>160.5</ele>
        <time>2022-07-10T09:19:49Z</time>
      </trkpt>
      <trkpt lat="44.55305" lon="1.33211">
        <ele>160.3</ele>
        <time>2022-07-10T09:19:54Z</time>
      </trkpt>
      <trkpt lat="44.55302" lon="1.33205">
        <ele>160.3</ele>
        <time>2022-07-10T09:19:58Z</time>
      </trkpt>
      <trkpt lat="44.55299" lon="1.332">
        <ele>159.9</ele>
        <time>2022-07-10T09:20:02Z</time>
      </trkpt>
      <trkpt lat="44.55296" lon="1.33195">
        <ele>159.4</ele>
        <time>2022-07-10T09:20:06Z</time>
      </trkpt>
      <trkpt lat="44.55292" lon="1.3319">
        <ele>159</ele>
        <time>2022-07-10T09:20:11Z</time>
      </trkpt>
      <trkpt lat="44.55288" lon="1.33184">
        <ele>158.7</ele>
        <time>2022-07-10T09:20:16Z</time>
      </trkpt>
      <trkpt lat="44.55285" lon="1.33179">
        <ele>158.5</ele>
        <time>2022-07-10T09:20:21Z</time>
      </trkpt>
      <trkpt lat="44.55282" lon="1.33173">
        <ele>158</ele>
        <time>2022-07-10T09:20:26Z</time>
      </trkpt>
      <trkpt lat="44.55279" lon="1.33167">
        <ele>158.3</ele>
        <time>2022-07-10T09:20:30Z</time>
      </trkpt>
      <trkpt lat="44.55277" lon="1.33162">
        <ele>158.6</ele>
        <time>2022-07-10T09:20:34Z</time>
      </trkpt>
      <trkpt lat="44.55275" lon="1.33156">
        <ele>158.7</ele>
        <time>2022-07-10T09:20:38Z</time>
      </trkpt>
      <trkpt lat="44.55272" lon="1.3315">
        <ele>159.3</ele>
        <time>2022-07-10T09:20:43Z</time>
      </trkpt>
      <trkpt lat="44.55269" lon="1.33144">
        <ele>159.1</ele>
        <time>2022-07-10T09:20:48Z</time>
      </trkpt>
      <trkpt lat="44.55265" lon="1.33138">
        <ele>159.5</ele>
        <time>2022-07-10T09:20:53Z</time>
      </trkpt>
      <trkpt lat="44.55263" lon="1.33132">
        <ele>159.8</ele>
        <time>2022-07-10T09:20:57Z</time>
      </trkpt>
      <trkpt lat="44.55261" lon="1.33126">
        <ele>160.4</ele>
        <time>2022-07-10T09:21:01Z</time>
      </trkpt>
      <trkpt lat="44.55258" lon="1.33121">
        <ele>160.9</ele>
        <time>2022-07-10T09:21:05Z</time>
      </trkpt>
      <trkpt lat="44.55255" lon="1.33114">
        <ele>160.9</ele>
        <time>2022-07-10T09:21:10Z</time>
      </trkpt>
      <trkpt lat="44.55252" lon="1.33109">
        <ele>160.4</ele>
        <time>2022-07-10T09:21:15Z</time>
      </trkpt>
      <trkpt lat="44.55248" lon="1.33103">
        <ele>160</ele>
        <time>2022-07-10T09:21:20Z</time>
      </trkpt>
      <trkpt lat="44.55245" lon="1.33097">
        <ele>159.3</ele>
        <time>2022-07-10T09:21:25Z</time>
      </trkpt>
      <trkpt lat="44.55243" lon="1.33091">
        <ele>159.5</ele>
        <time>2022-07-10T09:21:29Z</time>
      </trkpt>
      <trkpt lat="44.5524" lon="1.33084">
        <ele>159.9</ele>
        <time>2022-07-10T09:21:34Z</time>
      </trkpt>
      <trkpt lat="44.55237" lon="1.33078">
        <ele>160.4</ele>
        <time>2022-07-10T09:21:39Z</time>
      </trkpt>
      <trkpt lat="44.55234" lon="1.33072">
        <ele>160</ele>
        <time>2022-07-10T09:21:44Z</time>
      </trkpt>
      <trkpt lat="44.55231" lon="1.33066">
        <ele>160</ele>
        <time>2022-07-10T09:21:49Z</time>
      </trkpt>
      <trkpt lat="44.55229" lon="1.3306">
        <ele>159.8</ele>
        <time>2022-07-10T09:21:54Z</time>
      </trkpt>
      <trkpt lat="44.55226" lon="1.33054">
        <ele>159.5</ele>
        <time>2022-07-10T09:21:59Z</time>
      </trkpt>
      <trkpt lat="44.55222" lon="1.33049">
        <ele>158.8</ele>
        <time>2022-07-10T09:22:04Z</time>
      </trkpt>
      <trkpt lat="44.55219" lon="1.33043">
        <ele>159.2</ele>
        <time>2022-07-10T09:22:09Z</time>
      </trkpt>
      <trkpt lat="44.55215" lon="1.33038">
        <ele>160.2</ele>
        <time>2022-07-10T09:22:14Z</time>
      </trkpt>
      <trkpt lat="44.55211" lon="1.33032">
        <ele>160.9</ele>
        <time>2022-07-10T09:22:19Z</time>
      </trkpt>
      <trkpt lat="44.55208" lon="1.33027">
        <ele>160.5</ele>
        <time>2022-07-10T09:22:23Z</time>
      </trkpt>
      <trkpt lat="44.55205" lon="1.33023">
        <ele>159.7</ele>
        <time>2022-07-10T09:22:27Z</time>
      </trkpt>
      <trkpt lat="44.55201" lon="1.33019">
        <ele>159.3</ele>
        <time>2022-07-10T09:22:31Z</time>
      </trkpt>
      <trkpt lat="44.55198" lon="1.33012">
        <ele>159.1</ele>
        <time>2022-07-10T09:22:36Z</time>
      </trkpt>
      <trkpt lat="44.55197" lon="1.33005">
        <ele>161</ele>
        <time>2022-07-10T09:23:12Z</time>
      </trkpt>
      <trkpt lat="44.55193" lon="1.33">
        <ele>161.7</ele>
        <time>2022-07-10T09:23:17Z</time>
      </trkpt>
      <trkpt lat="44.55189" lon="1.32998">
        <ele>161.5</ele>
        <time>2022-07-10T09:23:21Z</time>
      </trkpt>
      <trkpt lat="44.55185" lon="1.32994">
        <ele>161.7</ele>
        <time>2022-07-10T09:23:26Z</time>
      </trkpt>
      <trkpt lat="44.55181" lon="1.3299">
        <ele>161.7</ele>
        <time>2022-07-10T09:23:32Z</time>
      </trkpt>
      <trkpt lat="44.55177" lon="1.32986">
        <ele>162.2</ele>
        <time>2022-07-10T09:23:38Z</time>
      </trkpt>
      <trkpt lat="44.55172" lon="1.32982">
        <ele>162.1</ele>
        <time>2022-07-10T09:23:44Z</time>
      </trkpt>
      <trkpt lat="44.55167" lon="1.32978">
        <ele>162.6</ele>
        <time>2022-07-10T09:23:49Z</time>
      </trkpt>
      <trkpt lat="44.55164" lon="1.32974">
        <ele>163</ele>
        <time>2022-07-10T09:23:54Z</time>
      </trkpt>
      <trkpt lat="44.5516" lon="1.32969">
        <ele>162.1</ele>
        <time>2022-07-10T09:24:00Z</time>
      </trkpt>
      <trkpt lat="44.55156" lon="1.32964">
        <ele>161.8</ele>
        <time>2022-07-10T09:24:06Z</time>
      </trkpt>
      <trkpt lat="44.55152" lon="1.32961">
        <ele>161.5</ele>
        <time>2022-07-10T09:24:11Z</time>
      </trkpt>
      <trkpt lat="44.55148" lon="1.32956">
        <ele>161.5</ele>
        <time>2022-07-10T09:24:17Z</time>
      </trkpt>
      <trkpt lat="44.55145" lon="1.32952">
        <ele>161.3</ele>
        <time>2022-07-10T09:24:22Z</time>
      </trkpt>
      <trkpt lat="44.55141" lon="1.32947">
        <ele>161.4</ele>
        <time>2022-07-10T09:24:27Z</time>
      </trkpt>
      <trkpt lat="44.55137" lon="1.32943">
        <ele>161.4</ele>
        <time>2022-07-10T09:24:32Z</time>
      </trkpt>
      <trkpt lat="44.55134" lon="1.32938">
        <ele>162.4</ele>
        <time>2022-07-10T09:24:37Z</time>
      </trkpt>
      <trkpt lat="44.5513" lon="1.32933">
        <ele>163.4</ele>
        <time>2022-07-10T09:24:43Z</time>
      </trkpt>
      <trkpt lat="44.55126" lon="1.32928">
        <ele>163.1</ele>
        <time>2022-07-10T09:24:49Z</time>
      </trkpt>
      <trkpt lat="44.55123" lon="1.32922">
        <ele>162.7</ele>
        <time>2022-07-10T09:24:55Z</time>
      </trkpt>
      <trkpt lat="44.55119" lon="1.32918">
        <ele>162.6</ele>
        <time>2022-07-10T09:25:00Z</time>
      </trkpt>
      <trkpt lat="44.55115" lon="1.32914">
        <ele>162.3</ele>
        <time>2022-07-10T09:25:05Z</time>
      </trkpt>
      <trkpt lat="44.55111" lon="1.32909">
        <ele>162.5</ele>
        <time>2022-07-10T09:25:10Z</time>
      </trkpt>
      <trkpt lat="44.55107" lon="1.32905">
        <ele>162.6</ele>
        <time>2022-07-10T09:25:15Z</time>
      </trkpt>
      <trkpt lat="44.55103" lon="1.32901">
        <ele>162.6</ele>
        <time>2022-07-10T09:25:20Z</time>
      </trkpt>
      <trkpt lat="44.55099" lon="1.32897">
        <ele>162.6</ele>
        <time>2022-07-10T09:25:25Z</time>
      </trkpt>
      <trkpt lat="44.55095" lon="1.32894">
        <ele>162.4</ele>
        <time>2022-07-10T09:25:30Z</time>
      </trkpt>
      <trkpt lat="44.55092" lon="1.32889">
        <ele>162.5</ele>
        <time>2022-07-10T09:25:35Z</time>
      </trkpt>
      <trkpt lat="44.55087" lon="1.32885">
        <ele>162.4</ele>
        <time>2022-07-10T09:25:40Z</time>
      </trkpt>
      <trkpt lat="44.55082" lon="1.32881">
        <ele>162.4</ele>
        <time>2022-07-10T09:25:45Z</time>
      </trkpt>
      <trkpt lat="44.55078" lon="1.32877">
        <ele>162.7</ele>
        <time>2022-07-10T09:25:50Z</time>
      </trkpt>
      <trkpt lat="44.55074" lon="1.32874">
        <ele>162.7</ele>
        <time>2022-07-10T09:25:55Z</time>
      </trkpt>
      <trkpt lat="44.55071" lon="1.32868">
        <ele>163</ele>
        <time>2022-07-10T09:26:00Z</time>
      </trkpt>
      <trkpt lat="44.55068" lon="1.32862">
        <ele>163.5</ele>
        <time>2022-07-10T09:26:04Z</time>
      </trkpt>
      <trkpt lat="44.55064" lon="1.32857">
        <ele>163.7</ele>
        <time>2022-07-10T09:26:09Z</time>
      </trkpt>
      <trkpt lat="44.5506" lon="1.32852">
        <ele>164</ele>
        <time>2022-07-10T09:26:14Z</time>
      </trkpt>
      <trkpt lat="44.55056" lon="1.32848">
        <ele>163.6</ele>
        <time>2022-07-10T09:26:18Z</time>
      </trkpt>
      <trkpt lat="44.55052" lon="1.32842">
        <ele>162.9</ele>
        <time>2022-07-10T09:26:23Z</time>
      </trkpt>
      <trkpt lat="44.55049" lon="1.32837">
        <ele>162.7</ele>
        <time>2022-07-10T09:26:28Z</time>
      </trkpt>
      <trkpt lat="44.55046" lon="1.32831">
        <ele>162.2</ele>
        <time>2022-07-10T09:26:33Z</time>
      </trkpt>
      <trkpt lat="44.55043" lon="1.32826">
        <ele>162.3</ele>
        <time>2022-07-10T09:26:38Z</time>
      </trkpt>
      <trkpt lat="44.5504" lon="1.32819">
        <ele>161.9</ele>
        <time>2022-07-10T09:26:43Z</time>
      </trkpt>
      <trkpt lat="44.55038" lon="1.32813">
        <ele>161.4</ele>
        <time>2022-07-10T09:26:48Z</time>
      </trkpt>
      <trkpt lat="44.55041" lon="1.32807">
        <ele>160.5</ele>
        <time>2022-07-10T09:26:53Z</time>
      </trkpt>
      <trkpt lat="44.55045" lon="1.32803">
        <ele>160.2</ele>
        <time>2022-07-10T09:26:58Z</time>
      </trkpt>
      <trkpt lat="44.55046" lon="1.32796">
        <ele>161.2</ele>
        <time>2022-07-10T09:27:03Z</time>
      </trkpt>
      <trkpt lat="44.55045" lon="1.32789">
        <ele>161.2</ele>
        <time>2022-07-10T09:27:08Z</time>
      </trkpt>
      <trkpt lat="44.55044" lon="1.32781">
        <ele>160.6</ele>
        <time>2022-07-10T09:27:13Z</time>
      </trkpt>
      <trkpt lat="44.55044" lon="1.32775">
        <ele>160.4</ele>
        <time>2022-07-10T09:27:17Z</time>
      </trkpt>
      <trkpt lat="44.55043" lon="1.32767">
        <ele>159.9</ele>
        <time>2022-07-10T09:27:22Z</time>
      </trkpt>
      <trkpt lat="44.55044" lon="1.3276">
        <ele>160</ele>
        <time>2022-07-10T09:27:26Z</time>
      </trkpt>
      <trkpt lat="44.55047" lon="1.32755">
        <ele>159.9</ele>
        <time>2022-07-10T09:27:31Z</time>
      </trkpt>
      <trkpt lat="44.55049" lon="1.32749">
        <ele>161.2</ele>
        <time>2022-07-10T09:27:38Z</time>
      </trkpt>
      <trkpt lat="44.55046" lon="1.32744">
        <ele>161.8</ele>
        <time>2022-07-10T09:27:46Z</time>
      </trkpt>
      <trkpt lat="44.5505" lon="1.32742">
        <ele>160.5</ele>
        <time>2022-07-10T09:27:53Z</time>
      </trkpt>
      <trkpt lat="44.55055" lon="1.32741">
        <ele>160.1</ele>
        <time>2022-07-10T09:27:59Z</time>
      </trkpt>
      <trkpt lat="44.5506" lon="1.32741">
        <ele>160.3</ele>
        <time>2022-07-10T09:28:05Z</time>
      </trkpt>
      <trkpt lat="44.55065" lon="1.32743">
        <ele>160.1</ele>
        <time>2022-07-10T09:28:11Z</time>
      </trkpt>
      <trkpt lat="44.55069" lon="1.32742">
        <ele>159</ele>
        <time>2022-07-10T09:28:18Z</time>
      </trkpt>
      <trkpt lat="44.55074" lon="1.32737">
        <ele>157.8</ele>
        <time>2022-07-10T09:28:24Z</time>
      </trkpt>
      <trkpt lat="44.55077" lon="1.32732">
        <ele>157.3</ele>
        <time>2022-07-10T09:28:29Z</time>
      </trkpt>
    </trkseg>
  </trk>
</gpx>